<?xml version="1.0" encoding="UTF-8" standalone="no" ?>
<gpx xmlns="http://www.topografix.com/GPX/1/1" xmlns:xsi="http://www.w3.org/2001/XMLSchema-instance" xsi:schemaLocation="http://www.topografix.com/GPX/1/1 http://www.topografix.com/GPX/1/1/gpx.xsd" version="1.1" creator="VisuGPX - https://www.visugpx.com">
  <metadata>
    <name>Cabo Val y Puig Moné circular desde Biel</name>
    <desc><![CDATA[https://subircumbres.com/2026/03/06/cabo-val-1312m-y-puig-mone-1303m-circular-desde-biel/]]></desc>
  </metadata>
  <trk>
    <name><![CDATA[2026-03-04 11:23:32]]></name>
    <trkseg>
      <trkpt lat="42.39119" lon="-0.93837">
        <ele>765.37</ele>
        <time>2026-03-04T06:33:30Z</time>
      </trkpt>
      <trkpt lat="42.39118" lon="-0.93837">
        <ele>765.37</ele>
        <time>2026-03-04T06:33:31Z</time>
      </trkpt>
      <trkpt lat="42.39118" lon="-0.93837">
        <ele>763.58</ele>
        <time>2026-03-04T06:33:35Z</time>
      </trkpt>
      <trkpt lat="42.39118" lon="-0.93838">
        <ele>764.81</ele>
        <time>2026-03-04T06:33:50Z</time>
      </trkpt>
      <trkpt lat="42.39119" lon="-0.93847">
        <ele>764.35</ele>
        <time>2026-03-04T06:33:55Z</time>
      </trkpt>
      <trkpt lat="42.39131" lon="-0.93861">
        <ele>766.7</ele>
        <time>2026-03-04T06:34:15Z</time>
      </trkpt>
      <trkpt lat="42.39141" lon="-0.93869">
        <ele>767.99</ele>
        <time>2026-03-04T06:34:25Z</time>
      </trkpt>
      <trkpt lat="42.39148" lon="-0.93879">
        <ele>770.39</ele>
        <time>2026-03-04T06:34:36Z</time>
      </trkpt>
      <trkpt lat="42.39151" lon="-0.93884">
        <ele>770.39</ele>
        <time>2026-03-04T06:34:40Z</time>
      </trkpt>
      <trkpt lat="42.39156" lon="-0.93894">
        <ele>774.46</ele>
        <time>2026-03-04T06:34:48Z</time>
      </trkpt>
      <trkpt lat="42.39157" lon="-0.93895">
        <ele>773.28</ele>
        <time>2026-03-04T06:34:49Z</time>
      </trkpt>
      <trkpt lat="42.39166" lon="-0.93913">
        <ele>775.08</ele>
        <time>2026-03-04T06:35:03Z</time>
      </trkpt>
      <trkpt lat="42.39169" lon="-0.9392">
        <ele>775.46</ele>
        <time>2026-03-04T06:35:08Z</time>
      </trkpt>
      <trkpt lat="42.39183" lon="-0.9394">
        <ele>779.12</ele>
        <time>2026-03-04T06:35:25Z</time>
      </trkpt>
      <trkpt lat="42.39198" lon="-0.93951">
        <ele>782.52</ele>
        <time>2026-03-04T06:35:39Z</time>
      </trkpt>
      <trkpt lat="42.39225" lon="-0.93975">
        <ele>785.01</ele>
        <time>2026-03-04T06:36:01Z</time>
      </trkpt>
      <trkpt lat="42.39244" lon="-0.94007">
        <ele>785.89</ele>
        <time>2026-03-04T06:36:19Z</time>
      </trkpt>
      <trkpt lat="42.39256" lon="-0.94036">
        <ele>784.98</ele>
        <time>2026-03-04T06:36:34Z</time>
      </trkpt>
      <trkpt lat="42.39268" lon="-0.9408">
        <ele>788.06</ele>
        <time>2026-03-04T06:36:55Z</time>
      </trkpt>
      <trkpt lat="42.39274" lon="-0.94105">
        <ele>789.07</ele>
        <time>2026-03-04T06:37:10Z</time>
      </trkpt>
      <trkpt lat="42.39276" lon="-0.94113">
        <ele>789.85</ele>
        <time>2026-03-04T06:37:14Z</time>
      </trkpt>
      <trkpt lat="42.39281" lon="-0.94138">
        <ele>789.38</ele>
        <time>2026-03-04T06:37:32Z</time>
      </trkpt>
      <trkpt lat="42.39284" lon="-0.94153">
        <ele>790.64</ele>
        <time>2026-03-04T06:37:40Z</time>
      </trkpt>
      <trkpt lat="42.39288" lon="-0.94166">
        <ele>793.74</ele>
        <time>2026-03-04T06:37:47Z</time>
      </trkpt>
      <trkpt lat="42.39296" lon="-0.94195">
        <ele>792.47</ele>
        <time>2026-03-04T06:38:02Z</time>
      </trkpt>
      <trkpt lat="42.39307" lon="-0.94236">
        <ele>793.89</ele>
        <time>2026-03-04T06:38:22Z</time>
      </trkpt>
      <trkpt lat="42.39322" lon="-0.94279">
        <ele>795.6</ele>
        <time>2026-03-04T06:38:44Z</time>
      </trkpt>
      <trkpt lat="42.39333" lon="-0.9431">
        <ele>798.68</ele>
        <time>2026-03-04T06:38:59Z</time>
      </trkpt>
      <trkpt lat="42.39354" lon="-0.94344">
        <ele>800.33</ele>
        <time>2026-03-04T06:39:19Z</time>
      </trkpt>
      <trkpt lat="42.39371" lon="-0.94388">
        <ele>800.56</ele>
        <time>2026-03-04T06:39:41Z</time>
      </trkpt>
      <trkpt lat="42.39376" lon="-0.94437">
        <ele>802.41</ele>
        <time>2026-03-04T06:40:03Z</time>
      </trkpt>
      <trkpt lat="42.39384" lon="-0.94486">
        <ele>805.51</ele>
        <time>2026-03-04T06:40:26Z</time>
      </trkpt>
      <trkpt lat="42.39392" lon="-0.9453">
        <ele>806.62</ele>
        <time>2026-03-04T06:40:47Z</time>
      </trkpt>
      <trkpt lat="42.39393" lon="-0.94541">
        <ele>809.5</ele>
        <time>2026-03-04T06:40:52Z</time>
      </trkpt>
      <trkpt lat="42.39396" lon="-0.94579">
        <ele>811.56</ele>
        <time>2026-03-04T06:41:10Z</time>
      </trkpt>
      <trkpt lat="42.39398" lon="-0.94609">
        <ele>813.1</ele>
        <time>2026-03-04T06:41:25Z</time>
      </trkpt>
      <trkpt lat="42.39391" lon="-0.94648">
        <ele>814.75</ele>
        <time>2026-03-04T06:41:43Z</time>
      </trkpt>
      <trkpt lat="42.39385" lon="-0.94658">
        <ele>815.62</ele>
        <time>2026-03-04T06:41:49Z</time>
      </trkpt>
      <trkpt lat="42.39372" lon="-0.94682">
        <ele>818.36</ele>
        <time>2026-03-04T06:42:04Z</time>
      </trkpt>
      <trkpt lat="42.39366" lon="-0.94689">
        <ele>819.8</ele>
        <time>2026-03-04T06:42:10Z</time>
      </trkpt>
      <trkpt lat="42.39351" lon="-0.94706">
        <ele>822.41</ele>
        <time>2026-03-04T06:42:23Z</time>
      </trkpt>
      <trkpt lat="42.39343" lon="-0.94748">
        <ele>825</ele>
        <time>2026-03-04T06:42:45Z</time>
      </trkpt>
      <trkpt lat="42.3934" lon="-0.94785">
        <ele>828.3</ele>
        <time>2026-03-04T06:43:03Z</time>
      </trkpt>
      <trkpt lat="42.39332" lon="-0.94825">
        <ele>831.31</ele>
        <time>2026-03-04T06:43:24Z</time>
      </trkpt>
      <trkpt lat="42.39326" lon="-0.94863">
        <ele>834.62</ele>
        <time>2026-03-04T06:43:43Z</time>
      </trkpt>
      <trkpt lat="42.39316" lon="-0.94906">
        <ele>837.4</ele>
        <time>2026-03-04T06:44:05Z</time>
      </trkpt>
      <trkpt lat="42.39306" lon="-0.94939">
        <ele>839.66</ele>
        <time>2026-03-04T06:44:22Z</time>
      </trkpt>
      <trkpt lat="42.39296" lon="-0.94982">
        <ele>843</ele>
        <time>2026-03-04T06:44:43Z</time>
      </trkpt>
      <trkpt lat="42.39286" lon="-0.95015">
        <ele>846.01</ele>
        <time>2026-03-04T06:45:01Z</time>
      </trkpt>
      <trkpt lat="42.39276" lon="-0.95052">
        <ele>848.66</ele>
        <time>2026-03-04T06:45:21Z</time>
      </trkpt>
      <trkpt lat="42.39274" lon="-0.9508">
        <ele>851.85</ele>
        <time>2026-03-04T06:45:36Z</time>
      </trkpt>
      <trkpt lat="42.3927" lon="-0.95098">
        <ele>851.81</ele>
        <time>2026-03-04T06:45:46Z</time>
      </trkpt>
      <trkpt lat="42.39271" lon="-0.95107">
        <ele>853.27</ele>
        <time>2026-03-04T06:45:50Z</time>
      </trkpt>
      <trkpt lat="42.39264" lon="-0.95143">
        <ele>855.65</ele>
        <time>2026-03-04T06:46:08Z</time>
      </trkpt>
      <trkpt lat="42.39262" lon="-0.95152">
        <ele>857.35</ele>
        <time>2026-03-04T06:46:13Z</time>
      </trkpt>
      <trkpt lat="42.3926" lon="-0.95171">
        <ele>857.12</ele>
        <time>2026-03-04T06:46:23Z</time>
      </trkpt>
      <trkpt lat="42.39259" lon="-0.95181">
        <ele>858.71</ele>
        <time>2026-03-04T06:46:28Z</time>
      </trkpt>
      <trkpt lat="42.39255" lon="-0.95209">
        <ele>862.24</ele>
        <time>2026-03-04T06:46:42Z</time>
      </trkpt>
      <trkpt lat="42.39252" lon="-0.95241">
        <ele>864.69</ele>
        <time>2026-03-04T06:46:59Z</time>
      </trkpt>
      <trkpt lat="42.39247" lon="-0.95266">
        <ele>866.18</ele>
        <time>2026-03-04T06:47:12Z</time>
      </trkpt>
      <trkpt lat="42.39247" lon="-0.9527">
        <ele>867.16</ele>
        <time>2026-03-04T06:47:14Z</time>
      </trkpt>
      <trkpt lat="42.39239" lon="-0.95296">
        <ele>869.3</ele>
        <time>2026-03-04T06:47:29Z</time>
      </trkpt>
      <trkpt lat="42.39234" lon="-0.9531">
        <ele>870.49</ele>
        <time>2026-03-04T06:47:38Z</time>
      </trkpt>
      <trkpt lat="42.39233" lon="-0.95316">
        <ele>870.93</ele>
        <time>2026-03-04T06:47:41Z</time>
      </trkpt>
      <trkpt lat="42.39227" lon="-0.95344">
        <ele>873.36</ele>
        <time>2026-03-04T06:47:55Z</time>
      </trkpt>
      <trkpt lat="42.39222" lon="-0.95372">
        <ele>876.38</ele>
        <time>2026-03-04T06:48:11Z</time>
      </trkpt>
      <trkpt lat="42.39221" lon="-0.95378">
        <ele>876.41</ele>
        <time>2026-03-04T06:48:14Z</time>
      </trkpt>
      <trkpt lat="42.3922" lon="-0.95392">
        <ele>877.99</ele>
        <time>2026-03-04T06:48:21Z</time>
      </trkpt>
      <trkpt lat="42.39219" lon="-0.954">
        <ele>878.67</ele>
        <time>2026-03-04T06:48:25Z</time>
      </trkpt>
      <trkpt lat="42.39206" lon="-0.95422">
        <ele>881.28</ele>
        <time>2026-03-04T06:48:40Z</time>
      </trkpt>
      <trkpt lat="42.39199" lon="-0.95441">
        <ele>884.85</ele>
        <time>2026-03-04T06:48:54Z</time>
      </trkpt>
      <trkpt lat="42.392" lon="-0.95459">
        <ele>888.31</ele>
        <time>2026-03-04T06:49:07Z</time>
      </trkpt>
      <trkpt lat="42.392" lon="-0.95476">
        <ele>891.56</ele>
        <time>2026-03-04T06:49:20Z</time>
      </trkpt>
      <trkpt lat="42.39196" lon="-0.95494">
        <ele>894.9</ele>
        <time>2026-03-04T06:49:35Z</time>
      </trkpt>
      <trkpt lat="42.39194" lon="-0.95507">
        <ele>897.93</ele>
        <time>2026-03-04T06:49:48Z</time>
      </trkpt>
      <trkpt lat="42.39194" lon="-0.95518">
        <ele>901.04</ele>
        <time>2026-03-04T06:50:04Z</time>
      </trkpt>
      <trkpt lat="42.39195" lon="-0.9552">
        <ele>898.69</ele>
        <time>2026-03-04T06:50:31Z</time>
      </trkpt>
      <trkpt lat="42.39195" lon="-0.95521">
        <ele>898.83</ele>
        <time>2026-03-04T06:51:01Z</time>
      </trkpt>
      <trkpt lat="42.392" lon="-0.95524">
        <ele>899.69</ele>
        <time>2026-03-04T06:51:31Z</time>
      </trkpt>
      <trkpt lat="42.39197" lon="-0.95522">
        <ele>900.75</ele>
        <time>2026-03-04T06:51:54Z</time>
      </trkpt>
      <trkpt lat="42.3919" lon="-0.95526">
        <ele>901.19</ele>
        <time>2026-03-04T06:52:16Z</time>
      </trkpt>
      <trkpt lat="42.39191" lon="-0.9552">
        <ele>901.8</ele>
        <time>2026-03-04T06:52:23Z</time>
      </trkpt>
      <trkpt lat="42.39193" lon="-0.95517">
        <ele>899.73</ele>
        <time>2026-03-04T06:52:26Z</time>
      </trkpt>
      <trkpt lat="42.39197" lon="-0.95503">
        <ele>896.64</ele>
        <time>2026-03-04T06:52:34Z</time>
      </trkpt>
      <trkpt lat="42.392" lon="-0.95491">
        <ele>894.36</ele>
        <time>2026-03-04T06:52:41Z</time>
      </trkpt>
      <trkpt lat="42.39201" lon="-0.95486">
        <ele>892.43</ele>
        <time>2026-03-04T06:52:45Z</time>
      </trkpt>
      <trkpt lat="42.39202" lon="-0.95484">
        <ele>891.53</ele>
        <time>2026-03-04T06:52:47Z</time>
      </trkpt>
      <trkpt lat="42.39206" lon="-0.95466">
        <ele>887.25</ele>
        <time>2026-03-04T06:52:59Z</time>
      </trkpt>
      <trkpt lat="42.392" lon="-0.9545">
        <ele>884.64</ele>
        <time>2026-03-04T06:53:08Z</time>
      </trkpt>
      <trkpt lat="42.39197" lon="-0.95441">
        <ele>884.72</ele>
        <time>2026-03-04T06:53:25Z</time>
      </trkpt>
      <trkpt lat="42.39196" lon="-0.95434">
        <ele>884.07</ele>
        <time>2026-03-04T06:53:53Z</time>
      </trkpt>
      <trkpt lat="42.39192" lon="-0.95441">
        <ele>884.76</ele>
        <time>2026-03-04T06:54:17Z</time>
      </trkpt>
      <trkpt lat="42.3919" lon="-0.95455">
        <ele>886.81</ele>
        <time>2026-03-04T06:54:28Z</time>
      </trkpt>
      <trkpt lat="42.3919" lon="-0.95458">
        <ele>887.44</ele>
        <time>2026-03-04T06:54:30Z</time>
      </trkpt>
      <trkpt lat="42.39187" lon="-0.95476">
        <ele>889.94</ele>
        <time>2026-03-04T06:54:42Z</time>
      </trkpt>
      <trkpt lat="42.39183" lon="-0.95482">
        <ele>890.92</ele>
        <time>2026-03-04T06:54:47Z</time>
      </trkpt>
      <trkpt lat="42.39176" lon="-0.95492">
        <ele>891.61</ele>
        <time>2026-03-04T06:54:54Z</time>
      </trkpt>
      <trkpt lat="42.39173" lon="-0.95496">
        <ele>892.33</ele>
        <time>2026-03-04T06:54:57Z</time>
      </trkpt>
      <trkpt lat="42.39166" lon="-0.95512">
        <ele>893.62</ele>
        <time>2026-03-04T06:55:08Z</time>
      </trkpt>
      <trkpt lat="42.39163" lon="-0.95527">
        <ele>896.42</ele>
        <time>2026-03-04T06:55:19Z</time>
      </trkpt>
      <trkpt lat="42.39163" lon="-0.95527">
        <ele>896.3</ele>
        <time>2026-03-04T06:55:20Z</time>
      </trkpt>
      <trkpt lat="42.39161" lon="-0.95541">
        <ele>897.56</ele>
        <time>2026-03-04T06:55:28Z</time>
      </trkpt>
      <trkpt lat="42.3916" lon="-0.95544">
        <ele>898.36</ele>
        <time>2026-03-04T06:55:30Z</time>
      </trkpt>
      <trkpt lat="42.39154" lon="-0.95548">
        <ele>898.76</ele>
        <time>2026-03-04T06:55:34Z</time>
      </trkpt>
      <trkpt lat="42.39143" lon="-0.95564">
        <ele>901.26</ele>
        <time>2026-03-04T06:55:47Z</time>
      </trkpt>
      <trkpt lat="42.39138" lon="-0.95577">
        <ele>903.26</ele>
        <time>2026-03-04T06:55:58Z</time>
      </trkpt>
      <trkpt lat="42.39132" lon="-0.95599">
        <ele>905.65</ele>
        <time>2026-03-04T06:56:13Z</time>
      </trkpt>
      <trkpt lat="42.39132" lon="-0.95601">
        <ele>905.87</ele>
        <time>2026-03-04T06:56:15Z</time>
      </trkpt>
      <trkpt lat="42.39123" lon="-0.95619">
        <ele>908.7</ele>
        <time>2026-03-04T06:56:27Z</time>
      </trkpt>
      <trkpt lat="42.39121" lon="-0.95628">
        <ele>909.56</ele>
        <time>2026-03-04T06:56:35Z</time>
      </trkpt>
      <trkpt lat="42.39119" lon="-0.95644">
        <ele>913.22</ele>
        <time>2026-03-04T06:56:50Z</time>
      </trkpt>
      <trkpt lat="42.39119" lon="-0.95653">
        <ele>914.96</ele>
        <time>2026-03-04T06:56:57Z</time>
      </trkpt>
      <trkpt lat="42.39121" lon="-0.9568">
        <ele>918.31</ele>
        <time>2026-03-04T06:57:15Z</time>
      </trkpt>
      <trkpt lat="42.39125" lon="-0.95706">
        <ele>921.48</ele>
        <time>2026-03-04T06:57:33Z</time>
      </trkpt>
      <trkpt lat="42.39122" lon="-0.95732">
        <ele>924.73</ele>
        <time>2026-03-04T06:57:51Z</time>
      </trkpt>
      <trkpt lat="42.39123" lon="-0.95733">
        <ele>924.77</ele>
        <time>2026-03-04T06:57:52Z</time>
      </trkpt>
      <trkpt lat="42.39121" lon="-0.95756">
        <ele>927.9</ele>
        <time>2026-03-04T06:58:08Z</time>
      </trkpt>
      <trkpt lat="42.3912" lon="-0.95779">
        <ele>931.11</ele>
        <time>2026-03-04T06:58:24Z</time>
      </trkpt>
      <trkpt lat="42.39117" lon="-0.9579">
        <ele>932.36</ele>
        <time>2026-03-04T06:58:33Z</time>
      </trkpt>
      <trkpt lat="42.39113" lon="-0.95809">
        <ele>935.92</ele>
        <time>2026-03-04T06:58:50Z</time>
      </trkpt>
      <trkpt lat="42.39113" lon="-0.95825">
        <ele>937.93</ele>
        <time>2026-03-04T06:59:04Z</time>
      </trkpt>
      <trkpt lat="42.39108" lon="-0.95833">
        <ele>938.53</ele>
        <time>2026-03-04T06:59:32Z</time>
      </trkpt>
      <trkpt lat="42.39109" lon="-0.95852">
        <ele>941.64</ele>
        <time>2026-03-04T06:59:52Z</time>
      </trkpt>
      <trkpt lat="42.39106" lon="-0.95861">
        <ele>944.92</ele>
        <time>2026-03-04T07:00:03Z</time>
      </trkpt>
      <trkpt lat="42.39102" lon="-0.95871">
        <ele>946.05</ele>
        <time>2026-03-04T07:00:21Z</time>
      </trkpt>
      <trkpt lat="42.39101" lon="-0.95872">
        <ele>946.9</ele>
        <time>2026-03-04T07:00:28Z</time>
      </trkpt>
      <trkpt lat="42.39083" lon="-0.95866">
        <ele>950.23</ele>
        <time>2026-03-04T07:00:47Z</time>
      </trkpt>
      <trkpt lat="42.39078" lon="-0.95871">
        <ele>954.25</ele>
        <time>2026-03-04T07:01:01Z</time>
      </trkpt>
      <trkpt lat="42.3906" lon="-0.95861">
        <ele>957.09</ele>
        <time>2026-03-04T07:01:15Z</time>
      </trkpt>
      <trkpt lat="42.3905" lon="-0.95856">
        <ele>958.72</ele>
        <time>2026-03-04T07:01:22Z</time>
      </trkpt>
      <trkpt lat="42.39037" lon="-0.95852">
        <ele>962.46</ele>
        <time>2026-03-04T07:01:37Z</time>
      </trkpt>
      <trkpt lat="42.39032" lon="-0.9585">
        <ele>966.05</ele>
        <time>2026-03-04T07:01:51Z</time>
      </trkpt>
      <trkpt lat="42.3903" lon="-0.95848">
        <ele>966.09</ele>
        <time>2026-03-04T07:01:52Z</time>
      </trkpt>
      <trkpt lat="42.39017" lon="-0.95844">
        <ele>969.18</ele>
        <time>2026-03-04T07:02:06Z</time>
      </trkpt>
      <trkpt lat="42.39005" lon="-0.95838">
        <ele>972.42</ele>
        <time>2026-03-04T07:02:20Z</time>
      </trkpt>
      <trkpt lat="42.39003" lon="-0.95837">
        <ele>973.12</ele>
        <time>2026-03-04T07:02:22Z</time>
      </trkpt>
      <trkpt lat="42.38989" lon="-0.95823">
        <ele>976.96</ele>
        <time>2026-03-04T07:02:41Z</time>
      </trkpt>
      <trkpt lat="42.38979" lon="-0.95808">
        <ele>980.12</ele>
        <time>2026-03-04T07:02:59Z</time>
      </trkpt>
      <trkpt lat="42.38977" lon="-0.95806">
        <ele>982.89</ele>
        <time>2026-03-04T07:03:10Z</time>
      </trkpt>
      <trkpt lat="42.38977" lon="-0.9582">
        <ele>986.72</ele>
        <time>2026-03-04T07:03:27Z</time>
      </trkpt>
      <trkpt lat="42.38977" lon="-0.95833">
        <ele>987.11</ele>
        <time>2026-03-04T07:03:44Z</time>
      </trkpt>
      <trkpt lat="42.38977" lon="-0.95834">
        <ele>987.21</ele>
        <time>2026-03-04T07:03:50Z</time>
      </trkpt>
      <trkpt lat="42.38978" lon="-0.95842">
        <ele>988.26</ele>
        <time>2026-03-04T07:04:01Z</time>
      </trkpt>
      <trkpt lat="42.38977" lon="-0.95854">
        <ele>990.47</ele>
        <time>2026-03-04T07:04:15Z</time>
      </trkpt>
      <trkpt lat="42.38981" lon="-0.95882">
        <ele>993.66</ele>
        <time>2026-03-04T07:04:33Z</time>
      </trkpt>
      <trkpt lat="42.38981" lon="-0.95893">
        <ele>993.46</ele>
        <time>2026-03-04T07:04:48Z</time>
      </trkpt>
      <trkpt lat="42.38982" lon="-0.9591">
        <ele>996.5</ele>
        <time>2026-03-04T07:05:01Z</time>
      </trkpt>
      <trkpt lat="42.38984" lon="-0.95915">
        <ele>996.66</ele>
        <time>2026-03-04T07:05:05Z</time>
      </trkpt>
      <trkpt lat="42.38989" lon="-0.95939">
        <ele>998.22</ele>
        <time>2026-03-04T07:05:19Z</time>
      </trkpt>
      <trkpt lat="42.38991" lon="-0.95942">
        <ele>998.79</ele>
        <time>2026-03-04T07:05:27Z</time>
      </trkpt>
      <trkpt lat="42.39001" lon="-0.95952">
        <ele>999.47</ele>
        <time>2026-03-04T07:05:36Z</time>
      </trkpt>
      <trkpt lat="42.39002" lon="-0.95959">
        <ele>1000.15</ele>
        <time>2026-03-04T07:05:40Z</time>
      </trkpt>
      <trkpt lat="42.39011" lon="-0.95988">
        <ele>1002.89</ele>
        <time>2026-03-04T07:05:58Z</time>
      </trkpt>
      <trkpt lat="42.39021" lon="-0.96012">
        <ele>1005.92</ele>
        <time>2026-03-04T07:06:13Z</time>
      </trkpt>
      <trkpt lat="42.39026" lon="-0.9603">
        <ele>1007.17</ele>
        <time>2026-03-04T07:06:24Z</time>
      </trkpt>
      <trkpt lat="42.39039" lon="-0.96055">
        <ele>1010.86</ele>
        <time>2026-03-04T07:06:42Z</time>
      </trkpt>
      <trkpt lat="42.39054" lon="-0.96073">
        <ele>1013.64</ele>
        <time>2026-03-04T07:06:58Z</time>
      </trkpt>
      <trkpt lat="42.39055" lon="-0.96095">
        <ele>1016.51</ele>
        <time>2026-03-04T07:07:12Z</time>
      </trkpt>
      <trkpt lat="42.39059" lon="-0.9611">
        <ele>1018.48</ele>
        <time>2026-03-04T07:07:24Z</time>
      </trkpt>
      <trkpt lat="42.39059" lon="-0.96132">
        <ele>1021.02</ele>
        <time>2026-03-04T07:07:39Z</time>
      </trkpt>
      <trkpt lat="42.39059" lon="-0.96141">
        <ele>1022.71</ele>
        <time>2026-03-04T07:07:46Z</time>
      </trkpt>
      <trkpt lat="42.39063" lon="-0.96156">
        <ele>1025.94</ele>
        <time>2026-03-04T07:08:00Z</time>
      </trkpt>
      <trkpt lat="42.39066" lon="-0.96172">
        <ele>1029.02</ele>
        <time>2026-03-04T07:08:13Z</time>
      </trkpt>
      <trkpt lat="42.39067" lon="-0.96179">
        <ele>1030.05</ele>
        <time>2026-03-04T07:08:18Z</time>
      </trkpt>
      <trkpt lat="42.39074" lon="-0.96191">
        <ele>1032.78</ele>
        <time>2026-03-04T07:08:32Z</time>
      </trkpt>
      <trkpt lat="42.39074" lon="-0.96204">
        <ele>1036.12</ele>
        <time>2026-03-04T07:08:44Z</time>
      </trkpt>
      <trkpt lat="42.39074" lon="-0.96221">
        <ele>1039.35</ele>
        <time>2026-03-04T07:09:00Z</time>
      </trkpt>
      <trkpt lat="42.39075" lon="-0.96237">
        <ele>1042.32</ele>
        <time>2026-03-04T07:09:12Z</time>
      </trkpt>
      <trkpt lat="42.3908" lon="-0.96255">
        <ele>1045.42</ele>
        <time>2026-03-04T07:09:27Z</time>
      </trkpt>
      <trkpt lat="42.39076" lon="-0.96285">
        <ele>1048.06</ele>
        <time>2026-03-04T07:09:45Z</time>
      </trkpt>
      <trkpt lat="42.39081" lon="-0.96289">
        <ele>1049.9</ele>
        <time>2026-03-04T07:09:51Z</time>
      </trkpt>
      <trkpt lat="42.39086" lon="-0.96292">
        <ele>1050.61</ele>
        <time>2026-03-04T07:09:56Z</time>
      </trkpt>
      <trkpt lat="42.39095" lon="-0.96305">
        <ele>1052.26</ele>
        <time>2026-03-04T07:10:07Z</time>
      </trkpt>
      <trkpt lat="42.39101" lon="-0.96332">
        <ele>1056</ele>
        <time>2026-03-04T07:10:24Z</time>
      </trkpt>
      <trkpt lat="42.39101" lon="-0.96361">
        <ele>1058.51</ele>
        <time>2026-03-04T07:10:41Z</time>
      </trkpt>
      <trkpt lat="42.39093" lon="-0.96379">
        <ele>1062.29</ele>
        <time>2026-03-04T07:10:55Z</time>
      </trkpt>
      <trkpt lat="42.3909" lon="-0.96384">
        <ele>1061.76</ele>
        <time>2026-03-04T07:11:02Z</time>
      </trkpt>
      <trkpt lat="42.39088" lon="-0.96389">
        <ele>1062.48</ele>
        <time>2026-03-04T07:11:06Z</time>
      </trkpt>
      <trkpt lat="42.39082" lon="-0.96418">
        <ele>1065.21</ele>
        <time>2026-03-04T07:11:25Z</time>
      </trkpt>
      <trkpt lat="42.39078" lon="-0.96419">
        <ele>1064.53</ele>
        <time>2026-03-04T07:11:42Z</time>
      </trkpt>
      <trkpt lat="42.39081" lon="-0.9642">
        <ele>1064.43</ele>
        <time>2026-03-04T07:12:07Z</time>
      </trkpt>
      <trkpt lat="42.3908" lon="-0.9642">
        <ele>1064.97</ele>
        <time>2026-03-04T07:12:26Z</time>
      </trkpt>
      <trkpt lat="42.3908" lon="-0.96422">
        <ele>1065.94</ele>
        <time>2026-03-04T07:12:50Z</time>
      </trkpt>
      <trkpt lat="42.39081" lon="-0.96429">
        <ele>1065.53</ele>
        <time>2026-03-04T07:12:54Z</time>
      </trkpt>
      <trkpt lat="42.39094" lon="-0.96449">
        <ele>1067.02</ele>
        <time>2026-03-04T07:13:09Z</time>
      </trkpt>
      <trkpt lat="42.39108" lon="-0.96469">
        <ele>1067.89</ele>
        <time>2026-03-04T07:13:24Z</time>
      </trkpt>
      <trkpt lat="42.39124" lon="-0.9649">
        <ele>1068.43</ele>
        <time>2026-03-04T07:13:39Z</time>
      </trkpt>
      <trkpt lat="42.39144" lon="-0.96518">
        <ele>1069.65</ele>
        <time>2026-03-04T07:13:57Z</time>
      </trkpt>
      <trkpt lat="42.39155" lon="-0.96546">
        <ele>1070.47</ele>
        <time>2026-03-04T07:14:13Z</time>
      </trkpt>
      <trkpt lat="42.39156" lon="-0.96554">
        <ele>1070.23</ele>
        <time>2026-03-04T07:14:17Z</time>
      </trkpt>
      <trkpt lat="42.39155" lon="-0.96567">
        <ele>1070.05</ele>
        <time>2026-03-04T07:14:24Z</time>
      </trkpt>
      <trkpt lat="42.39162" lon="-0.96588">
        <ele>1071.07</ele>
        <time>2026-03-04T07:14:37Z</time>
      </trkpt>
      <trkpt lat="42.39174" lon="-0.96616">
        <ele>1070.43</ele>
        <time>2026-03-04T07:14:57Z</time>
      </trkpt>
      <trkpt lat="42.39175" lon="-0.96631">
        <ele>1070.04</ele>
        <time>2026-03-04T07:15:15Z</time>
      </trkpt>
      <trkpt lat="42.39177" lon="-0.96633">
        <ele>1069.81</ele>
        <time>2026-03-04T07:15:37Z</time>
      </trkpt>
      <trkpt lat="42.39175" lon="-0.96631">
        <ele>1068.42</ele>
        <time>2026-03-04T07:15:59Z</time>
      </trkpt>
      <trkpt lat="42.39175" lon="-0.96631">
        <ele>1068.81</ele>
        <time>2026-03-04T07:16:01Z</time>
      </trkpt>
      <trkpt lat="42.39175" lon="-0.96632">
        <ele>1069.63</ele>
        <time>2026-03-04T07:16:03Z</time>
      </trkpt>
      <trkpt lat="42.39186" lon="-0.96633">
        <ele>1072</ele>
        <time>2026-03-04T07:16:15Z</time>
      </trkpt>
      <trkpt lat="42.39196" lon="-0.96626">
        <ele>1073.73</ele>
        <time>2026-03-04T07:16:24Z</time>
      </trkpt>
      <trkpt lat="42.39198" lon="-0.96624">
        <ele>1074.37</ele>
        <time>2026-03-04T07:16:26Z</time>
      </trkpt>
      <trkpt lat="42.39204" lon="-0.96624">
        <ele>1074.84</ele>
        <time>2026-03-04T07:16:45Z</time>
      </trkpt>
      <trkpt lat="42.39205" lon="-0.96624">
        <ele>1074.66</ele>
        <time>2026-03-04T07:17:13Z</time>
      </trkpt>
      <trkpt lat="42.39215" lon="-0.96611">
        <ele>1078.08</ele>
        <time>2026-03-04T07:17:26Z</time>
      </trkpt>
      <trkpt lat="42.39219" lon="-0.96603">
        <ele>1078.6</ele>
        <time>2026-03-04T07:17:32Z</time>
      </trkpt>
      <trkpt lat="42.39223" lon="-0.96601">
        <ele>1078.35</ele>
        <time>2026-03-04T07:17:36Z</time>
      </trkpt>
      <trkpt lat="42.39227" lon="-0.96601">
        <ele>1079.51</ele>
        <time>2026-03-04T07:17:41Z</time>
      </trkpt>
      <trkpt lat="42.39231" lon="-0.96609">
        <ele>1081.12</ele>
        <time>2026-03-04T07:17:53Z</time>
      </trkpt>
      <trkpt lat="42.39233" lon="-0.96614">
        <ele>1081.56</ele>
        <time>2026-03-04T07:18:06Z</time>
      </trkpt>
      <trkpt lat="42.39236" lon="-0.96624">
        <ele>1082.55</ele>
        <time>2026-03-04T07:18:12Z</time>
      </trkpt>
      <trkpt lat="42.3924" lon="-0.96647">
        <ele>1085.25</ele>
        <time>2026-03-04T07:18:25Z</time>
      </trkpt>
      <trkpt lat="42.39253" lon="-0.96657">
        <ele>1088.11</ele>
        <time>2026-03-04T07:18:39Z</time>
      </trkpt>
      <trkpt lat="42.39265" lon="-0.96667">
        <ele>1091.13</ele>
        <time>2026-03-04T07:18:51Z</time>
      </trkpt>
      <trkpt lat="42.39271" lon="-0.96672">
        <ele>1093.88</ele>
        <time>2026-03-04T07:18:59Z</time>
      </trkpt>
      <trkpt lat="42.39281" lon="-0.96684">
        <ele>1097.26</ele>
        <time>2026-03-04T07:19:12Z</time>
      </trkpt>
      <trkpt lat="42.39287" lon="-0.96692">
        <ele>1100.28</ele>
        <time>2026-03-04T07:19:20Z</time>
      </trkpt>
      <trkpt lat="42.39297" lon="-0.96709">
        <ele>1101.71</ele>
        <time>2026-03-04T07:19:36Z</time>
      </trkpt>
      <trkpt lat="42.393" lon="-0.96714">
        <ele>1104.85</ele>
        <time>2026-03-04T07:19:40Z</time>
      </trkpt>
      <trkpt lat="42.39307" lon="-0.96731">
        <ele>1107.36</ele>
        <time>2026-03-04T07:19:54Z</time>
      </trkpt>
      <trkpt lat="42.39315" lon="-0.96757">
        <ele>1110.88</ele>
        <time>2026-03-04T07:20:11Z</time>
      </trkpt>
      <trkpt lat="42.39323" lon="-0.96777">
        <ele>1113.96</ele>
        <time>2026-03-04T07:20:25Z</time>
      </trkpt>
      <trkpt lat="42.39329" lon="-0.9679">
        <ele>1117.07</ele>
        <time>2026-03-04T07:20:36Z</time>
      </trkpt>
      <trkpt lat="42.39336" lon="-0.96807">
        <ele>1120.18</ele>
        <time>2026-03-04T07:20:49Z</time>
      </trkpt>
      <trkpt lat="42.39343" lon="-0.96824">
        <ele>1123.66</ele>
        <time>2026-03-04T07:21:02Z</time>
      </trkpt>
      <trkpt lat="42.39345" lon="-0.96831">
        <ele>1125.13</ele>
        <time>2026-03-04T07:21:07Z</time>
      </trkpt>
      <trkpt lat="42.39345" lon="-0.96835">
        <ele>1125.97</ele>
        <time>2026-03-04T07:21:09Z</time>
      </trkpt>
      <trkpt lat="42.39348" lon="-0.96844">
        <ele>1127.07</ele>
        <time>2026-03-04T07:21:15Z</time>
      </trkpt>
      <trkpt lat="42.39352" lon="-0.96856">
        <ele>1129.34</ele>
        <time>2026-03-04T07:21:24Z</time>
      </trkpt>
      <trkpt lat="42.39368" lon="-0.96876">
        <ele>1132.38</ele>
        <time>2026-03-04T07:21:41Z</time>
      </trkpt>
      <trkpt lat="42.39368" lon="-0.9688">
        <ele>1132.31</ele>
        <time>2026-03-04T07:21:43Z</time>
      </trkpt>
      <trkpt lat="42.39373" lon="-0.96886">
        <ele>1133.84</ele>
        <time>2026-03-04T07:21:48Z</time>
      </trkpt>
      <trkpt lat="42.39375" lon="-0.9689">
        <ele>1134.47</ele>
        <time>2026-03-04T07:21:51Z</time>
      </trkpt>
      <trkpt lat="42.39389" lon="-0.96903">
        <ele>1138.22</ele>
        <time>2026-03-04T07:22:04Z</time>
      </trkpt>
      <trkpt lat="42.39403" lon="-0.96916">
        <ele>1140.06</ele>
        <time>2026-03-04T07:22:18Z</time>
      </trkpt>
      <trkpt lat="42.39415" lon="-0.96922">
        <ele>1143.55</ele>
        <time>2026-03-04T07:22:30Z</time>
      </trkpt>
      <trkpt lat="42.39423" lon="-0.96931">
        <ele>1145.93</ele>
        <time>2026-03-04T07:22:40Z</time>
      </trkpt>
      <trkpt lat="42.39432" lon="-0.96942">
        <ele>1149.55</ele>
        <time>2026-03-04T07:22:51Z</time>
      </trkpt>
      <trkpt lat="42.39435" lon="-0.96946">
        <ele>1150.17</ele>
        <time>2026-03-04T07:22:55Z</time>
      </trkpt>
      <trkpt lat="42.39442" lon="-0.96958">
        <ele>1152.57</ele>
        <time>2026-03-04T07:23:04Z</time>
      </trkpt>
      <trkpt lat="42.39443" lon="-0.96967">
        <ele>1153.06</ele>
        <time>2026-03-04T07:23:23Z</time>
      </trkpt>
      <trkpt lat="42.39446" lon="-0.96968">
        <ele>1153.2</ele>
        <time>2026-03-04T07:23:58Z</time>
      </trkpt>
      <trkpt lat="42.39441" lon="-0.96971">
        <ele>1153.62</ele>
        <time>2026-03-04T07:24:10Z</time>
      </trkpt>
      <trkpt lat="42.39444" lon="-0.96973">
        <ele>1154.54</ele>
        <time>2026-03-04T07:24:31Z</time>
      </trkpt>
      <trkpt lat="42.39447" lon="-0.96981">
        <ele>1155</ele>
        <time>2026-03-04T07:24:52Z</time>
      </trkpt>
      <trkpt lat="42.39447" lon="-0.96985">
        <ele>1154.8</ele>
        <time>2026-03-04T07:25:10Z</time>
      </trkpt>
      <trkpt lat="42.39448" lon="-0.96985">
        <ele>1155.04</ele>
        <time>2026-03-04T07:25:35Z</time>
      </trkpt>
      <trkpt lat="42.39451" lon="-0.96986">
        <ele>1154.86</ele>
        <time>2026-03-04T07:25:41Z</time>
      </trkpt>
      <trkpt lat="42.39453" lon="-0.9699">
        <ele>1154.71</ele>
        <time>2026-03-04T07:25:47Z</time>
      </trkpt>
      <trkpt lat="42.39453" lon="-0.96998">
        <ele>1154.18</ele>
        <time>2026-03-04T07:25:52Z</time>
      </trkpt>
      <trkpt lat="42.39447" lon="-0.97024">
        <ele>1154.44</ele>
        <time>2026-03-04T07:26:05Z</time>
      </trkpt>
      <trkpt lat="42.39444" lon="-0.97033">
        <ele>1154.8</ele>
        <time>2026-03-04T07:26:10Z</time>
      </trkpt>
      <trkpt lat="42.39443" lon="-0.97043">
        <ele>1154.39</ele>
        <time>2026-03-04T07:26:14Z</time>
      </trkpt>
      <trkpt lat="42.39441" lon="-0.97046">
        <ele>1154.39</ele>
        <time>2026-03-04T07:26:16Z</time>
      </trkpt>
      <trkpt lat="42.39432" lon="-0.97046">
        <ele>1154.12</ele>
        <time>2026-03-04T07:26:23Z</time>
      </trkpt>
      <trkpt lat="42.39415" lon="-0.97037">
        <ele>1154.44</ele>
        <time>2026-03-04T07:26:38Z</time>
      </trkpt>
      <trkpt lat="42.39401" lon="-0.97033">
        <ele>1154.63</ele>
        <time>2026-03-04T07:26:52Z</time>
      </trkpt>
      <trkpt lat="42.39402" lon="-0.97028">
        <ele>1154.21</ele>
        <time>2026-03-04T07:27:08Z</time>
      </trkpt>
      <trkpt lat="42.39395" lon="-0.97032">
        <ele>1153.72</ele>
        <time>2026-03-04T07:27:14Z</time>
      </trkpt>
      <trkpt lat="42.39389" lon="-0.97036">
        <ele>1153.61</ele>
        <time>2026-03-04T07:27:17Z</time>
      </trkpt>
      <trkpt lat="42.39373" lon="-0.97069">
        <ele>1154.38</ele>
        <time>2026-03-04T07:27:32Z</time>
      </trkpt>
      <trkpt lat="42.39368" lon="-0.97081">
        <ele>1154.35</ele>
        <time>2026-03-04T07:27:37Z</time>
      </trkpt>
      <trkpt lat="42.39363" lon="-0.97104">
        <ele>1154.34</ele>
        <time>2026-03-04T07:27:46Z</time>
      </trkpt>
      <trkpt lat="42.3936" lon="-0.97131">
        <ele>1154.57</ele>
        <time>2026-03-04T07:27:58Z</time>
      </trkpt>
      <trkpt lat="42.39359" lon="-0.9715">
        <ele>1154.45</ele>
        <time>2026-03-04T07:28:06Z</time>
      </trkpt>
      <trkpt lat="42.39356" lon="-0.97158">
        <ele>1154.7</ele>
        <time>2026-03-04T07:28:10Z</time>
      </trkpt>
      <trkpt lat="42.39349" lon="-0.97168">
        <ele>1154.28</ele>
        <time>2026-03-04T07:28:16Z</time>
      </trkpt>
      <trkpt lat="42.39346" lon="-0.97171">
        <ele>1154.03</ele>
        <time>2026-03-04T07:28:18Z</time>
      </trkpt>
      <trkpt lat="42.39335" lon="-0.97181">
        <ele>1153.18</ele>
        <time>2026-03-04T07:28:29Z</time>
      </trkpt>
      <trkpt lat="42.39331" lon="-0.97183">
        <ele>1153.54</ele>
        <time>2026-03-04T07:28:32Z</time>
      </trkpt>
      <trkpt lat="42.3932" lon="-0.97194">
        <ele>1153.51</ele>
        <time>2026-03-04T07:28:40Z</time>
      </trkpt>
      <trkpt lat="42.39318" lon="-0.97197">
        <ele>1153.65</ele>
        <time>2026-03-04T07:28:42Z</time>
      </trkpt>
      <trkpt lat="42.39312" lon="-0.97202">
        <ele>1153.87</ele>
        <time>2026-03-04T07:28:47Z</time>
      </trkpt>
      <trkpt lat="42.39306" lon="-0.97207">
        <ele>1153.27</ele>
        <time>2026-03-04T07:28:52Z</time>
      </trkpt>
      <trkpt lat="42.39288" lon="-0.97218">
        <ele>1154.18</ele>
        <time>2026-03-04T07:29:04Z</time>
      </trkpt>
      <trkpt lat="42.39264" lon="-0.97233">
        <ele>1153.61</ele>
        <time>2026-03-04T07:29:19Z</time>
      </trkpt>
      <trkpt lat="42.39259" lon="-0.97238">
        <ele>1153.24</ele>
        <time>2026-03-04T07:29:22Z</time>
      </trkpt>
      <trkpt lat="42.39249" lon="-0.97249">
        <ele>1153.81</ele>
        <time>2026-03-04T07:29:29Z</time>
      </trkpt>
      <trkpt lat="42.39241" lon="-0.97268">
        <ele>1153.07</ele>
        <time>2026-03-04T07:29:37Z</time>
      </trkpt>
      <trkpt lat="42.39227" lon="-0.97291">
        <ele>1152.8</ele>
        <time>2026-03-04T07:29:48Z</time>
      </trkpt>
      <trkpt lat="42.39215" lon="-0.97304">
        <ele>1152.84</ele>
        <time>2026-03-04T07:29:58Z</time>
      </trkpt>
      <trkpt lat="42.392" lon="-0.97318">
        <ele>1152.96</ele>
        <time>2026-03-04T07:30:09Z</time>
      </trkpt>
      <trkpt lat="42.39197" lon="-0.9732">
        <ele>1152.23</ele>
        <time>2026-03-04T07:30:35Z</time>
      </trkpt>
      <trkpt lat="42.39191" lon="-0.9732">
        <ele>1152.51</ele>
        <time>2026-03-04T07:31:08Z</time>
      </trkpt>
      <trkpt lat="42.39193" lon="-0.97326">
        <ele>1153.19</ele>
        <time>2026-03-04T07:31:35Z</time>
      </trkpt>
      <trkpt lat="42.3919" lon="-0.97331">
        <ele>1153.13</ele>
        <time>2026-03-04T07:31:39Z</time>
      </trkpt>
      <trkpt lat="42.3917" lon="-0.97351">
        <ele>1153.56</ele>
        <time>2026-03-04T07:31:57Z</time>
      </trkpt>
      <trkpt lat="42.39166" lon="-0.97353">
        <ele>1153.51</ele>
        <time>2026-03-04T07:31:59Z</time>
      </trkpt>
      <trkpt lat="42.39163" lon="-0.97356">
        <ele>1153.69</ele>
        <time>2026-03-04T07:32:02Z</time>
      </trkpt>
      <trkpt lat="42.39145" lon="-0.97369">
        <ele>1153.39</ele>
        <time>2026-03-04T07:32:15Z</time>
      </trkpt>
      <trkpt lat="42.39125" lon="-0.97383">
        <ele>1152.65</ele>
        <time>2026-03-04T07:32:29Z</time>
      </trkpt>
      <trkpt lat="42.39119" lon="-0.9739">
        <ele>1153.11</ele>
        <time>2026-03-04T07:32:34Z</time>
      </trkpt>
      <trkpt lat="42.39116" lon="-0.97392">
        <ele>1152.68</ele>
        <time>2026-03-04T07:32:36Z</time>
      </trkpt>
      <trkpt lat="42.39109" lon="-0.97395">
        <ele>1153.59</ele>
        <time>2026-03-04T07:32:47Z</time>
      </trkpt>
      <trkpt lat="42.39111" lon="-0.97393">
        <ele>1153.22</ele>
        <time>2026-03-04T07:32:49Z</time>
      </trkpt>
      <trkpt lat="42.39129" lon="-0.97378">
        <ele>1153.67</ele>
        <time>2026-03-04T07:33:04Z</time>
      </trkpt>
      <trkpt lat="42.39148" lon="-0.97366">
        <ele>1153.28</ele>
        <time>2026-03-04T07:33:18Z</time>
      </trkpt>
      <trkpt lat="42.39165" lon="-0.97352">
        <ele>1152.11</ele>
        <time>2026-03-04T07:33:31Z</time>
      </trkpt>
      <trkpt lat="42.39182" lon="-0.9734">
        <ele>1152.96</ele>
        <time>2026-03-04T07:33:42Z</time>
      </trkpt>
      <trkpt lat="42.39195" lon="-0.9732">
        <ele>1152.74</ele>
        <time>2026-03-04T07:33:54Z</time>
      </trkpt>
      <trkpt lat="42.39208" lon="-0.97303">
        <ele>1152.92</ele>
        <time>2026-03-04T07:34:06Z</time>
      </trkpt>
      <trkpt lat="42.39212" lon="-0.97296">
        <ele>1152.61</ele>
        <time>2026-03-04T07:34:11Z</time>
      </trkpt>
      <trkpt lat="42.39219" lon="-0.97289">
        <ele>1152.72</ele>
        <time>2026-03-04T07:34:16Z</time>
      </trkpt>
      <trkpt lat="42.39227" lon="-0.97265">
        <ele>1152.55</ele>
        <time>2026-03-04T07:34:29Z</time>
      </trkpt>
      <trkpt lat="42.39239" lon="-0.97244">
        <ele>1151.47</ele>
        <time>2026-03-04T07:34:41Z</time>
      </trkpt>
      <trkpt lat="42.39243" lon="-0.97241">
        <ele>1151.47</ele>
        <time>2026-03-04T07:34:43Z</time>
      </trkpt>
      <trkpt lat="42.39249" lon="-0.97236">
        <ele>1152.86</ele>
        <time>2026-03-04T07:34:47Z</time>
      </trkpt>
      <trkpt lat="42.39263" lon="-0.97228">
        <ele>1153.28</ele>
        <time>2026-03-04T07:34:55Z</time>
      </trkpt>
      <trkpt lat="42.39278" lon="-0.9722">
        <ele>1152.87</ele>
        <time>2026-03-04T07:35:09Z</time>
      </trkpt>
      <trkpt lat="42.39281" lon="-0.97221">
        <ele>1151.77</ele>
        <time>2026-03-04T07:35:33Z</time>
      </trkpt>
      <trkpt lat="42.39281" lon="-0.97226">
        <ele>1149.99</ele>
        <time>2026-03-04T07:35:37Z</time>
      </trkpt>
      <trkpt lat="42.39278" lon="-0.97232">
        <ele>1146.91</ele>
        <time>2026-03-04T07:35:44Z</time>
      </trkpt>
      <trkpt lat="42.39273" lon="-0.97241">
        <ele>1143.84</ele>
        <time>2026-03-04T07:35:53Z</time>
      </trkpt>
      <trkpt lat="42.3927" lon="-0.97247">
        <ele>1141.89</ele>
        <time>2026-03-04T07:35:58Z</time>
      </trkpt>
      <trkpt lat="42.39264" lon="-0.97265">
        <ele>1138.05</ele>
        <time>2026-03-04T07:36:10Z</time>
      </trkpt>
      <trkpt lat="42.39264" lon="-0.97273">
        <ele>1137.34</ele>
        <time>2026-03-04T07:36:14Z</time>
      </trkpt>
      <trkpt lat="42.39259" lon="-0.97296">
        <ele>1136.93</ele>
        <time>2026-03-04T07:36:29Z</time>
      </trkpt>
      <trkpt lat="42.39257" lon="-0.97301">
        <ele>1137.55</ele>
        <time>2026-03-04T07:36:32Z</time>
      </trkpt>
      <trkpt lat="42.39251" lon="-0.97308">
        <ele>1136.93</ele>
        <time>2026-03-04T07:36:36Z</time>
      </trkpt>
      <trkpt lat="42.3925" lon="-0.97314">
        <ele>1135.19</ele>
        <time>2026-03-04T07:36:40Z</time>
      </trkpt>
      <trkpt lat="42.39243" lon="-0.97325">
        <ele>1132.09</ele>
        <time>2026-03-04T07:36:49Z</time>
      </trkpt>
      <trkpt lat="42.39243" lon="-0.97327">
        <ele>1131.95</ele>
        <time>2026-03-04T07:36:50Z</time>
      </trkpt>
      <trkpt lat="42.39229" lon="-0.97353">
        <ele>1131.15</ele>
        <time>2026-03-04T07:37:11Z</time>
      </trkpt>
      <trkpt lat="42.39209" lon="-0.9738">
        <ele>1129.49</ele>
        <time>2026-03-04T07:37:33Z</time>
      </trkpt>
      <trkpt lat="42.39184" lon="-0.974">
        <ele>1129.07</ele>
        <time>2026-03-04T07:37:53Z</time>
      </trkpt>
      <trkpt lat="42.39173" lon="-0.97406">
        <ele>1130.23</ele>
        <time>2026-03-04T07:38:01Z</time>
      </trkpt>
      <trkpt lat="42.39152" lon="-0.97425">
        <ele>1126.6</ele>
        <time>2026-03-04T07:38:16Z</time>
      </trkpt>
      <trkpt lat="42.39139" lon="-0.97439">
        <ele>1124.36</ele>
        <time>2026-03-04T07:38:27Z</time>
      </trkpt>
      <trkpt lat="42.39128" lon="-0.97451">
        <ele>1122.63</ele>
        <time>2026-03-04T07:38:45Z</time>
      </trkpt>
      <trkpt lat="42.39119" lon="-0.97463">
        <ele>1119.34</ele>
        <time>2026-03-04T07:38:55Z</time>
      </trkpt>
      <trkpt lat="42.39111" lon="-0.97475">
        <ele>1117.88</ele>
        <time>2026-03-04T07:39:02Z</time>
      </trkpt>
      <trkpt lat="42.39107" lon="-0.97483">
        <ele>1116.95</ele>
        <time>2026-03-04T07:39:07Z</time>
      </trkpt>
      <trkpt lat="42.39102" lon="-0.97487">
        <ele>1113.93</ele>
        <time>2026-03-04T07:39:11Z</time>
      </trkpt>
      <trkpt lat="42.39102" lon="-0.97488">
        <ele>1120.36</ele>
        <time>2026-03-04T07:39:12Z</time>
      </trkpt>
      <trkpt lat="42.391" lon="-0.97491">
        <ele>1117.26</ele>
        <time>2026-03-04T07:39:15Z</time>
      </trkpt>
      <trkpt lat="42.3908" lon="-0.97515">
        <ele>1116.4</ele>
        <time>2026-03-04T07:39:35Z</time>
      </trkpt>
      <trkpt lat="42.39058" lon="-0.97538">
        <ele>1116.72</ele>
        <time>2026-03-04T07:39:52Z</time>
      </trkpt>
      <trkpt lat="42.39044" lon="-0.97557">
        <ele>1113.05</ele>
        <time>2026-03-04T07:40:04Z</time>
      </trkpt>
      <trkpt lat="42.39039" lon="-0.97565">
        <ele>1111.11</ele>
        <time>2026-03-04T07:40:10Z</time>
      </trkpt>
      <trkpt lat="42.39033" lon="-0.97574">
        <ele>1109.26</ele>
        <time>2026-03-04T07:40:16Z</time>
      </trkpt>
      <trkpt lat="42.39031" lon="-0.97579">
        <ele>1108.23</ele>
        <time>2026-03-04T07:40:19Z</time>
      </trkpt>
      <trkpt lat="42.39028" lon="-0.97586">
        <ele>1107.03</ele>
        <time>2026-03-04T07:40:23Z</time>
      </trkpt>
      <trkpt lat="42.39023" lon="-0.97592">
        <ele>1105.55</ele>
        <time>2026-03-04T07:40:27Z</time>
      </trkpt>
      <trkpt lat="42.39019" lon="-0.97595">
        <ele>1104.49</ele>
        <time>2026-03-04T07:40:30Z</time>
      </trkpt>
      <trkpt lat="42.39012" lon="-0.97605">
        <ele>1102.79</ele>
        <time>2026-03-04T07:40:37Z</time>
      </trkpt>
      <trkpt lat="42.3901" lon="-0.9761">
        <ele>1101.34</ele>
        <time>2026-03-04T07:40:40Z</time>
      </trkpt>
      <trkpt lat="42.39007" lon="-0.97614">
        <ele>1100.69</ele>
        <time>2026-03-04T07:40:42Z</time>
      </trkpt>
      <trkpt lat="42.39002" lon="-0.97623">
        <ele>1099.12</ele>
        <time>2026-03-04T07:40:47Z</time>
      </trkpt>
      <trkpt lat="42.38997" lon="-0.97632">
        <ele>1097.34</ele>
        <time>2026-03-04T07:40:54Z</time>
      </trkpt>
      <trkpt lat="42.38993" lon="-0.97638">
        <ele>1095.88</ele>
        <time>2026-03-04T07:40:58Z</time>
      </trkpt>
      <trkpt lat="42.38993" lon="-0.9764">
        <ele>1095.33</ele>
        <time>2026-03-04T07:40:59Z</time>
      </trkpt>
      <trkpt lat="42.38988" lon="-0.97647">
        <ele>1091.74</ele>
        <time>2026-03-04T07:41:04Z</time>
      </trkpt>
      <trkpt lat="42.38986" lon="-0.97652">
        <ele>1090.37</ele>
        <time>2026-03-04T07:41:07Z</time>
      </trkpt>
      <trkpt lat="42.38984" lon="-0.97657">
        <ele>1089.21</ele>
        <time>2026-03-04T07:41:09Z</time>
      </trkpt>
      <trkpt lat="42.3898" lon="-0.97665">
        <ele>1089.05</ele>
        <time>2026-03-04T07:41:13Z</time>
      </trkpt>
      <trkpt lat="42.38976" lon="-0.97673">
        <ele>1085.83</ele>
        <time>2026-03-04T07:41:18Z</time>
      </trkpt>
      <trkpt lat="42.38964" lon="-0.97691">
        <ele>1082.05</ele>
        <time>2026-03-04T07:41:31Z</time>
      </trkpt>
      <trkpt lat="42.3896" lon="-0.977">
        <ele>1081.52</ele>
        <time>2026-03-04T07:41:38Z</time>
      </trkpt>
      <trkpt lat="42.38959" lon="-0.97706">
        <ele>1080.23</ele>
        <time>2026-03-04T07:41:41Z</time>
      </trkpt>
      <trkpt lat="42.38953" lon="-0.97713">
        <ele>1078.43</ele>
        <time>2026-03-04T07:41:46Z</time>
      </trkpt>
      <trkpt lat="42.38952" lon="-0.97715">
        <ele>1077.19</ele>
        <time>2026-03-04T07:41:48Z</time>
      </trkpt>
      <trkpt lat="42.38952" lon="-0.97736">
        <ele>1074</ele>
        <time>2026-03-04T07:42:00Z</time>
      </trkpt>
      <trkpt lat="42.3895" lon="-0.97745">
        <ele>1073.29</ele>
        <time>2026-03-04T07:42:04Z</time>
      </trkpt>
      <trkpt lat="42.38946" lon="-0.97751">
        <ele>1073.81</ele>
        <time>2026-03-04T07:42:08Z</time>
      </trkpt>
      <trkpt lat="42.38943" lon="-0.97753">
        <ele>1073.21</ele>
        <time>2026-03-04T07:42:10Z</time>
      </trkpt>
      <trkpt lat="42.3894" lon="-0.97755">
        <ele>1073.23</ele>
        <time>2026-03-04T07:42:12Z</time>
      </trkpt>
      <trkpt lat="42.38924" lon="-0.97762">
        <ele>1072.8</ele>
        <time>2026-03-04T07:42:28Z</time>
      </trkpt>
      <trkpt lat="42.38917" lon="-0.97785">
        <ele>1069.91</ele>
        <time>2026-03-04T07:42:47Z</time>
      </trkpt>
      <trkpt lat="42.38914" lon="-0.97788">
        <ele>1069.93</ele>
        <time>2026-03-04T07:42:49Z</time>
      </trkpt>
      <trkpt lat="42.38901" lon="-0.97807">
        <ele>1066.98</ele>
        <time>2026-03-04T07:43:06Z</time>
      </trkpt>
      <trkpt lat="42.38896" lon="-0.97814">
        <ele>1065.97</ele>
        <time>2026-03-04T07:43:30Z</time>
      </trkpt>
      <trkpt lat="42.38895" lon="-0.97814">
        <ele>1065.78</ele>
        <time>2026-03-04T07:43:31Z</time>
      </trkpt>
      <trkpt lat="42.38881" lon="-0.97825">
        <ele>1064.28</ele>
        <time>2026-03-04T07:43:40Z</time>
      </trkpt>
      <trkpt lat="42.3887" lon="-0.97846">
        <ele>1060.42</ele>
        <time>2026-03-04T07:43:52Z</time>
      </trkpt>
      <trkpt lat="42.3887" lon="-0.97847">
        <ele>1060.75</ele>
        <time>2026-03-04T07:43:53Z</time>
      </trkpt>
      <trkpt lat="42.38876" lon="-0.97846">
        <ele>1056.29</ele>
        <time>2026-03-04T07:44:02Z</time>
      </trkpt>
      <trkpt lat="42.38877" lon="-0.97846">
        <ele>1056.67</ele>
        <time>2026-03-04T07:44:03Z</time>
      </trkpt>
      <trkpt lat="42.38879" lon="-0.97847">
        <ele>1055.78</ele>
        <time>2026-03-04T07:44:05Z</time>
      </trkpt>
      <trkpt lat="42.38887" lon="-0.97846">
        <ele>1053.39</ele>
        <time>2026-03-04T07:44:11Z</time>
      </trkpt>
      <trkpt lat="42.38901" lon="-0.97849">
        <ele>1050.26</ele>
        <time>2026-03-04T07:44:22Z</time>
      </trkpt>
      <trkpt lat="42.38903" lon="-0.97849">
        <ele>1050.41</ele>
        <time>2026-03-04T07:44:23Z</time>
      </trkpt>
      <trkpt lat="42.38913" lon="-0.97863">
        <ele>1047.25</ele>
        <time>2026-03-04T07:44:33Z</time>
      </trkpt>
      <trkpt lat="42.38912" lon="-0.97871">
        <ele>1044.66</ele>
        <time>2026-03-04T07:44:39Z</time>
      </trkpt>
      <trkpt lat="42.38909" lon="-0.97877">
        <ele>1043.01</ele>
        <time>2026-03-04T07:44:44Z</time>
      </trkpt>
      <trkpt lat="42.38903" lon="-0.97885">
        <ele>1040.47</ele>
        <time>2026-03-04T07:44:53Z</time>
      </trkpt>
      <trkpt lat="42.38897" lon="-0.97904">
        <ele>1036.88</ele>
        <time>2026-03-04T07:45:04Z</time>
      </trkpt>
      <trkpt lat="42.38891" lon="-0.97925">
        <ele>1033.35</ele>
        <time>2026-03-04T07:45:16Z</time>
      </trkpt>
      <trkpt lat="42.38887" lon="-0.9793">
        <ele>1031.6</ele>
        <time>2026-03-04T07:45:21Z</time>
      </trkpt>
      <trkpt lat="42.38875" lon="-0.97945">
        <ele>1028.68</ele>
        <time>2026-03-04T07:45:33Z</time>
      </trkpt>
      <trkpt lat="42.38868" lon="-0.97956">
        <ele>1027.37</ele>
        <time>2026-03-04T07:45:42Z</time>
      </trkpt>
      <trkpt lat="42.38865" lon="-0.97964">
        <ele>1026.52</ele>
        <time>2026-03-04T07:45:47Z</time>
      </trkpt>
      <trkpt lat="42.38859" lon="-0.97979">
        <ele>1024.3</ele>
        <time>2026-03-04T07:46:00Z</time>
      </trkpt>
      <trkpt lat="42.38857" lon="-0.97983">
        <ele>1022.88</ele>
        <time>2026-03-04T07:46:03Z</time>
      </trkpt>
      <trkpt lat="42.38854" lon="-0.97989">
        <ele>1020.91</ele>
        <time>2026-03-04T07:46:07Z</time>
      </trkpt>
      <trkpt lat="42.38853" lon="-0.97992">
        <ele>1020.2</ele>
        <time>2026-03-04T07:46:09Z</time>
      </trkpt>
      <trkpt lat="42.38851" lon="-0.97997">
        <ele>1018.64</ele>
        <time>2026-03-04T07:46:12Z</time>
      </trkpt>
      <trkpt lat="42.38846" lon="-0.98007">
        <ele>1015.07</ele>
        <time>2026-03-04T07:46:20Z</time>
      </trkpt>
      <trkpt lat="42.38845" lon="-0.98008">
        <ele>1015.11</ele>
        <time>2026-03-04T07:46:21Z</time>
      </trkpt>
      <trkpt lat="42.38843" lon="-0.98014">
        <ele>1012.83</ele>
        <time>2026-03-04T07:46:26Z</time>
      </trkpt>
      <trkpt lat="42.38842" lon="-0.98015">
        <ele>1012.64</ele>
        <time>2026-03-04T07:46:27Z</time>
      </trkpt>
      <trkpt lat="42.38837" lon="-0.98033">
        <ele>1008.97</ele>
        <time>2026-03-04T07:46:38Z</time>
      </trkpt>
      <trkpt lat="42.38833" lon="-0.98045">
        <ele>1006.27</ele>
        <time>2026-03-04T07:46:45Z</time>
      </trkpt>
      <trkpt lat="42.38829" lon="-0.98051">
        <ele>1004.8</ele>
        <time>2026-03-04T07:46:49Z</time>
      </trkpt>
      <trkpt lat="42.38828" lon="-0.98053">
        <ele>1004.62</ele>
        <time>2026-03-04T07:46:50Z</time>
      </trkpt>
      <trkpt lat="42.38825" lon="-0.98068">
        <ele>1001.06</ele>
        <time>2026-03-04T07:47:01Z</time>
      </trkpt>
      <trkpt lat="42.38822" lon="-0.98079">
        <ele>997.86</ele>
        <time>2026-03-04T07:47:11Z</time>
      </trkpt>
      <trkpt lat="42.38821" lon="-0.98089">
        <ele>996.95</ele>
        <time>2026-03-04T07:47:29Z</time>
      </trkpt>
      <trkpt lat="42.38818" lon="-0.98098">
        <ele>996.5</ele>
        <time>2026-03-04T07:47:51Z</time>
      </trkpt>
      <trkpt lat="42.38819" lon="-0.98098">
        <ele>996.92</ele>
        <time>2026-03-04T07:47:53Z</time>
      </trkpt>
      <trkpt lat="42.38824" lon="-0.98088">
        <ele>994.84</ele>
        <time>2026-03-04T07:48:14Z</time>
      </trkpt>
      <trkpt lat="42.3883" lon="-0.98085">
        <ele>994.53</ele>
        <time>2026-03-04T07:48:17Z</time>
      </trkpt>
      <trkpt lat="42.38843" lon="-0.98077">
        <ele>993.66</ele>
        <time>2026-03-04T07:48:27Z</time>
      </trkpt>
      <trkpt lat="42.3886" lon="-0.98059">
        <ele>991.1</ele>
        <time>2026-03-04T07:48:41Z</time>
      </trkpt>
      <trkpt lat="42.38869" lon="-0.98049">
        <ele>988.42</ele>
        <time>2026-03-04T07:48:50Z</time>
      </trkpt>
      <trkpt lat="42.38877" lon="-0.98042">
        <ele>986.72</ele>
        <time>2026-03-04T07:48:55Z</time>
      </trkpt>
      <trkpt lat="42.38885" lon="-0.98035">
        <ele>986.37</ele>
        <time>2026-03-04T07:49:00Z</time>
      </trkpt>
      <trkpt lat="42.38886" lon="-0.98024">
        <ele>986.41</ele>
        <time>2026-03-04T07:49:07Z</time>
      </trkpt>
      <trkpt lat="42.38895" lon="-0.98015">
        <ele>986.8</ele>
        <time>2026-03-04T07:49:13Z</time>
      </trkpt>
      <trkpt lat="42.38899" lon="-0.98012">
        <ele>987.33</ele>
        <time>2026-03-04T07:49:15Z</time>
      </trkpt>
      <trkpt lat="42.38904" lon="-0.9801">
        <ele>987.83</ele>
        <time>2026-03-04T07:49:18Z</time>
      </trkpt>
      <trkpt lat="42.38912" lon="-0.98">
        <ele>989.82</ele>
        <time>2026-03-04T07:49:25Z</time>
      </trkpt>
      <trkpt lat="42.38917" lon="-0.97995">
        <ele>989.99</ele>
        <time>2026-03-04T07:49:29Z</time>
      </trkpt>
      <trkpt lat="42.38933" lon="-0.97988">
        <ele>988.01</ele>
        <time>2026-03-04T07:49:44Z</time>
      </trkpt>
      <trkpt lat="42.38939" lon="-0.97985">
        <ele>988.7</ele>
        <time>2026-03-04T07:49:55Z</time>
      </trkpt>
      <trkpt lat="42.38949" lon="-0.9798">
        <ele>988.31</ele>
        <time>2026-03-04T07:49:58Z</time>
      </trkpt>
      <trkpt lat="42.38966" lon="-0.97985">
        <ele>986.93</ele>
        <time>2026-03-04T07:50:13Z</time>
      </trkpt>
      <trkpt lat="42.38972" lon="-0.97985">
        <ele>986.51</ele>
        <time>2026-03-04T07:50:18Z</time>
      </trkpt>
      <trkpt lat="42.38974" lon="-0.97985">
        <ele>987.86</ele>
        <time>2026-03-04T07:50:20Z</time>
      </trkpt>
      <trkpt lat="42.38979" lon="-0.97987">
        <ele>986.51</ele>
        <time>2026-03-04T07:50:22Z</time>
      </trkpt>
      <trkpt lat="42.39002" lon="-0.97996">
        <ele>985.36</ele>
        <time>2026-03-04T07:50:37Z</time>
      </trkpt>
      <trkpt lat="42.39004" lon="-0.97996">
        <ele>984.53</ele>
        <time>2026-03-04T07:50:38Z</time>
      </trkpt>
      <trkpt lat="42.39006" lon="-0.97999">
        <ele>983.71</ele>
        <time>2026-03-04T07:50:40Z</time>
      </trkpt>
      <trkpt lat="42.39008" lon="-0.98006">
        <ele>982.32</ele>
        <time>2026-03-04T07:50:53Z</time>
      </trkpt>
      <trkpt lat="42.3901" lon="-0.98012">
        <ele>982.66</ele>
        <time>2026-03-04T07:51:15Z</time>
      </trkpt>
      <trkpt lat="42.39014" lon="-0.98011">
        <ele>983.1</ele>
        <time>2026-03-04T07:51:29Z</time>
      </trkpt>
      <trkpt lat="42.39017" lon="-0.98015">
        <ele>982.23</ele>
        <time>2026-03-04T07:51:46Z</time>
      </trkpt>
      <trkpt lat="42.39018" lon="-0.98014">
        <ele>982.78</ele>
        <time>2026-03-04T07:51:49Z</time>
      </trkpt>
      <trkpt lat="42.3903" lon="-0.98009">
        <ele>983.54</ele>
        <time>2026-03-04T07:51:58Z</time>
      </trkpt>
      <trkpt lat="42.39053" lon="-0.98015">
        <ele>984.52</ele>
        <time>2026-03-04T07:52:13Z</time>
      </trkpt>
      <trkpt lat="42.39077" lon="-0.98011">
        <ele>985.69</ele>
        <time>2026-03-04T07:52:31Z</time>
      </trkpt>
      <trkpt lat="42.39077" lon="-0.9801">
        <ele>987.25</ele>
        <time>2026-03-04T07:52:49Z</time>
      </trkpt>
      <trkpt lat="42.39076" lon="-0.98011">
        <ele>987</ele>
        <time>2026-03-04T07:52:59Z</time>
      </trkpt>
      <trkpt lat="42.39071" lon="-0.98014">
        <ele>986.31</ele>
        <time>2026-03-04T07:53:04Z</time>
      </trkpt>
      <trkpt lat="42.39066" lon="-0.98001">
        <ele>986.02</ele>
        <time>2026-03-04T07:53:12Z</time>
      </trkpt>
      <trkpt lat="42.39067" lon="-0.97991">
        <ele>986.38</ele>
        <time>2026-03-04T07:53:25Z</time>
      </trkpt>
      <trkpt lat="42.39065" lon="-0.9799">
        <ele>986.53</ele>
        <time>2026-03-04T07:53:37Z</time>
      </trkpt>
      <trkpt lat="42.39062" lon="-0.97991">
        <ele>985.94</ele>
        <time>2026-03-04T07:53:40Z</time>
      </trkpt>
      <trkpt lat="42.39056" lon="-0.97993">
        <ele>985.82</ele>
        <time>2026-03-04T07:53:54Z</time>
      </trkpt>
      <trkpt lat="42.39057" lon="-0.97989">
        <ele>985.76</ele>
        <time>2026-03-04T07:53:58Z</time>
      </trkpt>
      <trkpt lat="42.39058" lon="-0.97977">
        <ele>986.19</ele>
        <time>2026-03-04T07:54:03Z</time>
      </trkpt>
      <trkpt lat="42.3906" lon="-0.97968">
        <ele>986.96</ele>
        <time>2026-03-04T07:54:10Z</time>
      </trkpt>
      <trkpt lat="42.39062" lon="-0.97973">
        <ele>986.69</ele>
        <time>2026-03-04T07:54:14Z</time>
      </trkpt>
      <trkpt lat="42.39068" lon="-0.97976">
        <ele>986.47</ele>
        <time>2026-03-04T07:54:18Z</time>
      </trkpt>
      <trkpt lat="42.3909" lon="-0.98002">
        <ele>988.63</ele>
        <time>2026-03-04T07:54:38Z</time>
      </trkpt>
      <trkpt lat="42.39083" lon="-0.98038">
        <ele>987.96</ele>
        <time>2026-03-04T07:54:54Z</time>
      </trkpt>
      <trkpt lat="42.3907" lon="-0.98055">
        <ele>987</ele>
        <time>2026-03-04T07:55:09Z</time>
      </trkpt>
      <trkpt lat="42.39058" lon="-0.98065">
        <ele>986.39</ele>
        <time>2026-03-04T07:55:26Z</time>
      </trkpt>
      <trkpt lat="42.39061" lon="-0.98064">
        <ele>986.38</ele>
        <time>2026-03-04T07:55:40Z</time>
      </trkpt>
      <trkpt lat="42.3907" lon="-0.98071">
        <ele>988.05</ele>
        <time>2026-03-04T07:56:00Z</time>
      </trkpt>
      <trkpt lat="42.39083" lon="-0.9807">
        <ele>989.9</ele>
        <time>2026-03-04T07:56:15Z</time>
      </trkpt>
      <trkpt lat="42.39085" lon="-0.98071">
        <ele>990.11</ele>
        <time>2026-03-04T07:56:17Z</time>
      </trkpt>
      <trkpt lat="42.3909" lon="-0.9808">
        <ele>991.77</ele>
        <time>2026-03-04T07:56:26Z</time>
      </trkpt>
      <trkpt lat="42.39095" lon="-0.98094">
        <ele>994.8</ele>
        <time>2026-03-04T07:56:40Z</time>
      </trkpt>
      <trkpt lat="42.39096" lon="-0.98095">
        <ele>995.42</ele>
        <time>2026-03-04T07:56:42Z</time>
      </trkpt>
      <trkpt lat="42.39109" lon="-0.98109">
        <ele>998.47</ele>
        <time>2026-03-04T07:56:55Z</time>
      </trkpt>
      <trkpt lat="42.39112" lon="-0.98119">
        <ele>1000.61</ele>
        <time>2026-03-04T07:57:02Z</time>
      </trkpt>
      <trkpt lat="42.39107" lon="-0.98135">
        <ele>1002.12</ele>
        <time>2026-03-04T07:57:11Z</time>
      </trkpt>
      <trkpt lat="42.39098" lon="-0.98155">
        <ele>1003.55</ele>
        <time>2026-03-04T07:57:25Z</time>
      </trkpt>
      <trkpt lat="42.39096" lon="-0.98161">
        <ele>1005</ele>
        <time>2026-03-04T07:57:29Z</time>
      </trkpt>
      <trkpt lat="42.39088" lon="-0.98173">
        <ele>1007.97</ele>
        <time>2026-03-04T07:57:45Z</time>
      </trkpt>
      <trkpt lat="42.39077" lon="-0.98172">
        <ele>1009.95</ele>
        <time>2026-03-04T07:57:56Z</time>
      </trkpt>
      <trkpt lat="42.39071" lon="-0.98172">
        <ele>1011.85</ele>
        <time>2026-03-04T07:58:02Z</time>
      </trkpt>
      <trkpt lat="42.39068" lon="-0.98175">
        <ele>1011.91</ele>
        <time>2026-03-04T07:58:05Z</time>
      </trkpt>
      <trkpt lat="42.39062" lon="-0.98185">
        <ele>1015.22</ele>
        <time>2026-03-04T07:58:17Z</time>
      </trkpt>
      <trkpt lat="42.39067" lon="-0.98189">
        <ele>1016.09</ele>
        <time>2026-03-04T07:58:28Z</time>
      </trkpt>
      <trkpt lat="42.39068" lon="-0.98197">
        <ele>1016.41</ele>
        <time>2026-03-04T07:58:45Z</time>
      </trkpt>
      <trkpt lat="42.39076" lon="-0.98206">
        <ele>1019.76</ele>
        <time>2026-03-04T07:58:56Z</time>
      </trkpt>
      <trkpt lat="42.39078" lon="-0.98207">
        <ele>1019.11</ele>
        <time>2026-03-04T07:58:57Z</time>
      </trkpt>
      <trkpt lat="42.39091" lon="-0.98216">
        <ele>1021.99</ele>
        <time>2026-03-04T07:59:18Z</time>
      </trkpt>
      <trkpt lat="42.39096" lon="-0.98225">
        <ele>1025.09</ele>
        <time>2026-03-04T07:59:28Z</time>
      </trkpt>
      <trkpt lat="42.39107" lon="-0.98237">
        <ele>1028.19</ele>
        <time>2026-03-04T07:59:40Z</time>
      </trkpt>
      <trkpt lat="42.39118" lon="-0.98251">
        <ele>1031.2</ele>
        <time>2026-03-04T07:59:54Z</time>
      </trkpt>
      <trkpt lat="42.39139" lon="-0.98275">
        <ele>1034.46</ele>
        <time>2026-03-04T08:00:15Z</time>
      </trkpt>
      <trkpt lat="42.39157" lon="-0.98282">
        <ele>1035.44</ele>
        <time>2026-03-04T08:00:32Z</time>
      </trkpt>
      <trkpt lat="42.39175" lon="-0.98287">
        <ele>1037.08</ele>
        <time>2026-03-04T08:00:47Z</time>
      </trkpt>
      <trkpt lat="42.39178" lon="-0.98288">
        <ele>1037.27</ele>
        <time>2026-03-04T08:00:48Z</time>
      </trkpt>
      <trkpt lat="42.39201" lon="-0.98275">
        <ele>1040.39</ele>
        <time>2026-03-04T08:01:03Z</time>
      </trkpt>
      <trkpt lat="42.39208" lon="-0.98262">
        <ele>1042.19</ele>
        <time>2026-03-04T08:01:18Z</time>
      </trkpt>
      <trkpt lat="42.3921" lon="-0.9826">
        <ele>1043.37</ele>
        <time>2026-03-04T08:01:21Z</time>
      </trkpt>
      <trkpt lat="42.39223" lon="-0.98253">
        <ele>1046.14</ele>
        <time>2026-03-04T08:01:36Z</time>
      </trkpt>
      <trkpt lat="42.39224" lon="-0.98254">
        <ele>1046.33</ele>
        <time>2026-03-04T08:01:38Z</time>
      </trkpt>
      <trkpt lat="42.39233" lon="-0.98252">
        <ele>1048.55</ele>
        <time>2026-03-04T08:01:54Z</time>
      </trkpt>
      <trkpt lat="42.39241" lon="-0.98252">
        <ele>1049.88</ele>
        <time>2026-03-04T08:02:13Z</time>
      </trkpt>
      <trkpt lat="42.39242" lon="-0.98263">
        <ele>1053.03</ele>
        <time>2026-03-04T08:02:22Z</time>
      </trkpt>
      <trkpt lat="42.39241" lon="-0.98268">
        <ele>1052.67</ele>
        <time>2026-03-04T08:02:25Z</time>
      </trkpt>
      <trkpt lat="42.39245" lon="-0.98279">
        <ele>1055.54</ele>
        <time>2026-03-04T08:02:39Z</time>
      </trkpt>
      <trkpt lat="42.39259" lon="-0.9828">
        <ele>1058.27</ele>
        <time>2026-03-04T08:02:50Z</time>
      </trkpt>
      <trkpt lat="42.3928" lon="-0.9829">
        <ele>1061.65</ele>
        <time>2026-03-04T08:03:07Z</time>
      </trkpt>
      <trkpt lat="42.39302" lon="-0.98296">
        <ele>1064.67</ele>
        <time>2026-03-04T08:03:25Z</time>
      </trkpt>
      <trkpt lat="42.39325" lon="-0.98313">
        <ele>1065.93</ele>
        <time>2026-03-04T08:03:42Z</time>
      </trkpt>
      <trkpt lat="42.39343" lon="-0.98331">
        <ele>1064.15</ele>
        <time>2026-03-04T08:03:59Z</time>
      </trkpt>
      <trkpt lat="42.39365" lon="-0.98343">
        <ele>1066.6</ele>
        <time>2026-03-04T08:04:18Z</time>
      </trkpt>
      <trkpt lat="42.39369" lon="-0.98342">
        <ele>1069.77</ele>
        <time>2026-03-04T08:04:22Z</time>
      </trkpt>
      <trkpt lat="42.3937" lon="-0.98342">
        <ele>1068.59</ele>
        <time>2026-03-04T08:04:23Z</time>
      </trkpt>
      <trkpt lat="42.3938" lon="-0.98339">
        <ele>1072.1</ele>
        <time>2026-03-04T08:04:33Z</time>
      </trkpt>
      <trkpt lat="42.39395" lon="-0.98345">
        <ele>1072.1</ele>
        <time>2026-03-04T08:04:49Z</time>
      </trkpt>
      <trkpt lat="42.39404" lon="-0.98345">
        <ele>1071.83</ele>
        <time>2026-03-04T08:04:56Z</time>
      </trkpt>
      <trkpt lat="42.39421" lon="-0.98344">
        <ele>1075.32</ele>
        <time>2026-03-04T08:05:11Z</time>
      </trkpt>
      <trkpt lat="42.39436" lon="-0.98354">
        <ele>1078.38</ele>
        <time>2026-03-04T08:05:22Z</time>
      </trkpt>
      <trkpt lat="42.3946" lon="-0.98358">
        <ele>1077.13</ele>
        <time>2026-03-04T08:05:42Z</time>
      </trkpt>
      <trkpt lat="42.3948" lon="-0.98347">
        <ele>1079.37</ele>
        <time>2026-03-04T08:05:56Z</time>
      </trkpt>
      <trkpt lat="42.39481" lon="-0.98348">
        <ele>1079.11</ele>
        <time>2026-03-04T08:05:57Z</time>
      </trkpt>
      <trkpt lat="42.39494" lon="-0.98348">
        <ele>1081.05</ele>
        <time>2026-03-04T08:06:20Z</time>
      </trkpt>
      <trkpt lat="42.39499" lon="-0.9835">
        <ele>1082.85</ele>
        <time>2026-03-04T08:06:26Z</time>
      </trkpt>
      <trkpt lat="42.39504" lon="-0.98353">
        <ele>1084.03</ele>
        <time>2026-03-04T08:06:31Z</time>
      </trkpt>
      <trkpt lat="42.39526" lon="-0.98358">
        <ele>1082.6</ele>
        <time>2026-03-04T08:06:49Z</time>
      </trkpt>
      <trkpt lat="42.39539" lon="-0.98361">
        <ele>1084.67</ele>
        <time>2026-03-04T08:06:58Z</time>
      </trkpt>
      <trkpt lat="42.39554" lon="-0.98356">
        <ele>1087.79</ele>
        <time>2026-03-04T08:07:12Z</time>
      </trkpt>
      <trkpt lat="42.39557" lon="-0.98358">
        <ele>1088.77</ele>
        <time>2026-03-04T08:07:14Z</time>
      </trkpt>
      <trkpt lat="42.39571" lon="-0.98372">
        <ele>1090.98</ele>
        <time>2026-03-04T08:07:31Z</time>
      </trkpt>
      <trkpt lat="42.39594" lon="-0.98373">
        <ele>1090.52</ele>
        <time>2026-03-04T08:07:50Z</time>
      </trkpt>
      <trkpt lat="42.396" lon="-0.98368">
        <ele>1089.47</ele>
        <time>2026-03-04T08:07:56Z</time>
      </trkpt>
      <trkpt lat="42.39619" lon="-0.98358">
        <ele>1089.77</ele>
        <time>2026-03-04T08:08:14Z</time>
      </trkpt>
      <trkpt lat="42.39635" lon="-0.98355">
        <ele>1092.84</ele>
        <time>2026-03-04T08:08:25Z</time>
      </trkpt>
      <trkpt lat="42.39652" lon="-0.98353">
        <ele>1096.25</ele>
        <time>2026-03-04T08:08:39Z</time>
      </trkpt>
      <trkpt lat="42.39661" lon="-0.98354">
        <ele>1098.63</ele>
        <time>2026-03-04T08:08:47Z</time>
      </trkpt>
      <trkpt lat="42.39668" lon="-0.98368">
        <ele>1102.04</ele>
        <time>2026-03-04T08:09:04Z</time>
      </trkpt>
      <trkpt lat="42.39683" lon="-0.9837">
        <ele>1103.5</ele>
        <time>2026-03-04T08:09:22Z</time>
      </trkpt>
      <trkpt lat="42.397" lon="-0.98362">
        <ele>1106.64</ele>
        <time>2026-03-04T08:09:39Z</time>
      </trkpt>
      <trkpt lat="42.3971" lon="-0.98362">
        <ele>1108.4</ele>
        <time>2026-03-04T08:09:46Z</time>
      </trkpt>
      <trkpt lat="42.39714" lon="-0.98362">
        <ele>1108.77</ele>
        <time>2026-03-04T08:09:49Z</time>
      </trkpt>
      <trkpt lat="42.39733" lon="-0.98369">
        <ele>1111.93</ele>
        <time>2026-03-04T08:10:09Z</time>
      </trkpt>
      <trkpt lat="42.39749" lon="-0.98386">
        <ele>1115.5</ele>
        <time>2026-03-04T08:10:25Z</time>
      </trkpt>
      <trkpt lat="42.39762" lon="-0.98392">
        <ele>1118.65</ele>
        <time>2026-03-04T08:10:45Z</time>
      </trkpt>
      <trkpt lat="42.39786" lon="-0.98392">
        <ele>1119.65</ele>
        <time>2026-03-04T08:11:03Z</time>
      </trkpt>
      <trkpt lat="42.39813" lon="-0.98391">
        <ele>1120.64</ele>
        <time>2026-03-04T08:11:22Z</time>
      </trkpt>
      <trkpt lat="42.39823" lon="-0.98395">
        <ele>1124.22</ele>
        <time>2026-03-04T08:11:33Z</time>
      </trkpt>
      <trkpt lat="42.39839" lon="-0.98395">
        <ele>1126.32</ele>
        <time>2026-03-04T08:11:47Z</time>
      </trkpt>
      <trkpt lat="42.39863" lon="-0.98386">
        <ele>1126.36</ele>
        <time>2026-03-04T08:12:07Z</time>
      </trkpt>
      <trkpt lat="42.39882" lon="-0.98382">
        <ele>1127.73</ele>
        <time>2026-03-04T08:12:23Z</time>
      </trkpt>
      <trkpt lat="42.399" lon="-0.98384">
        <ele>1128.5</ele>
        <time>2026-03-04T08:12:37Z</time>
      </trkpt>
      <trkpt lat="42.39919" lon="-0.98381">
        <ele>1128.45</ele>
        <time>2026-03-04T08:12:59Z</time>
      </trkpt>
      <trkpt lat="42.39944" lon="-0.98379">
        <ele>1129.88</ele>
        <time>2026-03-04T08:13:19Z</time>
      </trkpt>
      <trkpt lat="42.39968" lon="-0.98376">
        <ele>1131.9</ele>
        <time>2026-03-04T08:13:39Z</time>
      </trkpt>
      <trkpt lat="42.39979" lon="-0.98375">
        <ele>1133.83</ele>
        <time>2026-03-04T08:13:47Z</time>
      </trkpt>
      <trkpt lat="42.39988" lon="-0.98377">
        <ele>1136.74</ele>
        <time>2026-03-04T08:13:56Z</time>
      </trkpt>
      <trkpt lat="42.39996" lon="-0.9838">
        <ele>1139.92</ele>
        <time>2026-03-04T08:14:04Z</time>
      </trkpt>
      <trkpt lat="42.40011" lon="-0.98382">
        <ele>1142.98</ele>
        <time>2026-03-04T08:14:20Z</time>
      </trkpt>
      <trkpt lat="42.40023" lon="-0.98382">
        <ele>1146.45</ele>
        <time>2026-03-04T08:14:34Z</time>
      </trkpt>
      <trkpt lat="42.4004" lon="-0.98384">
        <ele>1149.24</ele>
        <time>2026-03-04T08:14:49Z</time>
      </trkpt>
      <trkpt lat="42.40049" lon="-0.98391">
        <ele>1152.33</ele>
        <time>2026-03-04T08:15:02Z</time>
      </trkpt>
      <trkpt lat="42.40054" lon="-0.98391">
        <ele>1152.75</ele>
        <time>2026-03-04T08:15:07Z</time>
      </trkpt>
      <trkpt lat="42.40061" lon="-0.98393">
        <ele>1153.69</ele>
        <time>2026-03-04T08:15:15Z</time>
      </trkpt>
      <trkpt lat="42.40074" lon="-0.98403">
        <ele>1157.41</ele>
        <time>2026-03-04T08:15:28Z</time>
      </trkpt>
      <trkpt lat="42.40076" lon="-0.98404">
        <ele>1157.69</ele>
        <time>2026-03-04T08:15:29Z</time>
      </trkpt>
      <trkpt lat="42.401" lon="-0.98403">
        <ele>1160.6</ele>
        <time>2026-03-04T08:15:48Z</time>
      </trkpt>
      <trkpt lat="42.40121" lon="-0.98406">
        <ele>1161.09</ele>
        <time>2026-03-04T08:16:06Z</time>
      </trkpt>
      <trkpt lat="42.40123" lon="-0.98405">
        <ele>1162.41</ele>
        <time>2026-03-04T08:16:09Z</time>
      </trkpt>
      <trkpt lat="42.40145" lon="-0.98403">
        <ele>1165.48</ele>
        <time>2026-03-04T08:16:24Z</time>
      </trkpt>
      <trkpt lat="42.40163" lon="-0.98399">
        <ele>1166.33</ele>
        <time>2026-03-04T08:16:39Z</time>
      </trkpt>
      <trkpt lat="42.40184" lon="-0.98393">
        <ele>1168.99</ele>
        <time>2026-03-04T08:16:57Z</time>
      </trkpt>
      <trkpt lat="42.40192" lon="-0.9839">
        <ele>1169.22</ele>
        <time>2026-03-04T08:17:02Z</time>
      </trkpt>
      <trkpt lat="42.40212" lon="-0.98385">
        <ele>1169.24</ele>
        <time>2026-03-04T08:17:16Z</time>
      </trkpt>
      <trkpt lat="42.40218" lon="-0.98379">
        <ele>1168.12</ele>
        <time>2026-03-04T08:17:21Z</time>
      </trkpt>
      <trkpt lat="42.40233" lon="-0.98385">
        <ele>1170.8</ele>
        <time>2026-03-04T08:17:35Z</time>
      </trkpt>
      <trkpt lat="42.40244" lon="-0.98388">
        <ele>1172.96</ele>
        <time>2026-03-04T08:17:44Z</time>
      </trkpt>
      <trkpt lat="42.40247" lon="-0.98386">
        <ele>1173.21</ele>
        <time>2026-03-04T08:17:47Z</time>
      </trkpt>
      <trkpt lat="42.40268" lon="-0.98381">
        <ele>1172.03</ele>
        <time>2026-03-04T08:18:00Z</time>
      </trkpt>
      <trkpt lat="42.4027" lon="-0.98379">
        <ele>1171.46</ele>
        <time>2026-03-04T08:18:02Z</time>
      </trkpt>
      <trkpt lat="42.4028" lon="-0.98379">
        <ele>1169.89</ele>
        <time>2026-03-04T08:18:10Z</time>
      </trkpt>
      <trkpt lat="42.40284" lon="-0.9838">
        <ele>1170.99</ele>
        <time>2026-03-04T08:18:12Z</time>
      </trkpt>
      <trkpt lat="42.40288" lon="-0.98382">
        <ele>1171.44</ele>
        <time>2026-03-04T08:18:15Z</time>
      </trkpt>
      <trkpt lat="42.40298" lon="-0.98388">
        <ele>1171.55</ele>
        <time>2026-03-04T08:18:20Z</time>
      </trkpt>
      <trkpt lat="42.40312" lon="-0.98391">
        <ele>1172.29</ele>
        <time>2026-03-04T08:18:36Z</time>
      </trkpt>
      <trkpt lat="42.4031" lon="-0.98391">
        <ele>1173.03</ele>
        <time>2026-03-04T08:18:50Z</time>
      </trkpt>
      <trkpt lat="42.40311" lon="-0.98395">
        <ele>1172.33</ele>
        <time>2026-03-04T08:19:11Z</time>
      </trkpt>
      <trkpt lat="42.40314" lon="-0.98396">
        <ele>1174.02</ele>
        <time>2026-03-04T08:19:14Z</time>
      </trkpt>
      <trkpt lat="42.40322" lon="-0.98396">
        <ele>1174.67</ele>
        <time>2026-03-04T08:19:20Z</time>
      </trkpt>
      <trkpt lat="42.40344" lon="-0.98394">
        <ele>1176.08</ele>
        <time>2026-03-04T08:19:36Z</time>
      </trkpt>
      <trkpt lat="42.4035" lon="-0.9839">
        <ele>1176.59</ele>
        <time>2026-03-04T08:19:44Z</time>
      </trkpt>
      <trkpt lat="42.40352" lon="-0.98387">
        <ele>1180.97</ele>
        <time>2026-03-04T08:19:46Z</time>
      </trkpt>
      <trkpt lat="42.40371" lon="-0.98364">
        <ele>1179.4</ele>
        <time>2026-03-04T08:20:03Z</time>
      </trkpt>
      <trkpt lat="42.40394" lon="-0.98343">
        <ele>1181.67</ele>
        <time>2026-03-04T08:20:21Z</time>
      </trkpt>
      <trkpt lat="42.40413" lon="-0.98334">
        <ele>1183.14</ele>
        <time>2026-03-04T08:20:34Z</time>
      </trkpt>
      <trkpt lat="42.40427" lon="-0.98328">
        <ele>1184.56</ele>
        <time>2026-03-04T08:20:46Z</time>
      </trkpt>
      <trkpt lat="42.40428" lon="-0.98328">
        <ele>1184.81</ele>
        <time>2026-03-04T08:20:49Z</time>
      </trkpt>
      <trkpt lat="42.40433" lon="-0.98326">
        <ele>1185.76</ele>
        <time>2026-03-04T08:20:53Z</time>
      </trkpt>
      <trkpt lat="42.40435" lon="-0.98325">
        <ele>1186.41</ele>
        <time>2026-03-04T08:20:55Z</time>
      </trkpt>
      <trkpt lat="42.40453" lon="-0.98319">
        <ele>1189.45</ele>
        <time>2026-03-04T08:21:10Z</time>
      </trkpt>
      <trkpt lat="42.40468" lon="-0.98313">
        <ele>1192.1</ele>
        <time>2026-03-04T08:21:22Z</time>
      </trkpt>
      <trkpt lat="42.40484" lon="-0.98307">
        <ele>1195.53</ele>
        <time>2026-03-04T08:21:35Z</time>
      </trkpt>
      <trkpt lat="42.40501" lon="-0.98299">
        <ele>1197.6</ele>
        <time>2026-03-04T08:21:48Z</time>
      </trkpt>
      <trkpt lat="42.4051" lon="-0.98295">
        <ele>1198.81</ele>
        <time>2026-03-04T08:21:55Z</time>
      </trkpt>
      <trkpt lat="42.40532" lon="-0.98282">
        <ele>1201.64</ele>
        <time>2026-03-04T08:22:11Z</time>
      </trkpt>
      <trkpt lat="42.40535" lon="-0.9828">
        <ele>1201.16</ele>
        <time>2026-03-04T08:22:14Z</time>
      </trkpt>
      <trkpt lat="42.40542" lon="-0.98275">
        <ele>1202.34</ele>
        <time>2026-03-04T08:22:20Z</time>
      </trkpt>
      <trkpt lat="42.40555" lon="-0.98265">
        <ele>1204.3</ele>
        <time>2026-03-04T08:22:31Z</time>
      </trkpt>
      <trkpt lat="42.4057" lon="-0.98255">
        <ele>1206.32</ele>
        <time>2026-03-04T08:22:44Z</time>
      </trkpt>
      <trkpt lat="42.40569" lon="-0.98255">
        <ele>1206.74</ele>
        <time>2026-03-04T08:22:57Z</time>
      </trkpt>
      <trkpt lat="42.4057" lon="-0.98255">
        <ele>1206.97</ele>
        <time>2026-03-04T08:23:11Z</time>
      </trkpt>
      <trkpt lat="42.40571" lon="-0.98255">
        <ele>1207.19</ele>
        <time>2026-03-04T08:23:13Z</time>
      </trkpt>
      <trkpt lat="42.40572" lon="-0.98254">
        <ele>1207.24</ele>
        <time>2026-03-04T08:23:15Z</time>
      </trkpt>
      <trkpt lat="42.40579" lon="-0.98249">
        <ele>1208.38</ele>
        <time>2026-03-04T08:23:21Z</time>
      </trkpt>
      <trkpt lat="42.40601" lon="-0.98234">
        <ele>1211.92</ele>
        <time>2026-03-04T08:23:38Z</time>
      </trkpt>
      <trkpt lat="42.40619" lon="-0.98221">
        <ele>1214.55</ele>
        <time>2026-03-04T08:23:52Z</time>
      </trkpt>
      <trkpt lat="42.40634" lon="-0.98211">
        <ele>1217.93</ele>
        <time>2026-03-04T08:24:05Z</time>
      </trkpt>
      <trkpt lat="42.40648" lon="-0.98205">
        <ele>1220.28</ele>
        <time>2026-03-04T08:24:17Z</time>
      </trkpt>
      <trkpt lat="42.40659" lon="-0.98197">
        <ele>1223.75</ele>
        <time>2026-03-04T08:24:30Z</time>
      </trkpt>
      <trkpt lat="42.40668" lon="-0.9819">
        <ele>1227.17</ele>
        <time>2026-03-04T08:24:42Z</time>
      </trkpt>
      <trkpt lat="42.40669" lon="-0.98189">
        <ele>1227.94</ele>
        <time>2026-03-04T08:24:44Z</time>
      </trkpt>
      <trkpt lat="42.40679" lon="-0.98182">
        <ele>1230.94</ele>
        <time>2026-03-04T08:24:56Z</time>
      </trkpt>
      <trkpt lat="42.40689" lon="-0.98175">
        <ele>1233.55</ele>
        <time>2026-03-04T08:25:10Z</time>
      </trkpt>
      <trkpt lat="42.40693" lon="-0.98172">
        <ele>1235.38</ele>
        <time>2026-03-04T08:25:16Z</time>
      </trkpt>
      <trkpt lat="42.40701" lon="-0.98167">
        <ele>1236.73</ele>
        <time>2026-03-04T08:25:24Z</time>
      </trkpt>
      <trkpt lat="42.40705" lon="-0.98164">
        <ele>1237.91</ele>
        <time>2026-03-04T08:25:30Z</time>
      </trkpt>
      <trkpt lat="42.40712" lon="-0.98159">
        <ele>1240.09</ele>
        <time>2026-03-04T08:25:38Z</time>
      </trkpt>
      <trkpt lat="42.40716" lon="-0.98157">
        <ele>1241.08</ele>
        <time>2026-03-04T08:25:42Z</time>
      </trkpt>
      <trkpt lat="42.4072" lon="-0.98154">
        <ele>1242.48</ele>
        <time>2026-03-04T08:25:47Z</time>
      </trkpt>
      <trkpt lat="42.40732" lon="-0.98145">
        <ele>1244.79</ele>
        <time>2026-03-04T08:26:00Z</time>
      </trkpt>
      <trkpt lat="42.40741" lon="-0.98136">
        <ele>1248.45</ele>
        <time>2026-03-04T08:26:11Z</time>
      </trkpt>
      <trkpt lat="42.40754" lon="-0.98123">
        <ele>1250.59</ele>
        <time>2026-03-04T08:26:24Z</time>
      </trkpt>
      <trkpt lat="42.40766" lon="-0.9811">
        <ele>1253.75</ele>
        <time>2026-03-04T08:26:37Z</time>
      </trkpt>
      <trkpt lat="42.40777" lon="-0.98099">
        <ele>1257</ele>
        <time>2026-03-04T08:26:48Z</time>
      </trkpt>
      <trkpt lat="42.40789" lon="-0.98088">
        <ele>1260.5</ele>
        <time>2026-03-04T08:27:02Z</time>
      </trkpt>
      <trkpt lat="42.40793" lon="-0.98084">
        <ele>1261.67</ele>
        <time>2026-03-04T08:27:07Z</time>
      </trkpt>
      <trkpt lat="42.40802" lon="-0.98075">
        <ele>1264.87</ele>
        <time>2026-03-04T08:27:17Z</time>
      </trkpt>
      <trkpt lat="42.40807" lon="-0.98071">
        <ele>1266.67</ele>
        <time>2026-03-04T08:27:24Z</time>
      </trkpt>
      <trkpt lat="42.40809" lon="-0.9807">
        <ele>1265.96</ele>
        <time>2026-03-04T08:27:45Z</time>
      </trkpt>
      <trkpt lat="42.40809" lon="-0.98069">
        <ele>1266.38</ele>
        <time>2026-03-04T08:28:06Z</time>
      </trkpt>
      <trkpt lat="42.40812" lon="-0.98066">
        <ele>1267.38</ele>
        <time>2026-03-04T08:28:09Z</time>
      </trkpt>
      <trkpt lat="42.40818" lon="-0.98057">
        <ele>1270.4</ele>
        <time>2026-03-04T08:28:20Z</time>
      </trkpt>
      <trkpt lat="42.40819" lon="-0.98057">
        <ele>1269.96</ele>
        <time>2026-03-04T08:28:37Z</time>
      </trkpt>
      <trkpt lat="42.4082" lon="-0.98058">
        <ele>1271.63</ele>
        <time>2026-03-04T08:28:44Z</time>
      </trkpt>
      <trkpt lat="42.40822" lon="-0.98058">
        <ele>1270.54</ele>
        <time>2026-03-04T08:28:48Z</time>
      </trkpt>
      <trkpt lat="42.40823" lon="-0.98056">
        <ele>1271.87</ele>
        <time>2026-03-04T08:28:51Z</time>
      </trkpt>
      <trkpt lat="42.40831" lon="-0.98052">
        <ele>1275.22</ele>
        <time>2026-03-04T08:29:00Z</time>
      </trkpt>
      <trkpt lat="42.40833" lon="-0.98051">
        <ele>1275.96</ele>
        <time>2026-03-04T08:29:02Z</time>
      </trkpt>
      <trkpt lat="42.40844" lon="-0.98045">
        <ele>1278.72</ele>
        <time>2026-03-04T08:29:13Z</time>
      </trkpt>
      <trkpt lat="42.40846" lon="-0.98043">
        <ele>1279.1</ele>
        <time>2026-03-04T08:29:16Z</time>
      </trkpt>
      <trkpt lat="42.40858" lon="-0.98033">
        <ele>1284.22</ele>
        <time>2026-03-04T08:29:31Z</time>
      </trkpt>
      <trkpt lat="42.40867" lon="-0.9802">
        <ele>1286.86</ele>
        <time>2026-03-04T08:29:43Z</time>
      </trkpt>
      <trkpt lat="42.40874" lon="-0.98014">
        <ele>1288.71</ele>
        <time>2026-03-04T08:29:58Z</time>
      </trkpt>
      <trkpt lat="42.40874" lon="-0.98013">
        <ele>1286.4</ele>
        <time>2026-03-04T08:30:07Z</time>
      </trkpt>
      <trkpt lat="42.40874" lon="-0.98014">
        <ele>1287.45</ele>
        <time>2026-03-04T08:30:33Z</time>
      </trkpt>
      <trkpt lat="42.40874" lon="-0.98013">
        <ele>1286.47</ele>
        <time>2026-03-04T08:30:57Z</time>
      </trkpt>
      <trkpt lat="42.40874" lon="-0.98013">
        <ele>1286.8</ele>
        <time>2026-03-04T08:31:20Z</time>
      </trkpt>
      <trkpt lat="42.40875" lon="-0.98013">
        <ele>1287.83</ele>
        <time>2026-03-04T08:31:47Z</time>
      </trkpt>
      <trkpt lat="42.40874" lon="-0.98013">
        <ele>1287.18</ele>
        <time>2026-03-04T08:32:05Z</time>
      </trkpt>
      <trkpt lat="42.40875" lon="-0.98013">
        <ele>1287.48</ele>
        <time>2026-03-04T08:32:23Z</time>
      </trkpt>
      <trkpt lat="42.40875" lon="-0.98013">
        <ele>1288.12</ele>
        <time>2026-03-04T08:32:41Z</time>
      </trkpt>
      <trkpt lat="42.40875" lon="-0.98013">
        <ele>1288.21</ele>
        <time>2026-03-04T08:33:05Z</time>
      </trkpt>
      <trkpt lat="42.40875" lon="-0.98013">
        <ele>1289.51</ele>
        <time>2026-03-04T08:33:13Z</time>
      </trkpt>
      <trkpt lat="42.40874" lon="-0.98013">
        <ele>1290.99</ele>
        <time>2026-03-04T08:33:29Z</time>
      </trkpt>
      <trkpt lat="42.40875" lon="-0.98013">
        <ele>1289.43</ele>
        <time>2026-03-04T08:33:49Z</time>
      </trkpt>
      <trkpt lat="42.40875" lon="-0.98013">
        <ele>1289.9</ele>
        <time>2026-03-04T08:34:10Z</time>
      </trkpt>
      <trkpt lat="42.40875" lon="-0.98012">
        <ele>1290.59</ele>
        <time>2026-03-04T08:34:33Z</time>
      </trkpt>
      <trkpt lat="42.40876" lon="-0.98017">
        <ele>1290.29</ele>
        <time>2026-03-04T08:34:42Z</time>
      </trkpt>
      <trkpt lat="42.40881" lon="-0.98024">
        <ele>1289.66</ele>
        <time>2026-03-04T08:34:56Z</time>
      </trkpt>
      <trkpt lat="42.40882" lon="-0.98025">
        <ele>1289.9</ele>
        <time>2026-03-04T08:35:21Z</time>
      </trkpt>
      <trkpt lat="42.40886" lon="-0.98032">
        <ele>1287.46</ele>
        <time>2026-03-04T08:35:25Z</time>
      </trkpt>
      <trkpt lat="42.40894" lon="-0.98042">
        <ele>1286.06</ele>
        <time>2026-03-04T08:35:32Z</time>
      </trkpt>
      <trkpt lat="42.40909" lon="-0.98065">
        <ele>1282.88</ele>
        <time>2026-03-04T08:35:45Z</time>
      </trkpt>
      <trkpt lat="42.4092" lon="-0.98076">
        <ele>1279.81</ele>
        <time>2026-03-04T08:35:53Z</time>
      </trkpt>
      <trkpt lat="42.40933" lon="-0.98088">
        <ele>1276.71</ele>
        <time>2026-03-04T08:36:03Z</time>
      </trkpt>
      <trkpt lat="42.40943" lon="-0.98098">
        <ele>1273.06</ele>
        <time>2026-03-04T08:36:10Z</time>
      </trkpt>
      <trkpt lat="42.40945" lon="-0.98099">
        <ele>1273.02</ele>
        <time>2026-03-04T08:36:11Z</time>
      </trkpt>
      <trkpt lat="42.40958" lon="-0.9811">
        <ele>1269.53</ele>
        <time>2026-03-04T08:36:20Z</time>
      </trkpt>
      <trkpt lat="42.40959" lon="-0.98111">
        <ele>1269.33</ele>
        <time>2026-03-04T08:36:21Z</time>
      </trkpt>
      <trkpt lat="42.4097" lon="-0.98117">
        <ele>1267.79</ele>
        <time>2026-03-04T08:36:28Z</time>
      </trkpt>
      <trkpt lat="42.40982" lon="-0.98125">
        <ele>1265.32</ele>
        <time>2026-03-04T08:36:36Z</time>
      </trkpt>
      <trkpt lat="42.40991" lon="-0.98131">
        <ele>1264.1</ele>
        <time>2026-03-04T08:36:43Z</time>
      </trkpt>
      <trkpt lat="42.41018" lon="-0.98154">
        <ele>1261.43</ele>
        <time>2026-03-04T08:37:01Z</time>
      </trkpt>
      <trkpt lat="42.41038" lon="-0.98199">
        <ele>1259.5</ele>
        <time>2026-03-04T08:37:23Z</time>
      </trkpt>
      <trkpt lat="42.41044" lon="-0.9824">
        <ele>1257.36</ele>
        <time>2026-03-04T08:37:40Z</time>
      </trkpt>
      <trkpt lat="42.41051" lon="-0.98282">
        <ele>1256.12</ele>
        <time>2026-03-04T08:37:58Z</time>
      </trkpt>
      <trkpt lat="42.41067" lon="-0.98316">
        <ele>1252.68</ele>
        <time>2026-03-04T08:38:15Z</time>
      </trkpt>
      <trkpt lat="42.41091" lon="-0.98348">
        <ele>1249.46</ele>
        <time>2026-03-04T08:38:34Z</time>
      </trkpt>
      <trkpt lat="42.41109" lon="-0.98371">
        <ele>1246.72</ele>
        <time>2026-03-04T08:38:48Z</time>
      </trkpt>
      <trkpt lat="42.41115" lon="-0.9838">
        <ele>1246.34</ele>
        <time>2026-03-04T08:38:55Z</time>
      </trkpt>
      <trkpt lat="42.41139" lon="-0.98415">
        <ele>1245.42</ele>
        <time>2026-03-04T08:39:14Z</time>
      </trkpt>
      <trkpt lat="42.41153" lon="-0.98443">
        <ele>1245.74</ele>
        <time>2026-03-04T08:39:28Z</time>
      </trkpt>
      <trkpt lat="42.41162" lon="-0.9847">
        <ele>1248.77</ele>
        <time>2026-03-04T08:39:42Z</time>
      </trkpt>
      <trkpt lat="42.41165" lon="-0.9851">
        <ele>1251.3</ele>
        <time>2026-03-04T08:40:02Z</time>
      </trkpt>
      <trkpt lat="42.41163" lon="-0.98525">
        <ele>1251.69</ele>
        <time>2026-03-04T08:40:08Z</time>
      </trkpt>
      <trkpt lat="42.41159" lon="-0.98548">
        <ele>1254.58</ele>
        <time>2026-03-04T08:40:18Z</time>
      </trkpt>
      <trkpt lat="42.41157" lon="-0.9856">
        <ele>1255.45</ele>
        <time>2026-03-04T08:40:25Z</time>
      </trkpt>
      <trkpt lat="42.41157" lon="-0.98568">
        <ele>1256.36</ele>
        <time>2026-03-04T08:40:29Z</time>
      </trkpt>
      <trkpt lat="42.41154" lon="-0.98592">
        <ele>1258.74</ele>
        <time>2026-03-04T08:40:42Z</time>
      </trkpt>
      <trkpt lat="42.41151" lon="-0.98607">
        <ele>1259.36</ele>
        <time>2026-03-04T08:40:50Z</time>
      </trkpt>
      <trkpt lat="42.41146" lon="-0.98636">
        <ele>1261.84</ele>
        <time>2026-03-04T08:41:04Z</time>
      </trkpt>
      <trkpt lat="42.41142" lon="-0.98666">
        <ele>1263.72</ele>
        <time>2026-03-04T08:41:19Z</time>
      </trkpt>
      <trkpt lat="42.41137" lon="-0.98695">
        <ele>1266.94</ele>
        <time>2026-03-04T08:41:34Z</time>
      </trkpt>
      <trkpt lat="42.4113" lon="-0.98718">
        <ele>1269.98</ele>
        <time>2026-03-04T08:41:47Z</time>
      </trkpt>
      <trkpt lat="42.4111" lon="-0.98745">
        <ele>1272.13</ele>
        <time>2026-03-04T08:42:05Z</time>
      </trkpt>
      <trkpt lat="42.41108" lon="-0.98747">
        <ele>1272.8</ele>
        <time>2026-03-04T08:42:07Z</time>
      </trkpt>
      <trkpt lat="42.41085" lon="-0.98767">
        <ele>1276.07</ele>
        <time>2026-03-04T08:42:24Z</time>
      </trkpt>
      <trkpt lat="42.41077" lon="-0.98793">
        <ele>1279.37</ele>
        <time>2026-03-04T08:42:39Z</time>
      </trkpt>
      <trkpt lat="42.41082" lon="-0.98798">
        <ele>1279.4</ele>
        <time>2026-03-04T08:42:54Z</time>
      </trkpt>
      <trkpt lat="42.41084" lon="-0.988">
        <ele>1280.27</ele>
        <time>2026-03-04T08:42:56Z</time>
      </trkpt>
      <trkpt lat="42.41104" lon="-0.98819">
        <ele>1283.85</ele>
        <time>2026-03-04T08:43:13Z</time>
      </trkpt>
      <trkpt lat="42.41106" lon="-0.9882">
        <ele>1284.48</ele>
        <time>2026-03-04T08:43:15Z</time>
      </trkpt>
      <trkpt lat="42.41116" lon="-0.98819">
        <ele>1284.56</ele>
        <time>2026-03-04T08:43:28Z</time>
      </trkpt>
      <trkpt lat="42.41116" lon="-0.98822">
        <ele>1285.88</ele>
        <time>2026-03-04T08:43:43Z</time>
      </trkpt>
      <trkpt lat="42.41117" lon="-0.98822">
        <ele>1285.6</ele>
        <time>2026-03-04T08:43:54Z</time>
      </trkpt>
      <trkpt lat="42.41117" lon="-0.98821">
        <ele>1285.37</ele>
        <time>2026-03-04T08:43:56Z</time>
      </trkpt>
      <trkpt lat="42.41112" lon="-0.98816">
        <ele>1282.51</ele>
        <time>2026-03-04T08:44:01Z</time>
      </trkpt>
      <trkpt lat="42.41106" lon="-0.98801">
        <ele>1284.76</ele>
        <time>2026-03-04T08:44:15Z</time>
      </trkpt>
      <trkpt lat="42.41104" lon="-0.98798">
        <ele>1285.35</ele>
        <time>2026-03-04T08:44:42Z</time>
      </trkpt>
      <trkpt lat="42.41104" lon="-0.98798">
        <ele>1285.31</ele>
        <time>2026-03-04T08:44:48Z</time>
      </trkpt>
      <trkpt lat="42.41104" lon="-0.98792">
        <ele>1284.38</ele>
        <time>2026-03-04T08:45:03Z</time>
      </trkpt>
      <trkpt lat="42.41106" lon="-0.98785">
        <ele>1285.95</ele>
        <time>2026-03-04T08:45:23Z</time>
      </trkpt>
      <trkpt lat="42.41106" lon="-0.98779">
        <ele>1283.31</ele>
        <time>2026-03-04T08:45:27Z</time>
      </trkpt>
      <trkpt lat="42.41109" lon="-0.98774">
        <ele>1282.17</ele>
        <time>2026-03-04T08:45:31Z</time>
      </trkpt>
      <trkpt lat="42.4112" lon="-0.98762">
        <ele>1280.39</ele>
        <time>2026-03-04T08:45:40Z</time>
      </trkpt>
      <trkpt lat="42.41124" lon="-0.98753">
        <ele>1277.61</ele>
        <time>2026-03-04T08:45:45Z</time>
      </trkpt>
      <trkpt lat="42.41124" lon="-0.98747">
        <ele>1276.05</ele>
        <time>2026-03-04T08:45:49Z</time>
      </trkpt>
      <trkpt lat="42.41129" lon="-0.98738">
        <ele>1273.2</ele>
        <time>2026-03-04T08:45:55Z</time>
      </trkpt>
      <trkpt lat="42.41129" lon="-0.98737">
        <ele>1273.06</ele>
        <time>2026-03-04T08:45:56Z</time>
      </trkpt>
      <trkpt lat="42.41131" lon="-0.98726">
        <ele>1270.49</ele>
        <time>2026-03-04T08:46:01Z</time>
      </trkpt>
      <trkpt lat="42.4114" lon="-0.98683">
        <ele>1267.25</ele>
        <time>2026-03-04T08:46:20Z</time>
      </trkpt>
      <trkpt lat="42.41142" lon="-0.98667">
        <ele>1265.31</ele>
        <time>2026-03-04T08:46:27Z</time>
      </trkpt>
      <trkpt lat="42.41144" lon="-0.98653">
        <ele>1264.27</ele>
        <time>2026-03-04T08:46:37Z</time>
      </trkpt>
      <trkpt lat="42.41146" lon="-0.98641">
        <ele>1263.29</ele>
        <time>2026-03-04T08:46:43Z</time>
      </trkpt>
      <trkpt lat="42.41147" lon="-0.98632">
        <ele>1262.62</ele>
        <time>2026-03-04T08:46:47Z</time>
      </trkpt>
      <trkpt lat="42.41153" lon="-0.98594">
        <ele>1259.28</ele>
        <time>2026-03-04T08:47:03Z</time>
      </trkpt>
      <trkpt lat="42.41161" lon="-0.98545">
        <ele>1255.97</ele>
        <time>2026-03-04T08:47:24Z</time>
      </trkpt>
      <trkpt lat="42.41166" lon="-0.98511">
        <ele>1252.91</ele>
        <time>2026-03-04T08:47:38Z</time>
      </trkpt>
      <trkpt lat="42.4116" lon="-0.98461">
        <ele>1250.46</ele>
        <time>2026-03-04T08:48:00Z</time>
      </trkpt>
      <trkpt lat="42.41157" lon="-0.98452">
        <ele>1246.22</ele>
        <time>2026-03-04T08:48:04Z</time>
      </trkpt>
      <trkpt lat="42.41133" lon="-0.98407">
        <ele>1247.88</ele>
        <time>2026-03-04T08:48:28Z</time>
      </trkpt>
      <trkpt lat="42.4111" lon="-0.98375">
        <ele>1249.53</ele>
        <time>2026-03-04T08:48:49Z</time>
      </trkpt>
      <trkpt lat="42.41097" lon="-0.98357">
        <ele>1252.35</ele>
        <time>2026-03-04T08:49:02Z</time>
      </trkpt>
      <trkpt lat="42.41083" lon="-0.9834">
        <ele>1254</ele>
        <time>2026-03-04T08:49:16Z</time>
      </trkpt>
      <trkpt lat="42.41065" lon="-0.98318">
        <ele>1256.49</ele>
        <time>2026-03-04T08:49:32Z</time>
      </trkpt>
      <trkpt lat="42.41046" lon="-0.98269">
        <ele>1259.69</ele>
        <time>2026-03-04T08:49:58Z</time>
      </trkpt>
      <trkpt lat="42.4104" lon="-0.98214">
        <ele>1262.82</ele>
        <time>2026-03-04T08:50:23Z</time>
      </trkpt>
      <trkpt lat="42.41025" lon="-0.98164">
        <ele>1265.16</ele>
        <time>2026-03-04T08:50:48Z</time>
      </trkpt>
      <trkpt lat="42.41021" lon="-0.98158">
        <ele>1266.49</ele>
        <time>2026-03-04T08:50:52Z</time>
      </trkpt>
      <trkpt lat="42.4099" lon="-0.98132">
        <ele>1267.88</ele>
        <time>2026-03-04T08:51:15Z</time>
      </trkpt>
      <trkpt lat="42.40977" lon="-0.98121">
        <ele>1271.09</ele>
        <time>2026-03-04T08:51:25Z</time>
      </trkpt>
      <trkpt lat="42.40961" lon="-0.98113">
        <ele>1274.94</ele>
        <time>2026-03-04T08:51:39Z</time>
      </trkpt>
      <trkpt lat="42.40942" lon="-0.98098">
        <ele>1277.99</ele>
        <time>2026-03-04T08:51:59Z</time>
      </trkpt>
      <trkpt lat="42.40931" lon="-0.98088">
        <ele>1281.44</ele>
        <time>2026-03-04T08:52:11Z</time>
      </trkpt>
      <trkpt lat="42.40924" lon="-0.98082">
        <ele>1283.13</ele>
        <time>2026-03-04T08:52:19Z</time>
      </trkpt>
      <trkpt lat="42.40912" lon="-0.9807">
        <ele>1286.78</ele>
        <time>2026-03-04T08:52:32Z</time>
      </trkpt>
      <trkpt lat="42.40909" lon="-0.98067">
        <ele>1288.33</ele>
        <time>2026-03-04T08:52:35Z</time>
      </trkpt>
      <trkpt lat="42.40899" lon="-0.9805">
        <ele>1290.66</ele>
        <time>2026-03-04T08:52:50Z</time>
      </trkpt>
      <trkpt lat="42.40883" lon="-0.98026">
        <ele>1294.45</ele>
        <time>2026-03-04T08:53:10Z</time>
      </trkpt>
      <trkpt lat="42.40876" lon="-0.98011">
        <ele>1295.4</ele>
        <time>2026-03-04T08:53:28Z</time>
      </trkpt>
      <trkpt lat="42.40877" lon="-0.9801">
        <ele>1297.7</ele>
        <time>2026-03-04T08:53:47Z</time>
      </trkpt>
      <trkpt lat="42.40877" lon="-0.98008">
        <ele>1297.13</ele>
        <time>2026-03-04T08:54:10Z</time>
      </trkpt>
      <trkpt lat="42.40877" lon="-0.98008">
        <ele>1298.61</ele>
        <time>2026-03-04T08:54:59Z</time>
      </trkpt>
      <trkpt lat="42.40877" lon="-0.98008">
        <ele>1298.77</ele>
        <time>2026-03-04T08:55:00Z</time>
      </trkpt>
      <trkpt lat="42.40875" lon="-0.98007">
        <ele>1295.31</ele>
        <time>2026-03-04T08:55:23Z</time>
      </trkpt>
      <trkpt lat="42.40875" lon="-0.98007">
        <ele>1295.01</ele>
        <time>2026-03-04T08:55:24Z</time>
      </trkpt>
      <trkpt lat="42.40875" lon="-0.98009">
        <ele>1295.16</ele>
        <time>2026-03-04T08:55:40Z</time>
      </trkpt>
      <trkpt lat="42.40874" lon="-0.9801">
        <ele>1296.79</ele>
        <time>2026-03-04T08:56:32Z</time>
      </trkpt>
      <trkpt lat="42.40874" lon="-0.9801">
        <ele>1296.45</ele>
        <time>2026-03-04T08:57:16Z</time>
      </trkpt>
      <trkpt lat="42.40874" lon="-0.98009">
        <ele>1295.8</ele>
        <time>2026-03-04T08:58:00Z</time>
      </trkpt>
      <trkpt lat="42.40874" lon="-0.9801">
        <ele>1295.79</ele>
        <time>2026-03-04T08:58:36Z</time>
      </trkpt>
      <trkpt lat="42.40875" lon="-0.98009">
        <ele>1297.01</ele>
        <time>2026-03-04T08:59:18Z</time>
      </trkpt>
      <trkpt lat="42.40875" lon="-0.98009">
        <ele>1297.91</ele>
        <time>2026-03-04T08:59:39Z</time>
      </trkpt>
      <trkpt lat="42.40875" lon="-0.98008">
        <ele>1297.14</ele>
        <time>2026-03-04T09:00:05Z</time>
      </trkpt>
      <trkpt lat="42.40875" lon="-0.98008">
        <ele>1292.37</ele>
        <time>2026-03-04T09:00:06Z</time>
      </trkpt>
      <trkpt lat="42.40875" lon="-0.98008">
        <ele>1300.62</ele>
        <time>2026-03-04T09:00:07Z</time>
      </trkpt>
      <trkpt lat="42.40875" lon="-0.98008">
        <ele>1297.43</ele>
        <time>2026-03-04T09:00:14Z</time>
      </trkpt>
      <trkpt lat="42.40874" lon="-0.98006">
        <ele>1297.96</ele>
        <time>2026-03-04T09:00:20Z</time>
      </trkpt>
      <trkpt lat="42.40874" lon="-0.97999">
        <ele>1299.34</ele>
        <time>2026-03-04T09:00:24Z</time>
      </trkpt>
      <trkpt lat="42.40874" lon="-0.97994">
        <ele>1298.04</ele>
        <time>2026-03-04T09:00:38Z</time>
      </trkpt>
      <trkpt lat="42.40874" lon="-0.97991">
        <ele>1297.25</ele>
        <time>2026-03-04T09:00:40Z</time>
      </trkpt>
      <trkpt lat="42.40874" lon="-0.9797">
        <ele>1296.74</ele>
        <time>2026-03-04T09:00:50Z</time>
      </trkpt>
      <trkpt lat="42.40874" lon="-0.97957">
        <ele>1295.31</ele>
        <time>2026-03-04T09:01:06Z</time>
      </trkpt>
      <trkpt lat="42.40873" lon="-0.97951">
        <ele>1291.82</ele>
        <time>2026-03-04T09:01:20Z</time>
      </trkpt>
      <trkpt lat="42.40873" lon="-0.97941">
        <ele>1290.48</ele>
        <time>2026-03-04T09:01:25Z</time>
      </trkpt>
      <trkpt lat="42.40874" lon="-0.97939">
        <ele>1292.25</ele>
        <time>2026-03-04T09:01:44Z</time>
      </trkpt>
      <trkpt lat="42.40874" lon="-0.97939">
        <ele>1293.77</ele>
        <time>2026-03-04T09:02:32Z</time>
      </trkpt>
      <trkpt lat="42.40872" lon="-0.97939">
        <ele>1294.1</ele>
        <time>2026-03-04T09:02:57Z</time>
      </trkpt>
      <trkpt lat="42.40871" lon="-0.97938">
        <ele>1295.67</ele>
        <time>2026-03-04T09:03:56Z</time>
      </trkpt>
      <trkpt lat="42.40871" lon="-0.97938">
        <ele>1289.85</ele>
        <time>2026-03-04T09:03:58Z</time>
      </trkpt>
      <trkpt lat="42.40871" lon="-0.97938">
        <ele>1294.07</ele>
        <time>2026-03-04T09:03:59Z</time>
      </trkpt>
      <trkpt lat="42.40871" lon="-0.97936">
        <ele>1293.14</ele>
        <time>2026-03-04T09:04:04Z</time>
      </trkpt>
      <trkpt lat="42.40871" lon="-0.97933">
        <ele>1292.6</ele>
        <time>2026-03-04T09:04:06Z</time>
      </trkpt>
      <trkpt lat="42.40872" lon="-0.97924">
        <ele>1290.55</ele>
        <time>2026-03-04T09:04:10Z</time>
      </trkpt>
      <trkpt lat="42.40873" lon="-0.97902">
        <ele>1288.15</ele>
        <time>2026-03-04T09:04:20Z</time>
      </trkpt>
      <trkpt lat="42.40874" lon="-0.97867">
        <ele>1285.66</ele>
        <time>2026-03-04T09:04:36Z</time>
      </trkpt>
      <trkpt lat="42.40876" lon="-0.97861">
        <ele>1285.31</ele>
        <time>2026-03-04T09:04:50Z</time>
      </trkpt>
      <trkpt lat="42.40878" lon="-0.97862">
        <ele>1283.52</ele>
        <time>2026-03-04T09:05:07Z</time>
      </trkpt>
      <trkpt lat="42.40877" lon="-0.97861">
        <ele>1285.49</ele>
        <time>2026-03-04T09:05:15Z</time>
      </trkpt>
      <trkpt lat="42.40879" lon="-0.97854">
        <ele>1283.18</ele>
        <time>2026-03-04T09:05:19Z</time>
      </trkpt>
      <trkpt lat="42.40881" lon="-0.97834">
        <ele>1279.69</ele>
        <time>2026-03-04T09:05:33Z</time>
      </trkpt>
      <trkpt lat="42.40884" lon="-0.97817">
        <ele>1276.16</ele>
        <time>2026-03-04T09:05:43Z</time>
      </trkpt>
      <trkpt lat="42.40885" lon="-0.97815">
        <ele>1276.07</ele>
        <time>2026-03-04T09:05:44Z</time>
      </trkpt>
      <trkpt lat="42.40888" lon="-0.97807">
        <ele>1277.72</ele>
        <time>2026-03-04T09:05:52Z</time>
      </trkpt>
      <trkpt lat="42.40889" lon="-0.97803">
        <ele>1276.78</ele>
        <time>2026-03-04T09:05:54Z</time>
      </trkpt>
      <trkpt lat="42.40891" lon="-0.97797">
        <ele>1276.06</ele>
        <time>2026-03-04T09:05:58Z</time>
      </trkpt>
      <trkpt lat="42.40898" lon="-0.97786">
        <ele>1272.81</ele>
        <time>2026-03-04T09:06:06Z</time>
      </trkpt>
      <trkpt lat="42.40901" lon="-0.97778">
        <ele>1270.3</ele>
        <time>2026-03-04T09:06:11Z</time>
      </trkpt>
      <trkpt lat="42.40904" lon="-0.97776">
        <ele>1269.82</ele>
        <time>2026-03-04T09:06:27Z</time>
      </trkpt>
      <trkpt lat="42.40908" lon="-0.97776">
        <ele>1269.4</ele>
        <time>2026-03-04T09:06:41Z</time>
      </trkpt>
      <trkpt lat="42.40909" lon="-0.97775">
        <ele>1267.88</ele>
        <time>2026-03-04T09:06:43Z</time>
      </trkpt>
      <trkpt lat="42.40912" lon="-0.97768">
        <ele>1266.06</ele>
        <time>2026-03-04T09:06:58Z</time>
      </trkpt>
      <trkpt lat="42.40915" lon="-0.97765">
        <ele>1265.88</ele>
        <time>2026-03-04T09:07:23Z</time>
      </trkpt>
      <trkpt lat="42.40915" lon="-0.97763">
        <ele>1265.52</ele>
        <time>2026-03-04T09:07:24Z</time>
      </trkpt>
      <trkpt lat="42.40916" lon="-0.9776">
        <ele>1264.56</ele>
        <time>2026-03-04T09:07:26Z</time>
      </trkpt>
      <trkpt lat="42.40915" lon="-0.97757">
        <ele>1264.8</ele>
        <time>2026-03-04T09:07:29Z</time>
      </trkpt>
      <trkpt lat="42.40917" lon="-0.97745">
        <ele>1260.79</ele>
        <time>2026-03-04T09:07:38Z</time>
      </trkpt>
      <trkpt lat="42.40921" lon="-0.97747">
        <ele>1259.83</ele>
        <time>2026-03-04T09:07:46Z</time>
      </trkpt>
      <trkpt lat="42.40923" lon="-0.97748">
        <ele>1258.58</ele>
        <time>2026-03-04T09:07:48Z</time>
      </trkpt>
      <trkpt lat="42.40925" lon="-0.97749">
        <ele>1258.15</ele>
        <time>2026-03-04T09:07:50Z</time>
      </trkpt>
      <trkpt lat="42.40933" lon="-0.97756">
        <ele>1255</ele>
        <time>2026-03-04T09:08:04Z</time>
      </trkpt>
      <trkpt lat="42.40934" lon="-0.97757">
        <ele>1254.8</ele>
        <time>2026-03-04T09:08:05Z</time>
      </trkpt>
      <trkpt lat="42.40938" lon="-0.97749">
        <ele>1250.99</ele>
        <time>2026-03-04T09:08:12Z</time>
      </trkpt>
      <trkpt lat="42.40937" lon="-0.97744">
        <ele>1249.71</ele>
        <time>2026-03-04T09:08:15Z</time>
      </trkpt>
      <trkpt lat="42.40936" lon="-0.97739">
        <ele>1248.53</ele>
        <time>2026-03-04T09:08:18Z</time>
      </trkpt>
      <trkpt lat="42.4094" lon="-0.97733">
        <ele>1246.9</ele>
        <time>2026-03-04T09:08:32Z</time>
      </trkpt>
      <trkpt lat="42.40941" lon="-0.97732">
        <ele>1247.93</ele>
        <time>2026-03-04T09:08:47Z</time>
      </trkpt>
      <trkpt lat="42.40945" lon="-0.97721">
        <ele>1244.97</ele>
        <time>2026-03-04T09:09:02Z</time>
      </trkpt>
      <trkpt lat="42.40945" lon="-0.97716">
        <ele>1243.56</ele>
        <time>2026-03-04T09:09:05Z</time>
      </trkpt>
      <trkpt lat="42.40945" lon="-0.97706">
        <ele>1241.39</ele>
        <time>2026-03-04T09:09:10Z</time>
      </trkpt>
      <trkpt lat="42.40946" lon="-0.97695">
        <ele>1238.81</ele>
        <time>2026-03-04T09:09:18Z</time>
      </trkpt>
      <trkpt lat="42.40948" lon="-0.97691">
        <ele>1238.1</ele>
        <time>2026-03-04T09:09:20Z</time>
      </trkpt>
      <trkpt lat="42.40949" lon="-0.97688">
        <ele>1236.56</ele>
        <time>2026-03-04T09:09:22Z</time>
      </trkpt>
      <trkpt lat="42.4095" lon="-0.97684">
        <ele>1234.92</ele>
        <time>2026-03-04T09:09:25Z</time>
      </trkpt>
      <trkpt lat="42.4095" lon="-0.97679">
        <ele>1234.72</ele>
        <time>2026-03-04T09:09:29Z</time>
      </trkpt>
      <trkpt lat="42.40954" lon="-0.97669">
        <ele>1231.61</ele>
        <time>2026-03-04T09:09:36Z</time>
      </trkpt>
      <trkpt lat="42.40956" lon="-0.97664">
        <ele>1230.54</ele>
        <time>2026-03-04T09:09:39Z</time>
      </trkpt>
      <trkpt lat="42.40958" lon="-0.9766">
        <ele>1229.37</ele>
        <time>2026-03-04T09:09:42Z</time>
      </trkpt>
      <trkpt lat="42.40959" lon="-0.97648">
        <ele>1227.89</ele>
        <time>2026-03-04T09:09:49Z</time>
      </trkpt>
      <trkpt lat="42.40962" lon="-0.97644">
        <ele>1225.96</ele>
        <time>2026-03-04T09:09:53Z</time>
      </trkpt>
      <trkpt lat="42.40963" lon="-0.97643">
        <ele>1226.22</ele>
        <time>2026-03-04T09:09:58Z</time>
      </trkpt>
      <trkpt lat="42.40965" lon="-0.97641">
        <ele>1225</ele>
        <time>2026-03-04T09:10:01Z</time>
      </trkpt>
      <trkpt lat="42.40968" lon="-0.97633">
        <ele>1223.26</ele>
        <time>2026-03-04T09:10:05Z</time>
      </trkpt>
      <trkpt lat="42.40971" lon="-0.97622">
        <ele>1221.29</ele>
        <time>2026-03-04T09:10:12Z</time>
      </trkpt>
      <trkpt lat="42.40974" lon="-0.97619">
        <ele>1219.87</ele>
        <time>2026-03-04T09:10:20Z</time>
      </trkpt>
      <trkpt lat="42.4098" lon="-0.97614">
        <ele>1217.63</ele>
        <time>2026-03-04T09:10:26Z</time>
      </trkpt>
      <trkpt lat="42.40983" lon="-0.97612">
        <ele>1216.74</ele>
        <time>2026-03-04T09:10:29Z</time>
      </trkpt>
      <trkpt lat="42.40989" lon="-0.97597">
        <ele>1213.25</ele>
        <time>2026-03-04T09:10:42Z</time>
      </trkpt>
      <trkpt lat="42.40988" lon="-0.97596">
        <ele>1213.09</ele>
        <time>2026-03-04T09:11:05Z</time>
      </trkpt>
      <trkpt lat="42.40988" lon="-0.97595">
        <ele>1211.95</ele>
        <time>2026-03-04T09:11:26Z</time>
      </trkpt>
      <trkpt lat="42.40988" lon="-0.97595">
        <ele>1213.43</ele>
        <time>2026-03-04T09:11:34Z</time>
      </trkpt>
      <trkpt lat="42.40991" lon="-0.97593">
        <ele>1213.19</ele>
        <time>2026-03-04T09:11:42Z</time>
      </trkpt>
      <trkpt lat="42.40995" lon="-0.97589">
        <ele>1210.14</ele>
        <time>2026-03-04T09:11:48Z</time>
      </trkpt>
      <trkpt lat="42.40996" lon="-0.97587">
        <ele>1209.37</ele>
        <time>2026-03-04T09:11:50Z</time>
      </trkpt>
      <trkpt lat="42.41005" lon="-0.97579">
        <ele>1209.97</ele>
        <time>2026-03-04T09:12:05Z</time>
      </trkpt>
      <trkpt lat="42.41007" lon="-0.97577">
        <ele>1207.34</ele>
        <time>2026-03-04T09:12:07Z</time>
      </trkpt>
      <trkpt lat="42.41008" lon="-0.97576">
        <ele>1207.68</ele>
        <time>2026-03-04T09:12:09Z</time>
      </trkpt>
      <trkpt lat="42.4101" lon="-0.97574">
        <ele>1206.68</ele>
        <time>2026-03-04T09:12:11Z</time>
      </trkpt>
      <trkpt lat="42.4101" lon="-0.97573">
        <ele>1207.05</ele>
        <time>2026-03-04T09:12:12Z</time>
      </trkpt>
      <trkpt lat="42.41015" lon="-0.97569">
        <ele>1204.52</ele>
        <time>2026-03-04T09:12:21Z</time>
      </trkpt>
      <trkpt lat="42.41019" lon="-0.97565">
        <ele>1203.43</ele>
        <time>2026-03-04T09:12:26Z</time>
      </trkpt>
      <trkpt lat="42.41034" lon="-0.97554">
        <ele>1199.63</ele>
        <time>2026-03-04T09:12:41Z</time>
      </trkpt>
      <trkpt lat="42.41046" lon="-0.97543">
        <ele>1198.1</ele>
        <time>2026-03-04T09:12:56Z</time>
      </trkpt>
      <trkpt lat="42.41051" lon="-0.97541">
        <ele>1196.72</ele>
        <time>2026-03-04T09:13:01Z</time>
      </trkpt>
      <trkpt lat="42.41053" lon="-0.97539">
        <ele>1195.9</ele>
        <time>2026-03-04T09:13:03Z</time>
      </trkpt>
      <trkpt lat="42.41056" lon="-0.97536">
        <ele>1194.52</ele>
        <time>2026-03-04T09:13:08Z</time>
      </trkpt>
      <trkpt lat="42.41067" lon="-0.97533">
        <ele>1192.56</ele>
        <time>2026-03-04T09:13:23Z</time>
      </trkpt>
      <trkpt lat="42.4107" lon="-0.97533">
        <ele>1192.25</ele>
        <time>2026-03-04T09:13:27Z</time>
      </trkpt>
      <trkpt lat="42.41076" lon="-0.97529">
        <ele>1189.84</ele>
        <time>2026-03-04T09:13:33Z</time>
      </trkpt>
      <trkpt lat="42.41081" lon="-0.97527">
        <ele>1188.97</ele>
        <time>2026-03-04T09:13:39Z</time>
      </trkpt>
      <trkpt lat="42.41086" lon="-0.97525">
        <ele>1187.62</ele>
        <time>2026-03-04T09:13:44Z</time>
      </trkpt>
      <trkpt lat="42.4109" lon="-0.97524">
        <ele>1187.69</ele>
        <time>2026-03-04T09:14:02Z</time>
      </trkpt>
      <trkpt lat="42.4109" lon="-0.97523">
        <ele>1188.06</ele>
        <time>2026-03-04T09:14:06Z</time>
      </trkpt>
      <trkpt lat="42.41093" lon="-0.97522">
        <ele>1187.22</ele>
        <time>2026-03-04T09:14:09Z</time>
      </trkpt>
      <trkpt lat="42.41108" lon="-0.97519">
        <ele>1184.16</ele>
        <time>2026-03-04T09:14:23Z</time>
      </trkpt>
      <trkpt lat="42.4111" lon="-0.97518">
        <ele>1182.95</ele>
        <time>2026-03-04T09:14:25Z</time>
      </trkpt>
      <trkpt lat="42.41123" lon="-0.97509">
        <ele>1181.01</ele>
        <time>2026-03-04T09:14:39Z</time>
      </trkpt>
      <trkpt lat="42.41137" lon="-0.97507">
        <ele>1178.18</ele>
        <time>2026-03-04T09:14:51Z</time>
      </trkpt>
      <trkpt lat="42.41148" lon="-0.97504">
        <ele>1176</ele>
        <time>2026-03-04T09:15:04Z</time>
      </trkpt>
      <trkpt lat="42.41154" lon="-0.97502">
        <ele>1174.41</ele>
        <time>2026-03-04T09:15:09Z</time>
      </trkpt>
      <trkpt lat="42.41168" lon="-0.97498">
        <ele>1172.58</ele>
        <time>2026-03-04T09:15:25Z</time>
      </trkpt>
      <trkpt lat="42.41168" lon="-0.97498">
        <ele>1172.77</ele>
        <time>2026-03-04T09:15:34Z</time>
      </trkpt>
      <trkpt lat="42.41178" lon="-0.97491">
        <ele>1172</ele>
        <time>2026-03-04T09:15:42Z</time>
      </trkpt>
      <trkpt lat="42.41186" lon="-0.97487">
        <ele>1171.42</ele>
        <time>2026-03-04T09:15:51Z</time>
      </trkpt>
      <trkpt lat="42.412" lon="-0.97483">
        <ele>1167.65</ele>
        <time>2026-03-04T09:16:04Z</time>
      </trkpt>
      <trkpt lat="42.41207" lon="-0.97477">
        <ele>1166.97</ele>
        <time>2026-03-04T09:16:11Z</time>
      </trkpt>
      <trkpt lat="42.41212" lon="-0.97473">
        <ele>1166.52</ele>
        <time>2026-03-04T09:16:17Z</time>
      </trkpt>
      <trkpt lat="42.41215" lon="-0.9747">
        <ele>1166.39</ele>
        <time>2026-03-04T09:16:20Z</time>
      </trkpt>
      <trkpt lat="42.41224" lon="-0.97466">
        <ele>1164.67</ele>
        <time>2026-03-04T09:16:26Z</time>
      </trkpt>
      <trkpt lat="42.41243" lon="-0.97454">
        <ele>1161.77</ele>
        <time>2026-03-04T09:16:38Z</time>
      </trkpt>
      <trkpt lat="42.41264" lon="-0.97441">
        <ele>1158.33</ele>
        <time>2026-03-04T09:16:51Z</time>
      </trkpt>
      <trkpt lat="42.41285" lon="-0.97425">
        <ele>1158.66</ele>
        <time>2026-03-04T09:17:06Z</time>
      </trkpt>
      <trkpt lat="42.41289" lon="-0.97422">
        <ele>1161.93</ele>
        <time>2026-03-04T09:17:09Z</time>
      </trkpt>
      <trkpt lat="42.41309" lon="-0.97418">
        <ele>1161.78</ele>
        <time>2026-03-04T09:17:22Z</time>
      </trkpt>
      <trkpt lat="42.41329" lon="-0.97412">
        <ele>1160.11</ele>
        <time>2026-03-04T09:17:35Z</time>
      </trkpt>
      <trkpt lat="42.41354" lon="-0.97411">
        <ele>1157.81</ele>
        <time>2026-03-04T09:17:51Z</time>
      </trkpt>
      <trkpt lat="42.41368" lon="-0.97409">
        <ele>1156.45</ele>
        <time>2026-03-04T09:18:00Z</time>
      </trkpt>
      <trkpt lat="42.41379" lon="-0.97398">
        <ele>1155.82</ele>
        <time>2026-03-04T09:18:12Z</time>
      </trkpt>
      <trkpt lat="42.41381" lon="-0.9739">
        <ele>1153.92</ele>
        <time>2026-03-04T09:18:17Z</time>
      </trkpt>
      <trkpt lat="42.41385" lon="-0.9738">
        <ele>1154.63</ele>
        <time>2026-03-04T09:18:26Z</time>
      </trkpt>
      <trkpt lat="42.41396" lon="-0.97371">
        <ele>1157.87</ele>
        <time>2026-03-04T09:18:37Z</time>
      </trkpt>
      <trkpt lat="42.41404" lon="-0.97363">
        <ele>1159.28</ele>
        <time>2026-03-04T09:18:44Z</time>
      </trkpt>
      <trkpt lat="42.41424" lon="-0.97349">
        <ele>1158.97</ele>
        <time>2026-03-04T09:18:58Z</time>
      </trkpt>
      <trkpt lat="42.41443" lon="-0.97339">
        <ele>1155.07</ele>
        <time>2026-03-04T09:19:13Z</time>
      </trkpt>
      <trkpt lat="42.41446" lon="-0.97339">
        <ele>1154.42</ele>
        <time>2026-03-04T09:19:18Z</time>
      </trkpt>
      <trkpt lat="42.41463" lon="-0.97348">
        <ele>1151.32</ele>
        <time>2026-03-04T09:19:31Z</time>
      </trkpt>
      <trkpt lat="42.4148" lon="-0.97349">
        <ele>1152.37</ele>
        <time>2026-03-04T09:19:47Z</time>
      </trkpt>
      <trkpt lat="42.41489" lon="-0.9735">
        <ele>1151.92</ele>
        <time>2026-03-04T09:19:54Z</time>
      </trkpt>
      <trkpt lat="42.41492" lon="-0.97323">
        <ele>1153.28</ele>
        <time>2026-03-04T09:20:08Z</time>
      </trkpt>
      <trkpt lat="42.41496" lon="-0.97311">
        <ele>1153.71</ele>
        <time>2026-03-04T09:20:15Z</time>
      </trkpt>
      <trkpt lat="42.41497" lon="-0.97309">
        <ele>1152.67</ele>
        <time>2026-03-04T09:20:17Z</time>
      </trkpt>
      <trkpt lat="42.41498" lon="-0.97302">
        <ele>1153.57</ele>
        <time>2026-03-04T09:20:21Z</time>
      </trkpt>
      <trkpt lat="42.41513" lon="-0.97288">
        <ele>1152.44</ele>
        <time>2026-03-04T09:20:31Z</time>
      </trkpt>
      <trkpt lat="42.4153" lon="-0.97275">
        <ele>1151.01</ele>
        <time>2026-03-04T09:20:44Z</time>
      </trkpt>
      <trkpt lat="42.41542" lon="-0.97263">
        <ele>1149.67</ele>
        <time>2026-03-04T09:20:55Z</time>
      </trkpt>
      <trkpt lat="42.41552" lon="-0.97238">
        <ele>1145.84</ele>
        <time>2026-03-04T09:21:08Z</time>
      </trkpt>
      <trkpt lat="42.41554" lon="-0.97233">
        <ele>1145.4</ele>
        <time>2026-03-04T09:21:11Z</time>
      </trkpt>
      <trkpt lat="42.41555" lon="-0.9723">
        <ele>1145.28</ele>
        <time>2026-03-04T09:21:13Z</time>
      </trkpt>
      <trkpt lat="42.41557" lon="-0.97224">
        <ele>1144.97</ele>
        <time>2026-03-04T09:21:16Z</time>
      </trkpt>
      <trkpt lat="42.41559" lon="-0.97221">
        <ele>1143.02</ele>
        <time>2026-03-04T09:21:19Z</time>
      </trkpt>
      <trkpt lat="42.41564" lon="-0.97211">
        <ele>1143.01</ele>
        <time>2026-03-04T09:21:25Z</time>
      </trkpt>
      <trkpt lat="42.41568" lon="-0.97204">
        <ele>1141.78</ele>
        <time>2026-03-04T09:21:30Z</time>
      </trkpt>
      <trkpt lat="42.41572" lon="-0.97197">
        <ele>1140.41</ele>
        <time>2026-03-04T09:21:34Z</time>
      </trkpt>
      <trkpt lat="42.41591" lon="-0.97173">
        <ele>1137.24</ele>
        <time>2026-03-04T09:21:49Z</time>
      </trkpt>
      <trkpt lat="42.41593" lon="-0.97171">
        <ele>1137.49</ele>
        <time>2026-03-04T09:21:51Z</time>
      </trkpt>
      <trkpt lat="42.41604" lon="-0.97156">
        <ele>1134.24</ele>
        <time>2026-03-04T09:22:05Z</time>
      </trkpt>
      <trkpt lat="42.41609" lon="-0.97155">
        <ele>1133.26</ele>
        <time>2026-03-04T09:22:09Z</time>
      </trkpt>
      <trkpt lat="42.41617" lon="-0.97153">
        <ele>1131.57</ele>
        <time>2026-03-04T09:22:14Z</time>
      </trkpt>
      <trkpt lat="42.41643" lon="-0.97143">
        <ele>1128.58</ele>
        <time>2026-03-04T09:22:26Z</time>
      </trkpt>
      <trkpt lat="42.41648" lon="-0.97139">
        <ele>1128.6</ele>
        <time>2026-03-04T09:22:30Z</time>
      </trkpt>
      <trkpt lat="42.41657" lon="-0.97134">
        <ele>1127.18</ele>
        <time>2026-03-04T09:22:37Z</time>
      </trkpt>
      <trkpt lat="42.41676" lon="-0.97126">
        <ele>1123.92</ele>
        <time>2026-03-04T09:22:49Z</time>
      </trkpt>
      <trkpt lat="42.41686" lon="-0.97117">
        <ele>1121.51</ele>
        <time>2026-03-04T09:22:57Z</time>
      </trkpt>
      <trkpt lat="42.41698" lon="-0.971">
        <ele>1118.78</ele>
        <time>2026-03-04T09:23:07Z</time>
      </trkpt>
      <trkpt lat="42.417" lon="-0.97094">
        <ele>1117.76</ele>
        <time>2026-03-04T09:23:10Z</time>
      </trkpt>
      <trkpt lat="42.41702" lon="-0.97088">
        <ele>1117.62</ele>
        <time>2026-03-04T09:23:14Z</time>
      </trkpt>
      <trkpt lat="42.4171" lon="-0.97076">
        <ele>1114.45</ele>
        <time>2026-03-04T09:23:24Z</time>
      </trkpt>
      <trkpt lat="42.41724" lon="-0.97066">
        <ele>1113.89</ele>
        <time>2026-03-04T09:23:33Z</time>
      </trkpt>
      <trkpt lat="42.41734" lon="-0.97062">
        <ele>1113.29</ele>
        <time>2026-03-04T09:23:37Z</time>
      </trkpt>
      <trkpt lat="42.41742" lon="-0.97062">
        <ele>1112.66</ele>
        <time>2026-03-04T09:23:43Z</time>
      </trkpt>
      <trkpt lat="42.41763" lon="-0.9705">
        <ele>1110.93</ele>
        <time>2026-03-04T09:23:56Z</time>
      </trkpt>
      <trkpt lat="42.4177" lon="-0.97047">
        <ele>1109.96</ele>
        <time>2026-03-04T09:24:01Z</time>
      </trkpt>
      <trkpt lat="42.41772" lon="-0.97045">
        <ele>1109.75</ele>
        <time>2026-03-04T09:24:19Z</time>
      </trkpt>
      <trkpt lat="42.41777" lon="-0.97041">
        <ele>1109.33</ele>
        <time>2026-03-04T09:24:25Z</time>
      </trkpt>
      <trkpt lat="42.41788" lon="-0.97035">
        <ele>1107.72</ele>
        <time>2026-03-04T09:24:33Z</time>
      </trkpt>
      <trkpt lat="42.41794" lon="-0.97023">
        <ele>1107.15</ele>
        <time>2026-03-04T09:24:42Z</time>
      </trkpt>
      <trkpt lat="42.41796" lon="-0.97011">
        <ele>1108.18</ele>
        <time>2026-03-04T09:24:50Z</time>
      </trkpt>
      <trkpt lat="42.41803" lon="-0.96988">
        <ele>1108.67</ele>
        <time>2026-03-04T09:25:04Z</time>
      </trkpt>
      <trkpt lat="42.4181" lon="-0.96984">
        <ele>1109.36</ele>
        <time>2026-03-04T09:25:20Z</time>
      </trkpt>
      <trkpt lat="42.41815" lon="-0.96984">
        <ele>1109.18</ele>
        <time>2026-03-04T09:25:44Z</time>
      </trkpt>
      <trkpt lat="42.41816" lon="-0.96986">
        <ele>1109.14</ele>
        <time>2026-03-04T09:26:05Z</time>
      </trkpt>
      <trkpt lat="42.41817" lon="-0.96986">
        <ele>1108.57</ele>
        <time>2026-03-04T09:26:09Z</time>
      </trkpt>
      <trkpt lat="42.41819" lon="-0.96985">
        <ele>1108.86</ele>
        <time>2026-03-04T09:26:12Z</time>
      </trkpt>
      <trkpt lat="42.41822" lon="-0.96983">
        <ele>1108.94</ele>
        <time>2026-03-04T09:26:27Z</time>
      </trkpt>
      <trkpt lat="42.41822" lon="-0.96982">
        <ele>1109.23</ele>
        <time>2026-03-04T09:26:28Z</time>
      </trkpt>
      <trkpt lat="42.41822" lon="-0.96979">
        <ele>1109.59</ele>
        <time>2026-03-04T09:26:37Z</time>
      </trkpt>
      <trkpt lat="42.41817" lon="-0.9698">
        <ele>1109.61</ele>
        <time>2026-03-04T09:26:52Z</time>
      </trkpt>
      <trkpt lat="42.41815" lon="-0.96973">
        <ele>1110.08</ele>
        <time>2026-03-04T09:27:06Z</time>
      </trkpt>
      <trkpt lat="42.41816" lon="-0.96973">
        <ele>1109.47</ele>
        <time>2026-03-04T09:27:28Z</time>
      </trkpt>
      <trkpt lat="42.41817" lon="-0.96972">
        <ele>1109.76</ele>
        <time>2026-03-04T09:27:49Z</time>
      </trkpt>
      <trkpt lat="42.41815" lon="-0.9697">
        <ele>1109.81</ele>
        <time>2026-03-04T09:28:00Z</time>
      </trkpt>
      <trkpt lat="42.41819" lon="-0.9696">
        <ele>1108.24</ele>
        <time>2026-03-04T09:28:07Z</time>
      </trkpt>
      <trkpt lat="42.4182" lon="-0.96959">
        <ele>1108.24</ele>
        <time>2026-03-04T09:28:08Z</time>
      </trkpt>
      <trkpt lat="42.41832" lon="-0.9695">
        <ele>1107.07</ele>
        <time>2026-03-04T09:28:17Z</time>
      </trkpt>
      <trkpt lat="42.41833" lon="-0.96948">
        <ele>1107.11</ele>
        <time>2026-03-04T09:28:19Z</time>
      </trkpt>
      <trkpt lat="42.41833" lon="-0.96936">
        <ele>1103.56</ele>
        <time>2026-03-04T09:28:28Z</time>
      </trkpt>
      <trkpt lat="42.41833" lon="-0.96934">
        <ele>1104.55</ele>
        <time>2026-03-04T09:28:29Z</time>
      </trkpt>
      <trkpt lat="42.41836" lon="-0.96917">
        <ele>1100.88</ele>
        <time>2026-03-04T09:28:39Z</time>
      </trkpt>
      <trkpt lat="42.41841" lon="-0.96908">
        <ele>1100.07</ele>
        <time>2026-03-04T09:28:51Z</time>
      </trkpt>
      <trkpt lat="42.41841" lon="-0.96904">
        <ele>1098.49</ele>
        <time>2026-03-04T09:28:54Z</time>
      </trkpt>
      <trkpt lat="42.41843" lon="-0.96894">
        <ele>1097.44</ele>
        <time>2026-03-04T09:28:59Z</time>
      </trkpt>
      <trkpt lat="42.41844" lon="-0.96887">
        <ele>1095.36</ele>
        <time>2026-03-04T09:29:05Z</time>
      </trkpt>
      <trkpt lat="42.41844" lon="-0.96885">
        <ele>1095.03</ele>
        <time>2026-03-04T09:29:07Z</time>
      </trkpt>
      <trkpt lat="42.41844" lon="-0.96882">
        <ele>1094.13</ele>
        <time>2026-03-04T09:29:09Z</time>
      </trkpt>
      <trkpt lat="42.41842" lon="-0.96878">
        <ele>1091.97</ele>
        <time>2026-03-04T09:29:13Z</time>
      </trkpt>
      <trkpt lat="42.41837" lon="-0.96864">
        <ele>1089.12</ele>
        <time>2026-03-04T09:29:20Z</time>
      </trkpt>
      <trkpt lat="42.41838" lon="-0.96858">
        <ele>1087.54</ele>
        <time>2026-03-04T09:29:24Z</time>
      </trkpt>
      <trkpt lat="42.41838" lon="-0.96846">
        <ele>1083.52</ele>
        <time>2026-03-04T09:29:33Z</time>
      </trkpt>
      <trkpt lat="42.41836" lon="-0.96839">
        <ele>1081.38</ele>
        <time>2026-03-04T09:29:39Z</time>
      </trkpt>
      <trkpt lat="42.41836" lon="-0.96837">
        <ele>1080.25</ele>
        <time>2026-03-04T09:29:40Z</time>
      </trkpt>
      <trkpt lat="42.41838" lon="-0.96824">
        <ele>1078.15</ele>
        <time>2026-03-04T09:29:47Z</time>
      </trkpt>
      <trkpt lat="42.41838" lon="-0.96821">
        <ele>1077.23</ele>
        <time>2026-03-04T09:29:49Z</time>
      </trkpt>
      <trkpt lat="42.41834" lon="-0.96805">
        <ele>1076.89</ele>
        <time>2026-03-04T09:30:01Z</time>
      </trkpt>
      <trkpt lat="42.41829" lon="-0.96802">
        <ele>1073.79</ele>
        <time>2026-03-04T09:30:07Z</time>
      </trkpt>
      <trkpt lat="42.41819" lon="-0.96791">
        <ele>1071.51</ele>
        <time>2026-03-04T09:30:18Z</time>
      </trkpt>
      <trkpt lat="42.41818" lon="-0.96789">
        <ele>1071.38</ele>
        <time>2026-03-04T09:30:19Z</time>
      </trkpt>
      <trkpt lat="42.41812" lon="-0.96776">
        <ele>1068.22</ele>
        <time>2026-03-04T09:30:27Z</time>
      </trkpt>
      <trkpt lat="42.41807" lon="-0.96767">
        <ele>1065.69</ele>
        <time>2026-03-04T09:30:34Z</time>
      </trkpt>
      <trkpt lat="42.41803" lon="-0.96758">
        <ele>1063.16</ele>
        <time>2026-03-04T09:30:39Z</time>
      </trkpt>
      <trkpt lat="42.41799" lon="-0.96745">
        <ele>1059.41</ele>
        <time>2026-03-04T09:30:49Z</time>
      </trkpt>
      <trkpt lat="42.41792" lon="-0.96742">
        <ele>1056.75</ele>
        <time>2026-03-04T09:30:56Z</time>
      </trkpt>
      <trkpt lat="42.41781" lon="-0.96749">
        <ele>1055.99</ele>
        <time>2026-03-04T09:31:06Z</time>
      </trkpt>
      <trkpt lat="42.41777" lon="-0.9675">
        <ele>1054.28</ele>
        <time>2026-03-04T09:31:09Z</time>
      </trkpt>
      <trkpt lat="42.41775" lon="-0.96747">
        <ele>1053.16</ele>
        <time>2026-03-04T09:31:12Z</time>
      </trkpt>
      <trkpt lat="42.41768" lon="-0.96739">
        <ele>1049.27</ele>
        <time>2026-03-04T09:31:21Z</time>
      </trkpt>
      <trkpt lat="42.41766" lon="-0.96734">
        <ele>1047.22</ele>
        <time>2026-03-04T09:31:24Z</time>
      </trkpt>
      <trkpt lat="42.41767" lon="-0.96726">
        <ele>1045.87</ele>
        <time>2026-03-04T09:31:36Z</time>
      </trkpt>
      <trkpt lat="42.41768" lon="-0.96727">
        <ele>1046.02</ele>
        <time>2026-03-04T09:32:05Z</time>
      </trkpt>
      <trkpt lat="42.41766" lon="-0.96719">
        <ele>1045.34</ele>
        <time>2026-03-04T09:32:31Z</time>
      </trkpt>
      <trkpt lat="42.41773" lon="-0.96698">
        <ele>1042.02</ele>
        <time>2026-03-04T09:32:50Z</time>
      </trkpt>
      <trkpt lat="42.41779" lon="-0.9669">
        <ele>1039.52</ele>
        <time>2026-03-04T09:33:09Z</time>
      </trkpt>
      <trkpt lat="42.4178" lon="-0.96681">
        <ele>1038.61</ele>
        <time>2026-03-04T09:33:17Z</time>
      </trkpt>
      <trkpt lat="42.41778" lon="-0.96673">
        <ele>1039.85</ele>
        <time>2026-03-04T09:33:25Z</time>
      </trkpt>
      <trkpt lat="42.41777" lon="-0.96671">
        <ele>1040.22</ele>
        <time>2026-03-04T09:33:27Z</time>
      </trkpt>
      <trkpt lat="42.41774" lon="-0.96661">
        <ele>1042.32</ele>
        <time>2026-03-04T09:33:37Z</time>
      </trkpt>
      <trkpt lat="42.41769" lon="-0.96649">
        <ele>1044.62</ele>
        <time>2026-03-04T09:33:45Z</time>
      </trkpt>
      <trkpt lat="42.41752" lon="-0.96638">
        <ele>1043.77</ele>
        <time>2026-03-04T09:34:02Z</time>
      </trkpt>
      <trkpt lat="42.41737" lon="-0.96629">
        <ele>1043.35</ele>
        <time>2026-03-04T09:34:18Z</time>
      </trkpt>
      <trkpt lat="42.41728" lon="-0.96622">
        <ele>1043.02</ele>
        <time>2026-03-04T09:34:26Z</time>
      </trkpt>
      <trkpt lat="42.4171" lon="-0.96597">
        <ele>1039.62</ele>
        <time>2026-03-04T09:34:46Z</time>
      </trkpt>
      <trkpt lat="42.41709" lon="-0.96591">
        <ele>1038.7</ele>
        <time>2026-03-04T09:34:50Z</time>
      </trkpt>
      <trkpt lat="42.41702" lon="-0.96584">
        <ele>1037.21</ele>
        <time>2026-03-04T09:34:53Z</time>
      </trkpt>
      <trkpt lat="42.41688" lon="-0.96568">
        <ele>1033.89</ele>
        <time>2026-03-04T09:35:00Z</time>
      </trkpt>
      <trkpt lat="42.41685" lon="-0.96562">
        <ele>1033.74</ele>
        <time>2026-03-04T09:35:02Z</time>
      </trkpt>
      <trkpt lat="42.41681" lon="-0.96551">
        <ele>1033.14</ele>
        <time>2026-03-04T09:35:07Z</time>
      </trkpt>
      <trkpt lat="42.41682" lon="-0.96548">
        <ele>1031.84</ele>
        <time>2026-03-04T09:35:09Z</time>
      </trkpt>
      <trkpt lat="42.41685" lon="-0.96538">
        <ele>1030.16</ele>
        <time>2026-03-04T09:35:14Z</time>
      </trkpt>
      <trkpt lat="42.41686" lon="-0.96528">
        <ele>1027.96</ele>
        <time>2026-03-04T09:35:21Z</time>
      </trkpt>
      <trkpt lat="42.41686" lon="-0.96522">
        <ele>1026.77</ele>
        <time>2026-03-04T09:35:24Z</time>
      </trkpt>
      <trkpt lat="42.41683" lon="-0.96511">
        <ele>1026.2</ele>
        <time>2026-03-04T09:35:30Z</time>
      </trkpt>
      <trkpt lat="42.41684" lon="-0.96503">
        <ele>1024.25</ele>
        <time>2026-03-04T09:35:35Z</time>
      </trkpt>
      <trkpt lat="42.41681" lon="-0.96495">
        <ele>1023.51</ele>
        <time>2026-03-04T09:35:38Z</time>
      </trkpt>
      <trkpt lat="42.41682" lon="-0.96488">
        <ele>1022.12</ele>
        <time>2026-03-04T09:35:41Z</time>
      </trkpt>
      <trkpt lat="42.41685" lon="-0.96474">
        <ele>1019.35</ele>
        <time>2026-03-04T09:35:50Z</time>
      </trkpt>
      <trkpt lat="42.41687" lon="-0.96472">
        <ele>1018.12</ele>
        <time>2026-03-04T09:35:52Z</time>
      </trkpt>
      <trkpt lat="42.41688" lon="-0.96471">
        <ele>1018.22</ele>
        <time>2026-03-04T09:35:53Z</time>
      </trkpt>
      <trkpt lat="42.41689" lon="-0.9647">
        <ele>1018.17</ele>
        <time>2026-03-04T09:35:55Z</time>
      </trkpt>
      <trkpt lat="42.41684" lon="-0.9646">
        <ele>1014.23</ele>
        <time>2026-03-04T09:36:03Z</time>
      </trkpt>
      <trkpt lat="42.41685" lon="-0.96459">
        <ele>1013.54</ele>
        <time>2026-03-04T09:36:05Z</time>
      </trkpt>
      <trkpt lat="42.41677" lon="-0.9645">
        <ele>1012.74</ele>
        <time>2026-03-04T09:36:14Z</time>
      </trkpt>
      <trkpt lat="42.41666" lon="-0.96445">
        <ele>1009.13</ele>
        <time>2026-03-04T09:36:25Z</time>
      </trkpt>
      <trkpt lat="42.4166" lon="-0.9644">
        <ele>1007.22</ele>
        <time>2026-03-04T09:36:29Z</time>
      </trkpt>
      <trkpt lat="42.41656" lon="-0.96438">
        <ele>1006.09</ele>
        <time>2026-03-04T09:36:33Z</time>
      </trkpt>
      <trkpt lat="42.41652" lon="-0.96441">
        <ele>1004.41</ele>
        <time>2026-03-04T09:36:37Z</time>
      </trkpt>
      <trkpt lat="42.41648" lon="-0.96441">
        <ele>1003.19</ele>
        <time>2026-03-04T09:36:40Z</time>
      </trkpt>
      <trkpt lat="42.41636" lon="-0.96439">
        <ele>999.86</ele>
        <time>2026-03-04T09:36:51Z</time>
      </trkpt>
      <trkpt lat="42.41627" lon="-0.96436">
        <ele>997.12</ele>
        <time>2026-03-04T09:36:59Z</time>
      </trkpt>
      <trkpt lat="42.41617" lon="-0.96431">
        <ele>994.1</ele>
        <time>2026-03-04T09:37:07Z</time>
      </trkpt>
      <trkpt lat="42.41612" lon="-0.96432">
        <ele>992.87</ele>
        <time>2026-03-04T09:37:11Z</time>
      </trkpt>
      <trkpt lat="42.41598" lon="-0.96423">
        <ele>989.73</ele>
        <time>2026-03-04T09:37:22Z</time>
      </trkpt>
      <trkpt lat="42.41591" lon="-0.96415">
        <ele>987.46</ele>
        <time>2026-03-04T09:37:30Z</time>
      </trkpt>
      <trkpt lat="42.41578" lon="-0.96395">
        <ele>984.19</ele>
        <time>2026-03-04T09:37:47Z</time>
      </trkpt>
      <trkpt lat="42.41577" lon="-0.96394">
        <ele>984.35</ele>
        <time>2026-03-04T09:37:49Z</time>
      </trkpt>
      <trkpt lat="42.41574" lon="-0.96392">
        <ele>984.27</ele>
        <time>2026-03-04T09:37:52Z</time>
      </trkpt>
      <trkpt lat="42.41571" lon="-0.96388">
        <ele>982.6</ele>
        <time>2026-03-04T09:37:55Z</time>
      </trkpt>
      <trkpt lat="42.41567" lon="-0.9638">
        <ele>981.74</ele>
        <time>2026-03-04T09:37:58Z</time>
      </trkpt>
      <trkpt lat="42.41565" lon="-0.96372">
        <ele>981.45</ele>
        <time>2026-03-04T09:38:01Z</time>
      </trkpt>
      <trkpt lat="42.41565" lon="-0.96369">
        <ele>980.28</ele>
        <time>2026-03-04T09:38:03Z</time>
      </trkpt>
      <trkpt lat="42.41565" lon="-0.96357">
        <ele>978.59</ele>
        <time>2026-03-04T09:38:09Z</time>
      </trkpt>
      <trkpt lat="42.41565" lon="-0.96349">
        <ele>977.71</ele>
        <time>2026-03-04T09:38:13Z</time>
      </trkpt>
      <trkpt lat="42.41567" lon="-0.96342">
        <ele>977.9</ele>
        <time>2026-03-04T09:38:18Z</time>
      </trkpt>
      <trkpt lat="42.41566" lon="-0.96334">
        <ele>975.08</ele>
        <time>2026-03-04T09:38:26Z</time>
      </trkpt>
      <trkpt lat="42.4156" lon="-0.96325">
        <ele>972.93</ele>
        <time>2026-03-04T09:38:31Z</time>
      </trkpt>
      <trkpt lat="42.41559" lon="-0.96317">
        <ele>971.28</ele>
        <time>2026-03-04T09:38:35Z</time>
      </trkpt>
      <trkpt lat="42.41557" lon="-0.96311">
        <ele>969.97</ele>
        <time>2026-03-04T09:38:38Z</time>
      </trkpt>
      <trkpt lat="42.41557" lon="-0.96307">
        <ele>968.79</ele>
        <time>2026-03-04T09:38:40Z</time>
      </trkpt>
      <trkpt lat="42.41557" lon="-0.96301">
        <ele>969.29</ele>
        <time>2026-03-04T09:38:43Z</time>
      </trkpt>
      <trkpt lat="42.41555" lon="-0.96291">
        <ele>969.04</ele>
        <time>2026-03-04T09:38:48Z</time>
      </trkpt>
      <trkpt lat="42.41554" lon="-0.96281">
        <ele>967.93</ele>
        <time>2026-03-04T09:38:53Z</time>
      </trkpt>
      <trkpt lat="42.41558" lon="-0.96276">
        <ele>966.57</ele>
        <time>2026-03-04T09:38:57Z</time>
      </trkpt>
      <trkpt lat="42.41561" lon="-0.96264">
        <ele>963.35</ele>
        <time>2026-03-04T09:39:06Z</time>
      </trkpt>
      <trkpt lat="42.41554" lon="-0.96243">
        <ele>960.84</ele>
        <time>2026-03-04T09:39:16Z</time>
      </trkpt>
      <trkpt lat="42.41557" lon="-0.96238">
        <ele>960.93</ele>
        <time>2026-03-04T09:39:19Z</time>
      </trkpt>
      <trkpt lat="42.41568" lon="-0.96233">
        <ele>961.42</ele>
        <time>2026-03-04T09:39:30Z</time>
      </trkpt>
      <trkpt lat="42.41572" lon="-0.96231">
        <ele>961.69</ele>
        <time>2026-03-04T09:39:33Z</time>
      </trkpt>
      <trkpt lat="42.41587" lon="-0.96221">
        <ele>959.82</ele>
        <time>2026-03-04T09:39:45Z</time>
      </trkpt>
      <trkpt lat="42.4159" lon="-0.96217">
        <ele>959.35</ele>
        <time>2026-03-04T09:39:49Z</time>
      </trkpt>
      <trkpt lat="42.41594" lon="-0.96216">
        <ele>958.99</ele>
        <time>2026-03-04T09:39:52Z</time>
      </trkpt>
      <trkpt lat="42.41599" lon="-0.96216">
        <ele>958.31</ele>
        <time>2026-03-04T09:39:55Z</time>
      </trkpt>
      <trkpt lat="42.4161" lon="-0.96213">
        <ele>956.15</ele>
        <time>2026-03-04T09:40:03Z</time>
      </trkpt>
      <trkpt lat="42.41618" lon="-0.96206">
        <ele>953.55</ele>
        <time>2026-03-04T09:40:12Z</time>
      </trkpt>
      <trkpt lat="42.4162" lon="-0.96204">
        <ele>952.21</ele>
        <time>2026-03-04T09:40:14Z</time>
      </trkpt>
      <trkpt lat="42.41633" lon="-0.96196">
        <ele>948.96</ele>
        <time>2026-03-04T09:40:24Z</time>
      </trkpt>
      <trkpt lat="42.41634" lon="-0.96195">
        <ele>948.79</ele>
        <time>2026-03-04T09:40:25Z</time>
      </trkpt>
      <trkpt lat="42.41634" lon="-0.96185">
        <ele>947.75</ele>
        <time>2026-03-04T09:40:29Z</time>
      </trkpt>
      <trkpt lat="42.41634" lon="-0.96182">
        <ele>947.58</ele>
        <time>2026-03-04T09:40:30Z</time>
      </trkpt>
      <trkpt lat="42.41635" lon="-0.96179">
        <ele>946.3</ele>
        <time>2026-03-04T09:40:32Z</time>
      </trkpt>
      <trkpt lat="42.41651" lon="-0.96165">
        <ele>944.21</ele>
        <time>2026-03-04T09:40:45Z</time>
      </trkpt>
      <trkpt lat="42.41651" lon="-0.9616">
        <ele>946.02</ele>
        <time>2026-03-04T09:40:59Z</time>
      </trkpt>
      <trkpt lat="42.41631" lon="-0.96151">
        <ele>945.83</ele>
        <time>2026-03-04T09:41:19Z</time>
      </trkpt>
      <trkpt lat="42.41624" lon="-0.96144">
        <ele>945.98</ele>
        <time>2026-03-04T09:41:22Z</time>
      </trkpt>
      <trkpt lat="42.41617" lon="-0.96138">
        <ele>946.12</ele>
        <time>2026-03-04T09:41:27Z</time>
      </trkpt>
      <trkpt lat="42.4161" lon="-0.96132">
        <ele>946.11</ele>
        <time>2026-03-04T09:41:32Z</time>
      </trkpt>
      <trkpt lat="42.41606" lon="-0.96127">
        <ele>947.19</ele>
        <time>2026-03-04T09:41:36Z</time>
      </trkpt>
      <trkpt lat="42.41598" lon="-0.96123">
        <ele>946.64</ele>
        <time>2026-03-04T09:41:41Z</time>
      </trkpt>
      <trkpt lat="42.41581" lon="-0.96116">
        <ele>949.83</ele>
        <time>2026-03-04T09:41:56Z</time>
      </trkpt>
      <trkpt lat="42.41571" lon="-0.96108">
        <ele>951.87</ele>
        <time>2026-03-04T09:42:05Z</time>
      </trkpt>
      <trkpt lat="42.41567" lon="-0.96103">
        <ele>953.02</ele>
        <time>2026-03-04T09:42:09Z</time>
      </trkpt>
      <trkpt lat="42.41553" lon="-0.96089">
        <ele>952.51</ele>
        <time>2026-03-04T09:42:23Z</time>
      </trkpt>
      <trkpt lat="42.41552" lon="-0.96089">
        <ele>952.5</ele>
        <time>2026-03-04T09:42:24Z</time>
      </trkpt>
      <trkpt lat="42.41547" lon="-0.96088">
        <ele>952.39</ele>
        <time>2026-03-04T09:42:33Z</time>
      </trkpt>
      <trkpt lat="42.41531" lon="-0.96073">
        <ele>950.95</ele>
        <time>2026-03-04T09:42:48Z</time>
      </trkpt>
      <trkpt lat="42.41518" lon="-0.96063">
        <ele>951.3</ele>
        <time>2026-03-04T09:43:04Z</time>
      </trkpt>
      <trkpt lat="42.41509" lon="-0.96041">
        <ele>952.75</ele>
        <time>2026-03-04T09:43:20Z</time>
      </trkpt>
      <trkpt lat="42.41498" lon="-0.96021">
        <ele>951.93</ele>
        <time>2026-03-04T09:43:31Z</time>
      </trkpt>
      <trkpt lat="42.41487" lon="-0.96005">
        <ele>949.54</ele>
        <time>2026-03-04T09:43:49Z</time>
      </trkpt>
      <trkpt lat="42.41479" lon="-0.95998">
        <ele>948.88</ele>
        <time>2026-03-04T09:43:56Z</time>
      </trkpt>
      <trkpt lat="42.41454" lon="-0.95971">
        <ele>946.54</ele>
        <time>2026-03-04T09:44:18Z</time>
      </trkpt>
      <trkpt lat="42.41435" lon="-0.9594">
        <ele>943.84</ele>
        <time>2026-03-04T09:44:34Z</time>
      </trkpt>
      <trkpt lat="42.41426" lon="-0.95918">
        <ele>941.79</ele>
        <time>2026-03-04T09:44:45Z</time>
      </trkpt>
      <trkpt lat="42.41415" lon="-0.95894">
        <ele>940.08</ele>
        <time>2026-03-04T09:44:55Z</time>
      </trkpt>
      <trkpt lat="42.4141" lon="-0.95864">
        <ele>938.97</ele>
        <time>2026-03-04T09:45:11Z</time>
      </trkpt>
      <trkpt lat="42.41407" lon="-0.95848">
        <ele>939.26</ele>
        <time>2026-03-04T09:45:39Z</time>
      </trkpt>
      <trkpt lat="42.41404" lon="-0.95846">
        <ele>935.62</ele>
        <time>2026-03-04T09:45:59Z</time>
      </trkpt>
      <trkpt lat="42.41404" lon="-0.95847">
        <ele>935.46</ele>
        <time>2026-03-04T09:46:00Z</time>
      </trkpt>
      <trkpt lat="42.414" lon="-0.95842">
        <ele>934.55</ele>
        <time>2026-03-04T09:46:08Z</time>
      </trkpt>
      <trkpt lat="42.41393" lon="-0.95835">
        <ele>933.13</ele>
        <time>2026-03-04T09:46:15Z</time>
      </trkpt>
      <trkpt lat="42.41379" lon="-0.9582">
        <ele>929.25</ele>
        <time>2026-03-04T09:46:29Z</time>
      </trkpt>
      <trkpt lat="42.41377" lon="-0.95816">
        <ele>928.46</ele>
        <time>2026-03-04T09:46:32Z</time>
      </trkpt>
      <trkpt lat="42.41376" lon="-0.95809">
        <ele>927.18</ele>
        <time>2026-03-04T09:46:39Z</time>
      </trkpt>
      <trkpt lat="42.41372" lon="-0.95803">
        <ele>926.52</ele>
        <time>2026-03-04T09:46:43Z</time>
      </trkpt>
      <trkpt lat="42.41358" lon="-0.95785">
        <ele>927.42</ele>
        <time>2026-03-04T09:47:07Z</time>
      </trkpt>
      <trkpt lat="42.41349" lon="-0.95773">
        <ele>926.84</ele>
        <time>2026-03-04T09:47:32Z</time>
      </trkpt>
      <trkpt lat="42.41349" lon="-0.95775">
        <ele>926.42</ele>
        <time>2026-03-04T09:47:50Z</time>
      </trkpt>
      <trkpt lat="42.41338" lon="-0.9575">
        <ele>927.79</ele>
        <time>2026-03-04T09:48:07Z</time>
      </trkpt>
      <trkpt lat="42.41334" lon="-0.95743">
        <ele>928.49</ele>
        <time>2026-03-04T09:48:10Z</time>
      </trkpt>
      <trkpt lat="42.41323" lon="-0.95715">
        <ele>928.88</ele>
        <time>2026-03-04T09:48:22Z</time>
      </trkpt>
      <trkpt lat="42.41318" lon="-0.95704">
        <ele>927.32</ele>
        <time>2026-03-04T09:48:30Z</time>
      </trkpt>
      <trkpt lat="42.41315" lon="-0.95677">
        <ele>923.76</ele>
        <time>2026-03-04T09:48:44Z</time>
      </trkpt>
      <trkpt lat="42.41304" lon="-0.95651">
        <ele>921.73</ele>
        <time>2026-03-04T09:49:00Z</time>
      </trkpt>
      <trkpt lat="42.41295" lon="-0.95635">
        <ele>918.52</ele>
        <time>2026-03-04T09:49:12Z</time>
      </trkpt>
      <trkpt lat="42.41289" lon="-0.95623">
        <ele>914.95</ele>
        <time>2026-03-04T09:49:23Z</time>
      </trkpt>
      <trkpt lat="42.41289" lon="-0.95622">
        <ele>914.95</ele>
        <time>2026-03-04T09:49:24Z</time>
      </trkpt>
      <trkpt lat="42.4128" lon="-0.95614">
        <ele>914.02</ele>
        <time>2026-03-04T09:49:48Z</time>
      </trkpt>
      <trkpt lat="42.41275" lon="-0.95613">
        <ele>913.18</ele>
        <time>2026-03-04T09:49:52Z</time>
      </trkpt>
      <trkpt lat="42.41272" lon="-0.95616">
        <ele>912.19</ele>
        <time>2026-03-04T09:49:55Z</time>
      </trkpt>
      <trkpt lat="42.41268" lon="-0.95619">
        <ele>910.26</ele>
        <time>2026-03-04T09:49:59Z</time>
      </trkpt>
      <trkpt lat="42.41261" lon="-0.95622">
        <ele>907.18</ele>
        <time>2026-03-04T09:50:07Z</time>
      </trkpt>
      <trkpt lat="42.41258" lon="-0.95617">
        <ele>904.73</ele>
        <time>2026-03-04T09:50:13Z</time>
      </trkpt>
      <trkpt lat="42.41256" lon="-0.95615">
        <ele>904.16</ele>
        <time>2026-03-04T09:50:15Z</time>
      </trkpt>
      <trkpt lat="42.41249" lon="-0.95618">
        <ele>901.17</ele>
        <time>2026-03-04T09:50:21Z</time>
      </trkpt>
      <trkpt lat="42.41245" lon="-0.95623">
        <ele>900.32</ele>
        <time>2026-03-04T09:50:26Z</time>
      </trkpt>
      <trkpt lat="42.41246" lon="-0.95637">
        <ele>897.02</ele>
        <time>2026-03-04T09:50:39Z</time>
      </trkpt>
      <trkpt lat="42.41243" lon="-0.95639">
        <ele>895.77</ele>
        <time>2026-03-04T09:50:43Z</time>
      </trkpt>
      <trkpt lat="42.41241" lon="-0.95646">
        <ele>892.56</ele>
        <time>2026-03-04T09:50:57Z</time>
      </trkpt>
      <trkpt lat="42.41241" lon="-0.95648">
        <ele>890.73</ele>
        <time>2026-03-04T09:51:00Z</time>
      </trkpt>
      <trkpt lat="42.4124" lon="-0.95653">
        <ele>887.77</ele>
        <time>2026-03-04T09:51:08Z</time>
      </trkpt>
      <trkpt lat="42.41237" lon="-0.95652">
        <ele>886.56</ele>
        <time>2026-03-04T09:51:13Z</time>
      </trkpt>
      <trkpt lat="42.41229" lon="-0.95637">
        <ele>882.36</ele>
        <time>2026-03-04T09:51:24Z</time>
      </trkpt>
      <trkpt lat="42.41228" lon="-0.95636">
        <ele>882.28</ele>
        <time>2026-03-04T09:51:25Z</time>
      </trkpt>
      <trkpt lat="42.41223" lon="-0.9563">
        <ele>880.89</ele>
        <time>2026-03-04T09:51:29Z</time>
      </trkpt>
      <trkpt lat="42.4122" lon="-0.95624">
        <ele>880.48</ele>
        <time>2026-03-04T09:51:32Z</time>
      </trkpt>
      <trkpt lat="42.4121" lon="-0.95605">
        <ele>876.28</ele>
        <time>2026-03-04T09:51:43Z</time>
      </trkpt>
      <trkpt lat="42.41201" lon="-0.95595">
        <ele>874.34</ele>
        <time>2026-03-04T09:51:52Z</time>
      </trkpt>
      <trkpt lat="42.412" lon="-0.95593">
        <ele>873.71</ele>
        <time>2026-03-04T09:51:53Z</time>
      </trkpt>
      <trkpt lat="42.41189" lon="-0.95584">
        <ele>870.19</ele>
        <time>2026-03-04T09:52:05Z</time>
      </trkpt>
      <trkpt lat="42.41185" lon="-0.95579">
        <ele>867.2</ele>
        <time>2026-03-04T09:52:14Z</time>
      </trkpt>
      <trkpt lat="42.4118" lon="-0.9557">
        <ele>864.13</ele>
        <time>2026-03-04T09:52:24Z</time>
      </trkpt>
      <trkpt lat="42.41174" lon="-0.95559">
        <ele>860.81</ele>
        <time>2026-03-04T09:52:37Z</time>
      </trkpt>
      <trkpt lat="42.41175" lon="-0.95553">
        <ele>858.38</ele>
        <time>2026-03-04T09:52:42Z</time>
      </trkpt>
      <trkpt lat="42.41169" lon="-0.95548">
        <ele>854.58</ele>
        <time>2026-03-04T09:52:52Z</time>
      </trkpt>
      <trkpt lat="42.41165" lon="-0.95545">
        <ele>851.57</ele>
        <time>2026-03-04T09:53:03Z</time>
      </trkpt>
      <trkpt lat="42.41164" lon="-0.9554">
        <ele>849.81</ele>
        <time>2026-03-04T09:53:08Z</time>
      </trkpt>
      <trkpt lat="42.41165" lon="-0.95535">
        <ele>848.4</ele>
        <time>2026-03-04T09:53:12Z</time>
      </trkpt>
      <trkpt lat="42.41175" lon="-0.95528">
        <ele>844.79</ele>
        <time>2026-03-04T09:53:20Z</time>
      </trkpt>
      <trkpt lat="42.41187" lon="-0.95515">
        <ele>845.07</ele>
        <time>2026-03-04T09:53:30Z</time>
      </trkpt>
      <trkpt lat="42.41185" lon="-0.95507">
        <ele>845.4</ele>
        <time>2026-03-04T09:54:07Z</time>
      </trkpt>
      <trkpt lat="42.41181" lon="-0.9551">
        <ele>842.35</ele>
        <time>2026-03-04T09:54:23Z</time>
      </trkpt>
      <trkpt lat="42.41178" lon="-0.9551">
        <ele>841.32</ele>
        <time>2026-03-04T09:54:26Z</time>
      </trkpt>
      <trkpt lat="42.41173" lon="-0.95516">
        <ele>839.62</ele>
        <time>2026-03-04T09:54:35Z</time>
      </trkpt>
      <trkpt lat="42.4117" lon="-0.95518">
        <ele>839.18</ele>
        <time>2026-03-04T09:54:39Z</time>
      </trkpt>
      <trkpt lat="42.41156" lon="-0.95502">
        <ele>836.17</ele>
        <time>2026-03-04T09:54:47Z</time>
      </trkpt>
      <trkpt lat="42.41154" lon="-0.955">
        <ele>835.21</ele>
        <time>2026-03-04T09:54:49Z</time>
      </trkpt>
      <trkpt lat="42.41157" lon="-0.95493">
        <ele>832.16</ele>
        <time>2026-03-04T09:54:57Z</time>
      </trkpt>
      <trkpt lat="42.41156" lon="-0.95494">
        <ele>829.03</ele>
        <time>2026-03-04T09:55:05Z</time>
      </trkpt>
      <trkpt lat="42.4115" lon="-0.95489">
        <ele>828.69</ele>
        <time>2026-03-04T09:55:12Z</time>
      </trkpt>
      <trkpt lat="42.41149" lon="-0.95486">
        <ele>828.15</ele>
        <time>2026-03-04T09:55:14Z</time>
      </trkpt>
      <trkpt lat="42.41147" lon="-0.95482">
        <ele>828.56</ele>
        <time>2026-03-04T09:55:22Z</time>
      </trkpt>
      <trkpt lat="42.4114" lon="-0.95475">
        <ele>829.18</ele>
        <time>2026-03-04T09:55:45Z</time>
      </trkpt>
      <trkpt lat="42.4114" lon="-0.95476">
        <ele>829.14</ele>
        <time>2026-03-04T09:56:00Z</time>
      </trkpt>
      <trkpt lat="42.41141" lon="-0.95473">
        <ele>828.67</ele>
        <time>2026-03-04T09:56:14Z</time>
      </trkpt>
      <trkpt lat="42.41138" lon="-0.9547">
        <ele>828.07</ele>
        <time>2026-03-04T09:56:18Z</time>
      </trkpt>
      <trkpt lat="42.41134" lon="-0.95466">
        <ele>827.96</ele>
        <time>2026-03-04T09:56:21Z</time>
      </trkpt>
      <trkpt lat="42.41133" lon="-0.95462">
        <ele>827.04</ele>
        <time>2026-03-04T09:56:23Z</time>
      </trkpt>
      <trkpt lat="42.41128" lon="-0.95458">
        <ele>827.16</ele>
        <time>2026-03-04T09:56:26Z</time>
      </trkpt>
      <trkpt lat="42.41118" lon="-0.95434">
        <ele>826.24</ele>
        <time>2026-03-04T09:56:38Z</time>
      </trkpt>
      <trkpt lat="42.41104" lon="-0.95415">
        <ele>824.44</ele>
        <time>2026-03-04T09:56:49Z</time>
      </trkpt>
      <trkpt lat="42.41092" lon="-0.95407">
        <ele>823.08</ele>
        <time>2026-03-04T09:57:00Z</time>
      </trkpt>
      <trkpt lat="42.41084" lon="-0.95404">
        <ele>822.96</ele>
        <time>2026-03-04T09:57:07Z</time>
      </trkpt>
      <trkpt lat="42.41081" lon="-0.95397">
        <ele>822.46</ele>
        <time>2026-03-04T09:57:10Z</time>
      </trkpt>
      <trkpt lat="42.41066" lon="-0.95385">
        <ele>822.89</ele>
        <time>2026-03-04T09:57:19Z</time>
      </trkpt>
      <trkpt lat="42.41057" lon="-0.95381">
        <ele>822.96</ele>
        <time>2026-03-04T09:57:23Z</time>
      </trkpt>
      <trkpt lat="42.41033" lon="-0.95366">
        <ele>822.29</ele>
        <time>2026-03-04T09:57:36Z</time>
      </trkpt>
      <trkpt lat="42.41028" lon="-0.95365">
        <ele>822.15</ele>
        <time>2026-03-04T09:57:51Z</time>
      </trkpt>
      <trkpt lat="42.41013" lon="-0.95362">
        <ele>821.87</ele>
        <time>2026-03-04T09:58:01Z</time>
      </trkpt>
      <trkpt lat="42.41" lon="-0.95352">
        <ele>820.67</ele>
        <time>2026-03-04T09:58:09Z</time>
      </trkpt>
      <trkpt lat="42.40989" lon="-0.95354">
        <ele>819.38</ele>
        <time>2026-03-04T09:58:16Z</time>
      </trkpt>
      <trkpt lat="42.40971" lon="-0.95353">
        <ele>818.03</ele>
        <time>2026-03-04T09:58:26Z</time>
      </trkpt>
      <trkpt lat="42.40964" lon="-0.95351">
        <ele>817.4</ele>
        <time>2026-03-04T09:58:35Z</time>
      </trkpt>
      <trkpt lat="42.40952" lon="-0.95333">
        <ele>815.91</ele>
        <time>2026-03-04T09:58:43Z</time>
      </trkpt>
      <trkpt lat="42.40941" lon="-0.95312">
        <ele>816.87</ele>
        <time>2026-03-04T09:58:52Z</time>
      </trkpt>
      <trkpt lat="42.40935" lon="-0.95299">
        <ele>816.81</ele>
        <time>2026-03-04T09:58:58Z</time>
      </trkpt>
      <trkpt lat="42.40922" lon="-0.95279">
        <ele>816.1</ele>
        <time>2026-03-04T09:59:07Z</time>
      </trkpt>
      <trkpt lat="42.40913" lon="-0.95275">
        <ele>813.73</ele>
        <time>2026-03-04T09:59:12Z</time>
      </trkpt>
      <trkpt lat="42.409" lon="-0.95277">
        <ele>813.61</ele>
        <time>2026-03-04T09:59:24Z</time>
      </trkpt>
      <trkpt lat="42.40894" lon="-0.95274">
        <ele>814.3</ele>
        <time>2026-03-04T09:59:29Z</time>
      </trkpt>
      <trkpt lat="42.40882" lon="-0.95265">
        <ele>814.16</ele>
        <time>2026-03-04T09:59:36Z</time>
      </trkpt>
      <trkpt lat="42.40874" lon="-0.95261">
        <ele>813.29</ele>
        <time>2026-03-04T09:59:40Z</time>
      </trkpt>
      <trkpt lat="42.40854" lon="-0.9525">
        <ele>811.41</ele>
        <time>2026-03-04T09:59:54Z</time>
      </trkpt>
      <trkpt lat="42.40855" lon="-0.95251">
        <ele>811.27</ele>
        <time>2026-03-04T09:59:55Z</time>
      </trkpt>
      <trkpt lat="42.40847" lon="-0.95242">
        <ele>811.58</ele>
        <time>2026-03-04T10:00:00Z</time>
      </trkpt>
      <trkpt lat="42.40824" lon="-0.95224">
        <ele>808.83</ele>
        <time>2026-03-04T10:00:16Z</time>
      </trkpt>
      <trkpt lat="42.40805" lon="-0.95192">
        <ele>807.66</ele>
        <time>2026-03-04T10:00:27Z</time>
      </trkpt>
      <trkpt lat="42.40803" lon="-0.95189">
        <ele>807.45</ele>
        <time>2026-03-04T10:00:28Z</time>
      </trkpt>
      <trkpt lat="42.40787" lon="-0.95162">
        <ele>808.29</ele>
        <time>2026-03-04T10:00:40Z</time>
      </trkpt>
      <trkpt lat="42.40776" lon="-0.95148">
        <ele>808</ele>
        <time>2026-03-04T10:00:47Z</time>
      </trkpt>
      <trkpt lat="42.40754" lon="-0.95122">
        <ele>807.67</ele>
        <time>2026-03-04T10:01:02Z</time>
      </trkpt>
      <trkpt lat="42.40745" lon="-0.95108">
        <ele>806.87</ele>
        <time>2026-03-04T10:01:09Z</time>
      </trkpt>
      <trkpt lat="42.40736" lon="-0.95096">
        <ele>806.3</ele>
        <time>2026-03-04T10:01:15Z</time>
      </trkpt>
      <trkpt lat="42.40722" lon="-0.95082">
        <ele>805.51</ele>
        <time>2026-03-04T10:01:24Z</time>
      </trkpt>
      <trkpt lat="42.40714" lon="-0.9508">
        <ele>805.13</ele>
        <time>2026-03-04T10:01:29Z</time>
      </trkpt>
      <trkpt lat="42.4071" lon="-0.9508">
        <ele>804.37</ele>
        <time>2026-03-04T10:01:32Z</time>
      </trkpt>
      <trkpt lat="42.40691" lon="-0.95063">
        <ele>803.28</ele>
        <time>2026-03-04T10:01:44Z</time>
      </trkpt>
      <trkpt lat="42.40671" lon="-0.95037">
        <ele>802.12</ele>
        <time>2026-03-04T10:01:58Z</time>
      </trkpt>
      <trkpt lat="42.40651" lon="-0.94997">
        <ele>800.46</ele>
        <time>2026-03-04T10:02:12Z</time>
      </trkpt>
      <trkpt lat="42.40647" lon="-0.9499">
        <ele>800.67</ele>
        <time>2026-03-04T10:02:15Z</time>
      </trkpt>
      <trkpt lat="42.40632" lon="-0.94982">
        <ele>800.01</ele>
        <time>2026-03-04T10:02:24Z</time>
      </trkpt>
      <trkpt lat="42.40622" lon="-0.94977">
        <ele>798.46</ele>
        <time>2026-03-04T10:02:31Z</time>
      </trkpt>
      <trkpt lat="42.40611" lon="-0.94967">
        <ele>797.56</ele>
        <time>2026-03-04T10:02:38Z</time>
      </trkpt>
      <trkpt lat="42.40603" lon="-0.94956">
        <ele>797.54</ele>
        <time>2026-03-04T10:02:45Z</time>
      </trkpt>
      <trkpt lat="42.4058" lon="-0.94944">
        <ele>796.41</ele>
        <time>2026-03-04T10:03:02Z</time>
      </trkpt>
      <trkpt lat="42.40576" lon="-0.94944">
        <ele>796.66</ele>
        <time>2026-03-04T10:03:04Z</time>
      </trkpt>
      <trkpt lat="42.40551" lon="-0.94924">
        <ele>795.78</ele>
        <time>2026-03-04T10:03:22Z</time>
      </trkpt>
      <trkpt lat="42.40541" lon="-0.9492">
        <ele>794.79</ele>
        <time>2026-03-04T10:03:29Z</time>
      </trkpt>
      <trkpt lat="42.40512" lon="-0.94918">
        <ele>792.82</ele>
        <time>2026-03-04T10:03:44Z</time>
      </trkpt>
      <trkpt lat="42.40482" lon="-0.94921">
        <ele>791.77</ele>
        <time>2026-03-04T10:03:59Z</time>
      </trkpt>
      <trkpt lat="42.40453" lon="-0.94922">
        <ele>790.2</ele>
        <time>2026-03-04T10:04:13Z</time>
      </trkpt>
      <trkpt lat="42.40429" lon="-0.94921">
        <ele>788.81</ele>
        <time>2026-03-04T10:04:26Z</time>
      </trkpt>
      <trkpt lat="42.404" lon="-0.9491">
        <ele>788.48</ele>
        <time>2026-03-04T10:04:41Z</time>
      </trkpt>
      <trkpt lat="42.40389" lon="-0.94907">
        <ele>788.05</ele>
        <time>2026-03-04T10:04:47Z</time>
      </trkpt>
      <trkpt lat="42.40358" lon="-0.94907">
        <ele>786.08</ele>
        <time>2026-03-04T10:05:02Z</time>
      </trkpt>
      <trkpt lat="42.40346" lon="-0.94903">
        <ele>785.64</ele>
        <time>2026-03-04T10:05:08Z</time>
      </trkpt>
      <trkpt lat="42.40319" lon="-0.9489">
        <ele>783.29</ele>
        <time>2026-03-04T10:05:22Z</time>
      </trkpt>
      <trkpt lat="42.40294" lon="-0.94856">
        <ele>782.88</ele>
        <time>2026-03-04T10:05:37Z</time>
      </trkpt>
      <trkpt lat="42.40274" lon="-0.94838">
        <ele>782.7</ele>
        <time>2026-03-04T10:05:50Z</time>
      </trkpt>
      <trkpt lat="42.40251" lon="-0.94807">
        <ele>780.83</ele>
        <time>2026-03-04T10:06:06Z</time>
      </trkpt>
      <trkpt lat="42.4024" lon="-0.94789">
        <ele>780.21</ele>
        <time>2026-03-04T10:06:15Z</time>
      </trkpt>
      <trkpt lat="42.40234" lon="-0.94782">
        <ele>779.06</ele>
        <time>2026-03-04T10:06:19Z</time>
      </trkpt>
      <trkpt lat="42.40217" lon="-0.9475">
        <ele>778.64</ele>
        <time>2026-03-04T10:06:33Z</time>
      </trkpt>
      <trkpt lat="42.40192" lon="-0.94715">
        <ele>777.98</ele>
        <time>2026-03-04T10:06:51Z</time>
      </trkpt>
      <trkpt lat="42.4017" lon="-0.94693">
        <ele>778.09</ele>
        <time>2026-03-04T10:07:05Z</time>
      </trkpt>
      <trkpt lat="42.40147" lon="-0.94665">
        <ele>775.68</ele>
        <time>2026-03-04T10:07:22Z</time>
      </trkpt>
      <trkpt lat="42.40118" lon="-0.94634">
        <ele>774.95</ele>
        <time>2026-03-04T10:07:41Z</time>
      </trkpt>
      <trkpt lat="42.40098" lon="-0.94607">
        <ele>774.34</ele>
        <time>2026-03-04T10:07:56Z</time>
      </trkpt>
      <trkpt lat="42.40093" lon="-0.94601">
        <ele>774.2</ele>
        <time>2026-03-04T10:08:03Z</time>
      </trkpt>
      <trkpt lat="42.40087" lon="-0.94592">
        <ele>772.06</ele>
        <time>2026-03-04T10:08:09Z</time>
      </trkpt>
      <trkpt lat="42.40075" lon="-0.94572">
        <ele>771.28</ele>
        <time>2026-03-04T10:08:23Z</time>
      </trkpt>
      <trkpt lat="42.40065" lon="-0.94542">
        <ele>767.84</ele>
        <time>2026-03-04T10:08:35Z</time>
      </trkpt>
      <trkpt lat="42.40064" lon="-0.94525">
        <ele>764.88</ele>
        <time>2026-03-04T10:08:42Z</time>
      </trkpt>
      <trkpt lat="42.40064" lon="-0.94522">
        <ele>765.06</ele>
        <time>2026-03-04T10:08:44Z</time>
      </trkpt>
      <trkpt lat="42.40059" lon="-0.94511">
        <ele>763.68</ele>
        <time>2026-03-04T10:09:00Z</time>
      </trkpt>
      <trkpt lat="42.40056" lon="-0.94506">
        <ele>763.97</ele>
        <time>2026-03-04T10:09:10Z</time>
      </trkpt>
      <trkpt lat="42.40055" lon="-0.94503">
        <ele>764.49</ele>
        <time>2026-03-04T10:09:12Z</time>
      </trkpt>
      <trkpt lat="42.4004" lon="-0.94482">
        <ele>765</ele>
        <time>2026-03-04T10:09:28Z</time>
      </trkpt>
      <trkpt lat="42.40039" lon="-0.94481">
        <ele>765.31</ele>
        <time>2026-03-04T10:09:29Z</time>
      </trkpt>
      <trkpt lat="42.40036" lon="-0.94478">
        <ele>764.94</ele>
        <time>2026-03-04T10:09:31Z</time>
      </trkpt>
      <trkpt lat="42.40012" lon="-0.94462">
        <ele>765.05</ele>
        <time>2026-03-04T10:09:47Z</time>
      </trkpt>
      <trkpt lat="42.39999" lon="-0.94453">
        <ele>768.91</ele>
        <time>2026-03-04T10:09:59Z</time>
      </trkpt>
      <trkpt lat="42.39997" lon="-0.94449">
        <ele>767.73</ele>
        <time>2026-03-04T10:10:19Z</time>
      </trkpt>
      <trkpt lat="42.40001" lon="-0.94446">
        <ele>768.27</ele>
        <time>2026-03-04T10:10:37Z</time>
      </trkpt>
      <trkpt lat="42.39994" lon="-0.94446">
        <ele>768.08</ele>
        <time>2026-03-04T10:10:42Z</time>
      </trkpt>
      <trkpt lat="42.39987" lon="-0.94448">
        <ele>767.56</ele>
        <time>2026-03-04T10:10:47Z</time>
      </trkpt>
      <trkpt lat="42.39981" lon="-0.9445">
        <ele>767.05</ele>
        <time>2026-03-04T10:11:00Z</time>
      </trkpt>
      <trkpt lat="42.39981" lon="-0.9445">
        <ele>767.4</ele>
        <time>2026-03-04T10:11:01Z</time>
      </trkpt>
      <trkpt lat="42.39985" lon="-0.94451">
        <ele>767.2</ele>
        <time>2026-03-04T10:11:04Z</time>
      </trkpt>
      <trkpt lat="42.39987" lon="-0.94451">
        <ele>767.79</ele>
        <time>2026-03-04T10:11:19Z</time>
      </trkpt>
      <trkpt lat="42.39992" lon="-0.9445">
        <ele>767.98</ele>
        <time>2026-03-04T10:11:40Z</time>
      </trkpt>
      <trkpt lat="42.39993" lon="-0.94449">
        <ele>768.71</ele>
        <time>2026-03-04T10:11:50Z</time>
      </trkpt>
      <trkpt lat="42.39989" lon="-0.94447">
        <ele>768.5</ele>
        <time>2026-03-04T10:12:05Z</time>
      </trkpt>
      <trkpt lat="42.39984" lon="-0.94446">
        <ele>767.74</ele>
        <time>2026-03-04T10:12:08Z</time>
      </trkpt>
      <trkpt lat="42.39983" lon="-0.9444">
        <ele>768.25</ele>
        <time>2026-03-04T10:12:12Z</time>
      </trkpt>
      <trkpt lat="42.39973" lon="-0.94419">
        <ele>772.37</ele>
        <time>2026-03-04T10:12:28Z</time>
      </trkpt>
      <trkpt lat="42.39973" lon="-0.94414">
        <ele>769.98</ele>
        <time>2026-03-04T10:12:47Z</time>
      </trkpt>
      <trkpt lat="42.3997" lon="-0.94413">
        <ele>770.28</ele>
        <time>2026-03-04T10:12:49Z</time>
      </trkpt>
      <trkpt lat="42.39948" lon="-0.9439">
        <ele>771.52</ele>
        <time>2026-03-04T10:13:06Z</time>
      </trkpt>
      <trkpt lat="42.39943" lon="-0.94385">
        <ele>771.55</ele>
        <time>2026-03-04T10:13:10Z</time>
      </trkpt>
      <trkpt lat="42.39914" lon="-0.94372">
        <ele>771.26</ele>
        <time>2026-03-04T10:13:27Z</time>
      </trkpt>
      <trkpt lat="42.39887" lon="-0.9436">
        <ele>769.57</ele>
        <time>2026-03-04T10:13:42Z</time>
      </trkpt>
      <trkpt lat="42.39858" lon="-0.94358">
        <ele>768.8</ele>
        <time>2026-03-04T10:13:58Z</time>
      </trkpt>
      <trkpt lat="42.39832" lon="-0.94348">
        <ele>769.81</ele>
        <time>2026-03-04T10:14:12Z</time>
      </trkpt>
      <trkpt lat="42.39808" lon="-0.94333">
        <ele>769.91</ele>
        <time>2026-03-04T10:14:26Z</time>
      </trkpt>
      <trkpt lat="42.39795" lon="-0.94324">
        <ele>770.17</ele>
        <time>2026-03-04T10:14:34Z</time>
      </trkpt>
      <trkpt lat="42.39767" lon="-0.94285">
        <ele>769.26</ele>
        <time>2026-03-04T10:14:52Z</time>
      </trkpt>
      <trkpt lat="42.39749" lon="-0.94245">
        <ele>767.12</ele>
        <time>2026-03-04T10:15:07Z</time>
      </trkpt>
      <trkpt lat="42.39735" lon="-0.94213">
        <ele>765.94</ele>
        <time>2026-03-04T10:15:20Z</time>
      </trkpt>
      <trkpt lat="42.39725" lon="-0.94177">
        <ele>764.29</ele>
        <time>2026-03-04T10:15:33Z</time>
      </trkpt>
      <trkpt lat="42.39717" lon="-0.94136">
        <ele>761.46</ele>
        <time>2026-03-04T10:15:49Z</time>
      </trkpt>
      <trkpt lat="42.39699" lon="-0.94091">
        <ele>760.32</ele>
        <time>2026-03-04T10:16:07Z</time>
      </trkpt>
      <trkpt lat="42.39682" lon="-0.94053">
        <ele>761.74</ele>
        <time>2026-03-04T10:16:23Z</time>
      </trkpt>
      <trkpt lat="42.39665" lon="-0.94007">
        <ele>763.44</ele>
        <time>2026-03-04T10:16:41Z</time>
      </trkpt>
      <trkpt lat="42.39646" lon="-0.93976">
        <ele>763.36</ele>
        <time>2026-03-04T10:16:56Z</time>
      </trkpt>
      <trkpt lat="42.3962" lon="-0.93944">
        <ele>761.16</ele>
        <time>2026-03-04T10:17:13Z</time>
      </trkpt>
      <trkpt lat="42.39594" lon="-0.93924">
        <ele>761.06</ele>
        <time>2026-03-04T10:17:28Z</time>
      </trkpt>
      <trkpt lat="42.39577" lon="-0.93919">
        <ele>759.66</ele>
        <time>2026-03-04T10:17:38Z</time>
      </trkpt>
      <trkpt lat="42.39554" lon="-0.93937">
        <ele>758.29</ele>
        <time>2026-03-04T10:17:54Z</time>
      </trkpt>
      <trkpt lat="42.39538" lon="-0.93963">
        <ele>758.29</ele>
        <time>2026-03-04T10:18:10Z</time>
      </trkpt>
      <trkpt lat="42.39537" lon="-0.93966">
        <ele>758.72</ele>
        <time>2026-03-04T10:18:25Z</time>
      </trkpt>
      <trkpt lat="42.39534" lon="-0.93972">
        <ele>758.79</ele>
        <time>2026-03-04T10:18:30Z</time>
      </trkpt>
      <trkpt lat="42.39526" lon="-0.93976">
        <ele>758.85</ele>
        <time>2026-03-04T10:18:42Z</time>
      </trkpt>
      <trkpt lat="42.39527" lon="-0.93973">
        <ele>759.04</ele>
        <time>2026-03-04T10:18:56Z</time>
      </trkpt>
      <trkpt lat="42.39511" lon="-0.9398">
        <ele>759.17</ele>
        <time>2026-03-04T10:19:06Z</time>
      </trkpt>
      <trkpt lat="42.39486" lon="-0.93959">
        <ele>757.92</ele>
        <time>2026-03-04T10:19:22Z</time>
      </trkpt>
      <trkpt lat="42.39473" lon="-0.93947">
        <ele>759.41</ele>
        <time>2026-03-04T10:19:30Z</time>
      </trkpt>
      <trkpt lat="42.39442" lon="-0.93929">
        <ele>758.97</ele>
        <time>2026-03-04T10:19:48Z</time>
      </trkpt>
      <trkpt lat="42.39412" lon="-0.93916">
        <ele>758.92</ele>
        <time>2026-03-04T10:20:05Z</time>
      </trkpt>
      <trkpt lat="42.39384" lon="-0.93901">
        <ele>760.34</ele>
        <time>2026-03-04T10:20:22Z</time>
      </trkpt>
      <trkpt lat="42.39359" lon="-0.93878">
        <ele>760.48</ele>
        <time>2026-03-04T10:20:38Z</time>
      </trkpt>
      <trkpt lat="42.39336" lon="-0.93852">
        <ele>761.19</ele>
        <time>2026-03-04T10:20:55Z</time>
      </trkpt>
      <trkpt lat="42.39308" lon="-0.93815">
        <ele>760.84</ele>
        <time>2026-03-04T10:21:13Z</time>
      </trkpt>
      <trkpt lat="42.39293" lon="-0.93791">
        <ele>757.95</ele>
        <time>2026-03-04T10:21:24Z</time>
      </trkpt>
      <trkpt lat="42.39268" lon="-0.93762">
        <ele>756.14</ele>
        <time>2026-03-04T10:21:40Z</time>
      </trkpt>
      <trkpt lat="42.3924" lon="-0.93741">
        <ele>756.29</ele>
        <time>2026-03-04T10:21:56Z</time>
      </trkpt>
      <trkpt lat="42.39207" lon="-0.9375">
        <ele>757.37</ele>
        <time>2026-03-04T10:22:13Z</time>
      </trkpt>
      <trkpt lat="42.39182" lon="-0.9376">
        <ele>759.61</ele>
        <time>2026-03-04T10:22:27Z</time>
      </trkpt>
      <trkpt lat="42.39158" lon="-0.93789">
        <ele>759.56</ele>
        <time>2026-03-04T10:22:44Z</time>
      </trkpt>
      <trkpt lat="42.39131" lon="-0.93815">
        <ele>758.76</ele>
        <time>2026-03-04T10:23:03Z</time>
      </trkpt>
      <trkpt lat="42.39121" lon="-0.93833">
        <ele>757.37</ele>
        <time>2026-03-04T10:23:20Z</time>
      </trkpt>
    </trkseg>
  </trk>
</gpx>